<?xml version="1.0" encoding="UTF-8" standalone="no" ?>
<gpx xmlns="http://www.topografix.com/GPX/1/1" xmlns:xsi="http://www.w3.org/2001/XMLSchema-instance" xsi:schemaLocation="http://www.topografix.com/GPX/1/1 http://www.topografix.com/GPX/1/1/gpx.xsd" version="1.1" creator="VisuGPX - https://www.visugpx.com">
  <metadata>
    <name>ENTRE LA COLLINE ET L YONNE A ARMEAU  </name>
    <desc><![CDATA[prépa séjour]]></desc>
  </metadata>
  <wpt lat="48.04606" lon="3.32036">
    <ele>75</ele>
  </wpt>
  <wpt lat="48.03037" lon="3.33771">
    <ele>203.3</ele>
  </wpt>
  <wpt lat="48.01897" lon="3.31474">
    <ele>129.6</ele>
  </wpt>
  <wpt lat="48.03855" lon="3.31957">
    <ele>71</ele>
  </wpt>
  <trk>
    <name><![CDATA[randogps89-44]]></name>
    <trkseg>
      <trkpt lat="48.04589" lon="3.3209">
        <ele>78</ele>
        <time>2016-10-10T07:18:47Z</time>
      </trkpt>
      <trkpt lat="48.04582" lon="3.321">
        <ele>78.97</ele>
        <time>2016-10-10T07:18:56Z</time>
      </trkpt>
      <trkpt lat="48.04574" lon="3.3211">
        <ele>77.04</ele>
        <time>2016-10-10T07:19:05Z</time>
      </trkpt>
      <trkpt lat="48.04571" lon="3.32115">
        <ele>76.08</ele>
        <time>2016-10-10T07:19:10Z</time>
      </trkpt>
      <trkpt lat="48.04569" lon="3.32118">
        <ele>75.6</ele>
        <time>2016-10-10T07:19:13Z</time>
      </trkpt>
      <trkpt lat="48.04561" lon="3.32126">
        <ele>74.16</ele>
        <time>2016-10-10T07:19:21Z</time>
      </trkpt>
      <trkpt lat="48.04554" lon="3.32136">
        <ele>73.2</ele>
        <time>2016-10-10T07:19:29Z</time>
      </trkpt>
      <trkpt lat="48.04548" lon="3.32144">
        <ele>72.72</ele>
        <time>2016-10-10T07:19:37Z</time>
      </trkpt>
      <trkpt lat="48.04541" lon="3.32153">
        <ele>71.76</ele>
        <time>2016-10-10T07:19:46Z</time>
      </trkpt>
      <trkpt lat="48.04533" lon="3.32165">
        <ele>71.27</ele>
        <time>2016-10-10T07:19:55Z</time>
      </trkpt>
      <trkpt lat="48.04527" lon="3.32174">
        <ele>70.79</ele>
        <time>2016-10-10T07:20:04Z</time>
      </trkpt>
      <trkpt lat="48.04519" lon="3.32185">
        <ele>71.27</ele>
        <time>2016-10-10T07:20:12Z</time>
      </trkpt>
      <trkpt lat="48.04511" lon="3.32196">
        <ele>71.76</ele>
        <time>2016-10-10T07:20:20Z</time>
      </trkpt>
      <trkpt lat="48.04505" lon="3.32206">
        <ele>73.2</ele>
        <time>2016-10-10T07:20:27Z</time>
      </trkpt>
      <trkpt lat="48.04498" lon="3.32215">
        <ele>74.16</ele>
        <time>2016-10-10T07:20:34Z</time>
      </trkpt>
      <trkpt lat="48.0449" lon="3.32227">
        <ele>75.12</ele>
        <time>2016-10-10T07:20:42Z</time>
      </trkpt>
      <trkpt lat="48.04485" lon="3.32233">
        <ele>73.2</ele>
        <time>2016-10-10T07:20:49Z</time>
      </trkpt>
      <trkpt lat="48.04483" lon="3.32237">
        <ele>73.2</ele>
        <time>2016-10-10T07:20:54Z</time>
      </trkpt>
      <trkpt lat="48.04481" lon="3.32244">
        <ele>71.27</ele>
        <time>2016-10-10T07:21:02Z</time>
      </trkpt>
      <trkpt lat="48.04477" lon="3.32249">
        <ele>71.27</ele>
        <time>2016-10-10T07:21:07Z</time>
      </trkpt>
      <trkpt lat="48.04472" lon="3.32265">
        <ele>68.87</ele>
        <time>2016-10-10T07:21:17Z</time>
      </trkpt>
      <trkpt lat="48.04472" lon="3.32266">
        <ele>68.87</ele>
        <time>2016-10-10T07:21:18Z</time>
      </trkpt>
      <trkpt lat="48.04473" lon="3.32276">
        <ele>67.91</ele>
        <time>2016-10-10T07:21:24Z</time>
      </trkpt>
      <trkpt lat="48.04474" lon="3.32285">
        <ele>68.87</ele>
        <time>2016-10-10T07:21:32Z</time>
      </trkpt>
      <trkpt lat="48.04475" lon="3.32289">
        <ele>69.35</ele>
        <time>2016-10-10T07:21:35Z</time>
      </trkpt>
      <trkpt lat="48.04485" lon="3.32303">
        <ele>73.2</ele>
        <time>2016-10-10T07:21:43Z</time>
      </trkpt>
      <trkpt lat="48.04491" lon="3.32311">
        <ele>75.12</ele>
        <time>2016-10-10T07:21:50Z</time>
      </trkpt>
      <trkpt lat="48.04492" lon="3.32313">
        <ele>75.12</ele>
        <time>2016-10-10T07:21:51Z</time>
      </trkpt>
      <trkpt lat="48.04494" lon="3.32316">
        <ele>75.6</ele>
        <time>2016-10-10T07:21:53Z</time>
      </trkpt>
      <trkpt lat="48.04501" lon="3.32327">
        <ele>75.12</ele>
        <time>2016-10-10T07:22:01Z</time>
      </trkpt>
      <trkpt lat="48.04504" lon="3.32338">
        <ele>73.68</ele>
        <time>2016-10-10T07:22:10Z</time>
      </trkpt>
      <trkpt lat="48.04509" lon="3.3235">
        <ele>72.72</ele>
        <time>2016-10-10T07:22:18Z</time>
      </trkpt>
      <trkpt lat="48.04515" lon="3.32359">
        <ele>73.68</ele>
        <time>2016-10-10T07:22:25Z</time>
      </trkpt>
      <trkpt lat="48.04523" lon="3.32375">
        <ele>75.6</ele>
        <time>2016-10-10T07:22:34Z</time>
      </trkpt>
      <trkpt lat="48.0453" lon="3.32388">
        <ele>77.04</ele>
        <time>2016-10-10T07:22:42Z</time>
      </trkpt>
      <trkpt lat="48.04537" lon="3.32399">
        <ele>78</ele>
        <time>2016-10-10T07:22:50Z</time>
      </trkpt>
      <trkpt lat="48.04541" lon="3.32411">
        <ele>78.48</ele>
        <time>2016-10-10T07:22:58Z</time>
      </trkpt>
      <trkpt lat="48.04541" lon="3.32414">
        <ele>78</ele>
        <time>2016-10-10T07:23:00Z</time>
      </trkpt>
      <trkpt lat="48.04545" lon="3.32429">
        <ele>77.52</ele>
        <time>2016-10-10T07:23:09Z</time>
      </trkpt>
      <trkpt lat="48.04546" lon="3.32431">
        <ele>77.52</ele>
        <time>2016-10-10T07:23:10Z</time>
      </trkpt>
      <trkpt lat="48.0455" lon="3.32443">
        <ele>77.04</ele>
        <time>2016-10-10T07:23:18Z</time>
      </trkpt>
      <trkpt lat="48.04554" lon="3.32458">
        <ele>77.04</ele>
        <time>2016-10-10T07:23:27Z</time>
      </trkpt>
      <trkpt lat="48.04559" lon="3.32472">
        <ele>75.6</ele>
        <time>2016-10-10T07:23:35Z</time>
      </trkpt>
      <trkpt lat="48.04554" lon="3.32479">
        <ele>77.04</ele>
        <time>2016-10-10T07:23:42Z</time>
      </trkpt>
      <trkpt lat="48.04551" lon="3.32478">
        <ele>78.48</ele>
        <time>2016-10-10T07:23:51Z</time>
      </trkpt>
      <trkpt lat="48.04548" lon="3.3248">
        <ele>78.97</ele>
        <time>2016-10-10T07:24:01Z</time>
      </trkpt>
      <trkpt lat="48.04549" lon="3.32479">
        <ele>79.45</ele>
        <time>2016-10-10T07:24:19Z</time>
      </trkpt>
      <trkpt lat="48.04545" lon="3.32479">
        <ele>84.73</ele>
        <time>2016-10-10T07:24:33Z</time>
      </trkpt>
      <trkpt lat="48.04543" lon="3.3248">
        <ele>85.21</ele>
        <time>2016-10-10T07:24:40Z</time>
      </trkpt>
      <trkpt lat="48.04537" lon="3.32488">
        <ele>85.69</ele>
        <time>2016-10-10T07:24:50Z</time>
      </trkpt>
      <trkpt lat="48.04529" lon="3.32498">
        <ele>84.25</ele>
        <time>2016-10-10T07:24:59Z</time>
      </trkpt>
      <trkpt lat="48.04521" lon="3.32504">
        <ele>83.29</ele>
        <time>2016-10-10T07:25:07Z</time>
      </trkpt>
      <trkpt lat="48.04513" lon="3.3251">
        <ele>83.77</ele>
        <time>2016-10-10T07:25:14Z</time>
      </trkpt>
      <trkpt lat="48.04504" lon="3.32516">
        <ele>82.33</ele>
        <time>2016-10-10T07:25:21Z</time>
      </trkpt>
      <trkpt lat="48.045" lon="3.32521">
        <ele>81.37</ele>
        <time>2016-10-10T07:25:26Z</time>
      </trkpt>
      <trkpt lat="48.04493" lon="3.32534">
        <ele>81.37</ele>
        <time>2016-10-10T07:25:36Z</time>
      </trkpt>
      <trkpt lat="48.04493" lon="3.32537">
        <ele>81.85</ele>
        <time>2016-10-10T07:25:38Z</time>
      </trkpt>
      <trkpt lat="48.04494" lon="3.32545">
        <ele>81.85</ele>
        <time>2016-10-10T07:25:43Z</time>
      </trkpt>
      <trkpt lat="48.04502" lon="3.32558">
        <ele>83.77</ele>
        <time>2016-10-10T07:25:52Z</time>
      </trkpt>
      <trkpt lat="48.04504" lon="3.32565">
        <ele>84.73</ele>
        <time>2016-10-10T07:25:58Z</time>
      </trkpt>
      <trkpt lat="48.04505" lon="3.32577">
        <ele>85.69</ele>
        <time>2016-10-10T07:26:06Z</time>
      </trkpt>
      <trkpt lat="48.04506" lon="3.32579">
        <ele>85.69</ele>
        <time>2016-10-10T07:26:08Z</time>
      </trkpt>
      <trkpt lat="48.04513" lon="3.32591">
        <ele>86.66</ele>
        <time>2016-10-10T07:26:16Z</time>
      </trkpt>
      <trkpt lat="48.04514" lon="3.32603">
        <ele>86.18</ele>
        <time>2016-10-10T07:26:25Z</time>
      </trkpt>
      <trkpt lat="48.04521" lon="3.32612">
        <ele>85.69</ele>
        <time>2016-10-10T07:26:33Z</time>
      </trkpt>
      <trkpt lat="48.04526" lon="3.32623">
        <ele>85.21</ele>
        <time>2016-10-10T07:26:42Z</time>
      </trkpt>
      <trkpt lat="48.04527" lon="3.3263">
        <ele>84.73</ele>
        <time>2016-10-10T07:26:48Z</time>
      </trkpt>
      <trkpt lat="48.04528" lon="3.32634">
        <ele>84.73</ele>
        <time>2016-10-10T07:26:51Z</time>
      </trkpt>
      <trkpt lat="48.04529" lon="3.32645">
        <ele>84.73</ele>
        <time>2016-10-10T07:26:59Z</time>
      </trkpt>
      <trkpt lat="48.0453" lon="3.32654">
        <ele>86.66</ele>
        <time>2016-10-10T07:27:06Z</time>
      </trkpt>
      <trkpt lat="48.04522" lon="3.32666">
        <ele>89.06</ele>
        <time>2016-10-10T07:27:15Z</time>
      </trkpt>
      <trkpt lat="48.04519" lon="3.32668">
        <ele>89.54</ele>
        <time>2016-10-10T07:27:17Z</time>
      </trkpt>
      <trkpt lat="48.04512" lon="3.32677">
        <ele>90.98</ele>
        <time>2016-10-10T07:27:25Z</time>
      </trkpt>
      <trkpt lat="48.04507" lon="3.32685">
        <ele>92.42</ele>
        <time>2016-10-10T07:27:33Z</time>
      </trkpt>
      <trkpt lat="48.04502" lon="3.32695">
        <ele>94.83</ele>
        <time>2016-10-10T07:27:41Z</time>
      </trkpt>
      <trkpt lat="48.04497" lon="3.32705">
        <ele>95.79</ele>
        <time>2016-10-10T07:27:49Z</time>
      </trkpt>
      <trkpt lat="48.04495" lon="3.32714">
        <ele>96.27</ele>
        <time>2016-10-10T07:27:57Z</time>
      </trkpt>
      <trkpt lat="48.04495" lon="3.32723">
        <ele>97.71</ele>
        <time>2016-10-10T07:28:04Z</time>
      </trkpt>
      <trkpt lat="48.04495" lon="3.32732">
        <ele>97.71</ele>
        <time>2016-10-10T07:28:10Z</time>
      </trkpt>
      <trkpt lat="48.04489" lon="3.32743">
        <ele>98.67</ele>
        <time>2016-10-10T07:28:19Z</time>
      </trkpt>
      <trkpt lat="48.04483" lon="3.32754">
        <ele>98.67</ele>
        <time>2016-10-10T07:28:28Z</time>
      </trkpt>
      <trkpt lat="48.04476" lon="3.32763">
        <ele>99.15</ele>
        <time>2016-10-10T07:28:36Z</time>
      </trkpt>
      <trkpt lat="48.04466" lon="3.32773">
        <ele>102.04</ele>
        <time>2016-10-10T07:28:46Z</time>
      </trkpt>
      <trkpt lat="48.04458" lon="3.32782">
        <ele>103.48</ele>
        <time>2016-10-10T07:28:55Z</time>
      </trkpt>
      <trkpt lat="48.04451" lon="3.32793">
        <ele>104.44</ele>
        <time>2016-10-10T07:29:04Z</time>
      </trkpt>
      <trkpt lat="48.04442" lon="3.32802">
        <ele>106.36</ele>
        <time>2016-10-10T07:29:13Z</time>
      </trkpt>
      <trkpt lat="48.04432" lon="3.3281">
        <ele>108.77</ele>
        <time>2016-10-10T07:29:22Z</time>
      </trkpt>
      <trkpt lat="48.04422" lon="3.32819">
        <ele>109.25</ele>
        <time>2016-10-10T07:29:32Z</time>
      </trkpt>
      <trkpt lat="48.04416" lon="3.32826">
        <ele>109.73</ele>
        <time>2016-10-10T07:29:39Z</time>
      </trkpt>
      <trkpt lat="48.0441" lon="3.32834">
        <ele>109.73</ele>
        <time>2016-10-10T07:29:46Z</time>
      </trkpt>
      <trkpt lat="48.04401" lon="3.32843">
        <ele>109.73</ele>
        <time>2016-10-10T07:29:56Z</time>
      </trkpt>
      <trkpt lat="48.04394" lon="3.32852">
        <ele>109.73</ele>
        <time>2016-10-10T07:30:05Z</time>
      </trkpt>
      <trkpt lat="48.04386" lon="3.32861">
        <ele>111.17</ele>
        <time>2016-10-10T07:30:15Z</time>
      </trkpt>
      <trkpt lat="48.04378" lon="3.32868">
        <ele>113.09</ele>
        <time>2016-10-10T07:30:23Z</time>
      </trkpt>
      <trkpt lat="48.04371" lon="3.32875">
        <ele>115.01</ele>
        <time>2016-10-10T07:30:32Z</time>
      </trkpt>
      <trkpt lat="48.04364" lon="3.32883">
        <ele>116.46</ele>
        <time>2016-10-10T07:30:41Z</time>
      </trkpt>
      <trkpt lat="48.04357" lon="3.32889">
        <ele>117.42</ele>
        <time>2016-10-10T07:30:48Z</time>
      </trkpt>
      <trkpt lat="48.04351" lon="3.32897">
        <ele>117.42</ele>
        <time>2016-10-10T07:30:57Z</time>
      </trkpt>
      <trkpt lat="48.04344" lon="3.32906">
        <ele>118.86</ele>
        <time>2016-10-10T07:31:06Z</time>
      </trkpt>
      <trkpt lat="48.04338" lon="3.32915">
        <ele>121.26</ele>
        <time>2016-10-10T07:31:15Z</time>
      </trkpt>
      <trkpt lat="48.04332" lon="3.32923">
        <ele>122.71</ele>
        <time>2016-10-10T07:31:24Z</time>
      </trkpt>
      <trkpt lat="48.04327" lon="3.32933">
        <ele>124.15</ele>
        <time>2016-10-10T07:31:33Z</time>
      </trkpt>
      <trkpt lat="48.04323" lon="3.32941">
        <ele>124.15</ele>
        <time>2016-10-10T07:31:41Z</time>
      </trkpt>
      <trkpt lat="48.04319" lon="3.32945">
        <ele>125.11</ele>
        <time>2016-10-10T07:31:46Z</time>
      </trkpt>
      <trkpt lat="48.04317" lon="3.32955">
        <ele>125.11</ele>
        <time>2016-10-10T07:31:53Z</time>
      </trkpt>
      <trkpt lat="48.04314" lon="3.32967">
        <ele>125.59</ele>
        <time>2016-10-10T07:32:02Z</time>
      </trkpt>
      <trkpt lat="48.04309" lon="3.32978">
        <ele>126.55</ele>
        <time>2016-10-10T07:32:11Z</time>
      </trkpt>
      <trkpt lat="48.04303" lon="3.32988">
        <ele>128.47</ele>
        <time>2016-10-10T07:32:20Z</time>
      </trkpt>
      <trkpt lat="48.043" lon="3.32997">
        <ele>129.92</ele>
        <time>2016-10-10T07:32:28Z</time>
      </trkpt>
      <trkpt lat="48.04297" lon="3.33006">
        <ele>131.36</ele>
        <time>2016-10-10T07:32:35Z</time>
      </trkpt>
      <trkpt lat="48.04292" lon="3.33016">
        <ele>132.8</ele>
        <time>2016-10-10T07:32:43Z</time>
      </trkpt>
      <trkpt lat="48.04286" lon="3.33025">
        <ele>132.8</ele>
        <time>2016-10-10T07:32:51Z</time>
      </trkpt>
      <trkpt lat="48.0428" lon="3.33034">
        <ele>133.76</ele>
        <time>2016-10-10T07:32:59Z</time>
      </trkpt>
      <trkpt lat="48.04276" lon="3.33037">
        <ele>134.24</ele>
        <time>2016-10-10T07:33:03Z</time>
      </trkpt>
      <trkpt lat="48.04271" lon="3.33048">
        <ele>133.76</ele>
        <time>2016-10-10T07:33:12Z</time>
      </trkpt>
      <trkpt lat="48.04265" lon="3.33056">
        <ele>132.8</ele>
        <time>2016-10-10T07:33:21Z</time>
      </trkpt>
      <trkpt lat="48.04259" lon="3.33061">
        <ele>131.36</ele>
        <time>2016-10-10T07:33:28Z</time>
      </trkpt>
      <trkpt lat="48.04254" lon="3.33066">
        <ele>131.36</ele>
        <time>2016-10-10T07:33:35Z</time>
      </trkpt>
      <trkpt lat="48.04254" lon="3.33071">
        <ele>132.32</ele>
        <time>2016-10-10T07:33:37Z</time>
      </trkpt>
      <trkpt lat="48.04252" lon="3.33077">
        <ele>133.76</ele>
        <time>2016-10-10T07:33:46Z</time>
      </trkpt>
      <trkpt lat="48.0425" lon="3.33075">
        <ele>136.64</ele>
        <time>2016-10-10T07:34:00Z</time>
      </trkpt>
      <trkpt lat="48.0425" lon="3.33075">
        <ele>138.09</ele>
        <time>2016-10-10T07:34:15Z</time>
      </trkpt>
      <trkpt lat="48.0425" lon="3.33074">
        <ele>139.53</ele>
        <time>2016-10-10T07:34:30Z</time>
      </trkpt>
      <trkpt lat="48.04248" lon="3.33075">
        <ele>139.05</ele>
        <time>2016-10-10T07:34:51Z</time>
      </trkpt>
      <trkpt lat="48.04246" lon="3.33079">
        <ele>138.09</ele>
        <time>2016-10-10T07:35:00Z</time>
      </trkpt>
      <trkpt lat="48.0424" lon="3.33087">
        <ele>139.05</ele>
        <time>2016-10-10T07:35:07Z</time>
      </trkpt>
      <trkpt lat="48.04233" lon="3.33095">
        <ele>139.05</ele>
        <time>2016-10-10T07:35:16Z</time>
      </trkpt>
      <trkpt lat="48.04227" lon="3.33102">
        <ele>139.53</ele>
        <time>2016-10-10T07:35:23Z</time>
      </trkpt>
      <trkpt lat="48.0422" lon="3.33106">
        <ele>140.49</ele>
        <time>2016-10-10T07:35:30Z</time>
      </trkpt>
      <trkpt lat="48.04217" lon="3.33111">
        <ele>142.41</ele>
        <time>2016-10-10T07:35:38Z</time>
      </trkpt>
      <trkpt lat="48.0421" lon="3.33114">
        <ele>143.37</ele>
        <time>2016-10-10T07:35:44Z</time>
      </trkpt>
      <trkpt lat="48.04203" lon="3.3312">
        <ele>144.82</ele>
        <time>2016-10-10T07:35:53Z</time>
      </trkpt>
      <trkpt lat="48.04196" lon="3.33125">
        <ele>146.26</ele>
        <time>2016-10-10T07:36:02Z</time>
      </trkpt>
      <trkpt lat="48.04188" lon="3.33128">
        <ele>147.7</ele>
        <time>2016-10-10T07:36:10Z</time>
      </trkpt>
      <trkpt lat="48.04181" lon="3.33131">
        <ele>148.18</ele>
        <time>2016-10-10T07:36:17Z</time>
      </trkpt>
      <trkpt lat="48.04174" lon="3.33135">
        <ele>148.18</ele>
        <time>2016-10-10T07:36:25Z</time>
      </trkpt>
      <trkpt lat="48.04167" lon="3.33139">
        <ele>149.62</ele>
        <time>2016-10-10T07:36:34Z</time>
      </trkpt>
      <trkpt lat="48.04162" lon="3.33144">
        <ele>151.54</ele>
        <time>2016-10-10T07:36:41Z</time>
      </trkpt>
      <trkpt lat="48.04154" lon="3.33147">
        <ele>154.43</ele>
        <time>2016-10-10T07:36:49Z</time>
      </trkpt>
      <trkpt lat="48.04148" lon="3.33151">
        <ele>155.87</ele>
        <time>2016-10-10T07:36:58Z</time>
      </trkpt>
      <trkpt lat="48.04142" lon="3.33155">
        <ele>157.31</ele>
        <time>2016-10-10T07:37:06Z</time>
      </trkpt>
      <trkpt lat="48.04129" lon="3.33161">
        <ele>159.24</ele>
        <time>2016-10-10T07:37:17Z</time>
      </trkpt>
      <trkpt lat="48.0412" lon="3.33165">
        <ele>160.2</ele>
        <time>2016-10-10T07:37:26Z</time>
      </trkpt>
      <trkpt lat="48.04115" lon="3.33168">
        <ele>161.64</ele>
        <time>2016-10-10T07:37:33Z</time>
      </trkpt>
      <trkpt lat="48.04104" lon="3.33172">
        <ele>162.6</ele>
        <time>2016-10-10T07:37:41Z</time>
      </trkpt>
      <trkpt lat="48.04098" lon="3.33176">
        <ele>163.56</ele>
        <time>2016-10-10T07:37:49Z</time>
      </trkpt>
      <trkpt lat="48.04087" lon="3.33184">
        <ele>163.56</ele>
        <time>2016-10-10T07:37:59Z</time>
      </trkpt>
      <trkpt lat="48.04079" lon="3.33189">
        <ele>163.56</ele>
        <time>2016-10-10T07:38:06Z</time>
      </trkpt>
      <trkpt lat="48.04071" lon="3.33196">
        <ele>163.56</ele>
        <time>2016-10-10T07:38:15Z</time>
      </trkpt>
      <trkpt lat="48.04063" lon="3.33201">
        <ele>163.08</ele>
        <time>2016-10-10T07:38:22Z</time>
      </trkpt>
      <trkpt lat="48.04059" lon="3.33203">
        <ele>163.08</ele>
        <time>2016-10-10T07:38:26Z</time>
      </trkpt>
      <trkpt lat="48.0405" lon="3.33209">
        <ele>163.56</ele>
        <time>2016-10-10T07:38:33Z</time>
      </trkpt>
      <trkpt lat="48.04042" lon="3.33214">
        <ele>163.08</ele>
        <time>2016-10-10T07:38:42Z</time>
      </trkpt>
      <trkpt lat="48.04034" lon="3.33219">
        <ele>163.08</ele>
        <time>2016-10-10T07:38:50Z</time>
      </trkpt>
      <trkpt lat="48.04029" lon="3.33224">
        <ele>163.56</ele>
        <time>2016-10-10T07:38:57Z</time>
      </trkpt>
      <trkpt lat="48.04022" lon="3.33228">
        <ele>163.08</ele>
        <time>2016-10-10T07:39:05Z</time>
      </trkpt>
      <trkpt lat="48.04013" lon="3.33233">
        <ele>163.56</ele>
        <time>2016-10-10T07:39:13Z</time>
      </trkpt>
      <trkpt lat="48.04004" lon="3.33238">
        <ele>163.08</ele>
        <time>2016-10-10T07:39:21Z</time>
      </trkpt>
      <trkpt lat="48.03995" lon="3.33243">
        <ele>162.12</ele>
        <time>2016-10-10T07:39:30Z</time>
      </trkpt>
      <trkpt lat="48.03989" lon="3.33247">
        <ele>160.68</ele>
        <time>2016-10-10T07:39:36Z</time>
      </trkpt>
      <trkpt lat="48.0398" lon="3.3325">
        <ele>160.2</ele>
        <time>2016-10-10T07:39:45Z</time>
      </trkpt>
      <trkpt lat="48.03975" lon="3.33253">
        <ele>159.72</ele>
        <time>2016-10-10T07:39:52Z</time>
      </trkpt>
      <trkpt lat="48.03966" lon="3.33257">
        <ele>160.68</ele>
        <time>2016-10-10T07:40:00Z</time>
      </trkpt>
      <trkpt lat="48.03957" lon="3.33262">
        <ele>160.2</ele>
        <time>2016-10-10T07:40:09Z</time>
      </trkpt>
      <trkpt lat="48.03948" lon="3.33266">
        <ele>160.68</ele>
        <time>2016-10-10T07:40:17Z</time>
      </trkpt>
      <trkpt lat="48.03938" lon="3.33272">
        <ele>161.16</ele>
        <time>2016-10-10T07:40:27Z</time>
      </trkpt>
      <trkpt lat="48.03929" lon="3.33276">
        <ele>161.64</ele>
        <time>2016-10-10T07:40:35Z</time>
      </trkpt>
      <trkpt lat="48.03924" lon="3.3328">
        <ele>163.56</ele>
        <time>2016-10-10T07:40:43Z</time>
      </trkpt>
      <trkpt lat="48.03925" lon="3.3328">
        <ele>164.52</ele>
        <time>2016-10-10T07:40:52Z</time>
      </trkpt>
      <trkpt lat="48.03925" lon="3.33281">
        <ele>165.48</ele>
        <time>2016-10-10T07:41:07Z</time>
      </trkpt>
      <trkpt lat="48.03924" lon="3.3328">
        <ele>166.93</ele>
        <time>2016-10-10T07:41:21Z</time>
      </trkpt>
      <trkpt lat="48.03921" lon="3.33279">
        <ele>167.89</ele>
        <time>2016-10-10T07:41:38Z</time>
      </trkpt>
      <trkpt lat="48.03917" lon="3.33282">
        <ele>167.89</ele>
        <time>2016-10-10T07:41:48Z</time>
      </trkpt>
      <trkpt lat="48.03911" lon="3.33284">
        <ele>165.48</ele>
        <time>2016-10-10T07:41:55Z</time>
      </trkpt>
      <trkpt lat="48.039" lon="3.3329">
        <ele>165.48</ele>
        <time>2016-10-10T07:42:05Z</time>
      </trkpt>
      <trkpt lat="48.03891" lon="3.33294">
        <ele>165</ele>
        <time>2016-10-10T07:42:14Z</time>
      </trkpt>
      <trkpt lat="48.03882" lon="3.33298">
        <ele>165.48</ele>
        <time>2016-10-10T07:42:22Z</time>
      </trkpt>
      <trkpt lat="48.03873" lon="3.333">
        <ele>165.48</ele>
        <time>2016-10-10T07:42:31Z</time>
      </trkpt>
      <trkpt lat="48.03866" lon="3.33303">
        <ele>164.52</ele>
        <time>2016-10-10T07:42:39Z</time>
      </trkpt>
      <trkpt lat="48.03857" lon="3.33307">
        <ele>165</ele>
        <time>2016-10-10T07:42:47Z</time>
      </trkpt>
      <trkpt lat="48.0385" lon="3.33311">
        <ele>165.48</ele>
        <time>2016-10-10T07:42:54Z</time>
      </trkpt>
      <trkpt lat="48.03846" lon="3.33312">
        <ele>165.96</ele>
        <time>2016-10-10T07:42:57Z</time>
      </trkpt>
      <trkpt lat="48.03835" lon="3.33317">
        <ele>166.93</ele>
        <time>2016-10-10T07:43:07Z</time>
      </trkpt>
      <trkpt lat="48.03826" lon="3.3332">
        <ele>167.41</ele>
        <time>2016-10-10T07:43:16Z</time>
      </trkpt>
      <trkpt lat="48.03819" lon="3.33322">
        <ele>167.89</ele>
        <time>2016-10-10T07:43:23Z</time>
      </trkpt>
      <trkpt lat="48.03809" lon="3.33326">
        <ele>168.85</ele>
        <time>2016-10-10T07:43:32Z</time>
      </trkpt>
      <trkpt lat="48.03801" lon="3.33328">
        <ele>168.85</ele>
        <time>2016-10-10T07:43:39Z</time>
      </trkpt>
      <trkpt lat="48.03793" lon="3.33331">
        <ele>169.33</ele>
        <time>2016-10-10T07:43:47Z</time>
      </trkpt>
      <trkpt lat="48.03784" lon="3.33333">
        <ele>169.81</ele>
        <time>2016-10-10T07:43:54Z</time>
      </trkpt>
      <trkpt lat="48.03775" lon="3.33336">
        <ele>171.25</ele>
        <time>2016-10-10T07:44:02Z</time>
      </trkpt>
      <trkpt lat="48.03764" lon="3.33341">
        <ele>172.69</ele>
        <time>2016-10-10T07:44:11Z</time>
      </trkpt>
      <trkpt lat="48.03756" lon="3.33342">
        <ele>173.17</ele>
        <time>2016-10-10T07:44:18Z</time>
      </trkpt>
      <trkpt lat="48.0375" lon="3.33345">
        <ele>173.66</ele>
        <time>2016-10-10T07:44:23Z</time>
      </trkpt>
      <trkpt lat="48.03744" lon="3.33345">
        <ele>173.66</ele>
        <time>2016-10-10T07:44:29Z</time>
      </trkpt>
      <trkpt lat="48.03735" lon="3.33347">
        <ele>175.58</ele>
        <time>2016-10-10T07:44:36Z</time>
      </trkpt>
      <trkpt lat="48.03727" lon="3.33347">
        <ele>175.58</ele>
        <time>2016-10-10T07:44:43Z</time>
      </trkpt>
      <trkpt lat="48.03723" lon="3.33349">
        <ele>175.58</ele>
        <time>2016-10-10T07:44:47Z</time>
      </trkpt>
      <trkpt lat="48.03714" lon="3.33348">
        <ele>176.54</ele>
        <time>2016-10-10T07:44:55Z</time>
      </trkpt>
      <trkpt lat="48.03708" lon="3.33347">
        <ele>177.02</ele>
        <time>2016-10-10T07:45:00Z</time>
      </trkpt>
      <trkpt lat="48.03697" lon="3.3335">
        <ele>178.46</ele>
        <time>2016-10-10T07:45:09Z</time>
      </trkpt>
      <trkpt lat="48.03688" lon="3.3335">
        <ele>178.46</ele>
        <time>2016-10-10T07:45:17Z</time>
      </trkpt>
      <trkpt lat="48.03683" lon="3.33349">
        <ele>178.46</ele>
        <time>2016-10-10T07:45:22Z</time>
      </trkpt>
      <trkpt lat="48.03672" lon="3.33352">
        <ele>178.94</ele>
        <time>2016-10-10T07:45:31Z</time>
      </trkpt>
      <trkpt lat="48.03662" lon="3.33352">
        <ele>178.94</ele>
        <time>2016-10-10T07:45:39Z</time>
      </trkpt>
      <trkpt lat="48.03654" lon="3.33355">
        <ele>178.94</ele>
        <time>2016-10-10T07:45:46Z</time>
      </trkpt>
      <trkpt lat="48.03646" lon="3.33358">
        <ele>179.42</ele>
        <time>2016-10-10T07:45:53Z</time>
      </trkpt>
      <trkpt lat="48.03638" lon="3.33359">
        <ele>179.9</ele>
        <time>2016-10-10T07:46:01Z</time>
      </trkpt>
      <trkpt lat="48.0363" lon="3.33359">
        <ele>180.87</ele>
        <time>2016-10-10T07:46:09Z</time>
      </trkpt>
      <trkpt lat="48.03628" lon="3.3336">
        <ele>182.31</ele>
        <time>2016-10-10T07:46:16Z</time>
      </trkpt>
      <trkpt lat="48.03628" lon="3.3336">
        <ele>183.75</ele>
        <time>2016-10-10T07:46:27Z</time>
      </trkpt>
      <trkpt lat="48.03627" lon="3.33358">
        <ele>183.75</ele>
        <time>2016-10-10T07:46:37Z</time>
      </trkpt>
      <trkpt lat="48.03627" lon="3.33358">
        <ele>183.27</ele>
        <time>2016-10-10T07:46:45Z</time>
      </trkpt>
      <trkpt lat="48.03626" lon="3.33357">
        <ele>182.79</ele>
        <time>2016-10-10T07:47:00Z</time>
      </trkpt>
      <trkpt lat="48.03622" lon="3.33358">
        <ele>182.79</ele>
        <time>2016-10-10T07:47:18Z</time>
      </trkpt>
      <trkpt lat="48.03622" lon="3.33356">
        <ele>183.27</ele>
        <time>2016-10-10T07:47:33Z</time>
      </trkpt>
      <trkpt lat="48.03624" lon="3.33359">
        <ele>184.23</ele>
        <time>2016-10-10T07:47:45Z</time>
      </trkpt>
      <trkpt lat="48.03623" lon="3.33359">
        <ele>186.15</ele>
        <time>2016-10-10T07:47:59Z</time>
      </trkpt>
      <trkpt lat="48.03622" lon="3.33361">
        <ele>186.63</ele>
        <time>2016-10-10T07:48:11Z</time>
      </trkpt>
      <trkpt lat="48.03615" lon="3.33361">
        <ele>184.71</ele>
        <time>2016-10-10T07:48:19Z</time>
      </trkpt>
      <trkpt lat="48.03608" lon="3.33361">
        <ele>184.71</ele>
        <time>2016-10-10T07:48:26Z</time>
      </trkpt>
      <trkpt lat="48.036" lon="3.33363">
        <ele>183.75</ele>
        <time>2016-10-10T07:48:34Z</time>
      </trkpt>
      <trkpt lat="48.03589" lon="3.33365">
        <ele>183.27</ele>
        <time>2016-10-10T07:48:43Z</time>
      </trkpt>
      <trkpt lat="48.03579" lon="3.33368">
        <ele>183.75</ele>
        <time>2016-10-10T07:48:51Z</time>
      </trkpt>
      <trkpt lat="48.03571" lon="3.33371">
        <ele>184.23</ele>
        <time>2016-10-10T07:48:59Z</time>
      </trkpt>
      <trkpt lat="48.03563" lon="3.33374">
        <ele>184.71</ele>
        <time>2016-10-10T07:49:06Z</time>
      </trkpt>
      <trkpt lat="48.03553" lon="3.33378">
        <ele>184.71</ele>
        <time>2016-10-10T07:49:14Z</time>
      </trkpt>
      <trkpt lat="48.03543" lon="3.33382">
        <ele>185.19</ele>
        <time>2016-10-10T07:49:23Z</time>
      </trkpt>
      <trkpt lat="48.03542" lon="3.33383">
        <ele>184.23</ele>
        <time>2016-10-10T07:49:31Z</time>
      </trkpt>
      <trkpt lat="48.03538" lon="3.33384">
        <ele>183.75</ele>
        <time>2016-10-10T07:49:38Z</time>
      </trkpt>
      <trkpt lat="48.03533" lon="3.33385">
        <ele>183.75</ele>
        <time>2016-10-10T07:49:45Z</time>
      </trkpt>
      <trkpt lat="48.03527" lon="3.33389">
        <ele>185.19</ele>
        <time>2016-10-10T07:49:54Z</time>
      </trkpt>
      <trkpt lat="48.03521" lon="3.33391">
        <ele>185.67</ele>
        <time>2016-10-10T07:50:01Z</time>
      </trkpt>
      <trkpt lat="48.03519" lon="3.33393">
        <ele>186.63</ele>
        <time>2016-10-10T07:50:08Z</time>
      </trkpt>
      <trkpt lat="48.03516" lon="3.33394">
        <ele>187.11</ele>
        <time>2016-10-10T07:50:14Z</time>
      </trkpt>
      <trkpt lat="48.03512" lon="3.33396">
        <ele>187.11</ele>
        <time>2016-10-10T07:50:21Z</time>
      </trkpt>
      <trkpt lat="48.03511" lon="3.33397">
        <ele>186.15</ele>
        <time>2016-10-10T07:50:28Z</time>
      </trkpt>
      <trkpt lat="48.0351" lon="3.33397">
        <ele>186.15</ele>
        <time>2016-10-10T07:50:30Z</time>
      </trkpt>
      <trkpt lat="48.03503" lon="3.33402">
        <ele>186.15</ele>
        <time>2016-10-10T07:50:38Z</time>
      </trkpt>
      <trkpt lat="48.03495" lon="3.33404">
        <ele>186.15</ele>
        <time>2016-10-10T07:50:46Z</time>
      </trkpt>
      <trkpt lat="48.03489" lon="3.33405">
        <ele>186.63</ele>
        <time>2016-10-10T07:50:54Z</time>
      </trkpt>
      <trkpt lat="48.03486" lon="3.33407">
        <ele>186.15</ele>
        <time>2016-10-10T07:50:59Z</time>
      </trkpt>
      <trkpt lat="48.03481" lon="3.3341">
        <ele>185.67</ele>
        <time>2016-10-10T07:51:06Z</time>
      </trkpt>
      <trkpt lat="48.03473" lon="3.33411">
        <ele>185.19</ele>
        <time>2016-10-10T07:51:14Z</time>
      </trkpt>
      <trkpt lat="48.03462" lon="3.33416">
        <ele>185.67</ele>
        <time>2016-10-10T07:51:22Z</time>
      </trkpt>
      <trkpt lat="48.03457" lon="3.33418">
        <ele>185.67</ele>
        <time>2016-10-10T07:51:28Z</time>
      </trkpt>
      <trkpt lat="48.03447" lon="3.33421">
        <ele>185.19</ele>
        <time>2016-10-10T07:51:37Z</time>
      </trkpt>
      <trkpt lat="48.03437" lon="3.33424">
        <ele>184.71</ele>
        <time>2016-10-10T07:51:46Z</time>
      </trkpt>
      <trkpt lat="48.03428" lon="3.33426">
        <ele>183.75</ele>
        <time>2016-10-10T07:51:54Z</time>
      </trkpt>
      <trkpt lat="48.0342" lon="3.3343">
        <ele>183.75</ele>
        <time>2016-10-10T07:52:02Z</time>
      </trkpt>
      <trkpt lat="48.03412" lon="3.33434">
        <ele>183.75</ele>
        <time>2016-10-10T07:52:10Z</time>
      </trkpt>
      <trkpt lat="48.03405" lon="3.33439">
        <ele>184.71</ele>
        <time>2016-10-10T07:52:17Z</time>
      </trkpt>
      <trkpt lat="48.03397" lon="3.33442">
        <ele>184.71</ele>
        <time>2016-10-10T07:52:25Z</time>
      </trkpt>
      <trkpt lat="48.03389" lon="3.33448">
        <ele>185.19</ele>
        <time>2016-10-10T07:52:33Z</time>
      </trkpt>
      <trkpt lat="48.03388" lon="3.33449">
        <ele>185.19</ele>
        <time>2016-10-10T07:52:34Z</time>
      </trkpt>
      <trkpt lat="48.03381" lon="3.33453">
        <ele>185.19</ele>
        <time>2016-10-10T07:52:42Z</time>
      </trkpt>
      <trkpt lat="48.03373" lon="3.33459">
        <ele>186.63</ele>
        <time>2016-10-10T07:52:49Z</time>
      </trkpt>
      <trkpt lat="48.03364" lon="3.33466">
        <ele>187.11</ele>
        <time>2016-10-10T07:52:58Z</time>
      </trkpt>
      <trkpt lat="48.03355" lon="3.33475">
        <ele>188.08</ele>
        <time>2016-10-10T07:53:07Z</time>
      </trkpt>
      <trkpt lat="48.03348" lon="3.3348">
        <ele>188.08</ele>
        <time>2016-10-10T07:53:13Z</time>
      </trkpt>
      <trkpt lat="48.03339" lon="3.33488">
        <ele>188.08</ele>
        <time>2016-10-10T07:53:22Z</time>
      </trkpt>
      <trkpt lat="48.03331" lon="3.33493">
        <ele>188.08</ele>
        <time>2016-10-10T07:53:29Z</time>
      </trkpt>
      <trkpt lat="48.03324" lon="3.33499">
        <ele>188.08</ele>
        <time>2016-10-10T07:53:36Z</time>
      </trkpt>
      <trkpt lat="48.03318" lon="3.3351">
        <ele>190.96</ele>
        <time>2016-10-10T07:53:43Z</time>
      </trkpt>
      <trkpt lat="48.03317" lon="3.33512">
        <ele>191.44</ele>
        <time>2016-10-10T07:53:45Z</time>
      </trkpt>
      <trkpt lat="48.03315" lon="3.33516">
        <ele>192.4</ele>
        <time>2016-10-10T07:53:48Z</time>
      </trkpt>
      <trkpt lat="48.03306" lon="3.33525">
        <ele>195.28</ele>
        <time>2016-10-10T07:53:58Z</time>
      </trkpt>
      <trkpt lat="48.03299" lon="3.33531">
        <ele>194.8</ele>
        <time>2016-10-10T07:54:06Z</time>
      </trkpt>
      <trkpt lat="48.03294" lon="3.33539">
        <ele>194.8</ele>
        <time>2016-10-10T07:54:11Z</time>
      </trkpt>
      <trkpt lat="48.03287" lon="3.33547">
        <ele>193.84</ele>
        <time>2016-10-10T07:54:19Z</time>
      </trkpt>
      <trkpt lat="48.03285" lon="3.33549">
        <ele>193.36</ele>
        <time>2016-10-10T07:54:21Z</time>
      </trkpt>
      <trkpt lat="48.03277" lon="3.33555">
        <ele>194.8</ele>
        <time>2016-10-10T07:54:29Z</time>
      </trkpt>
      <trkpt lat="48.0327" lon="3.33562">
        <ele>195.77</ele>
        <time>2016-10-10T07:54:35Z</time>
      </trkpt>
      <trkpt lat="48.03264" lon="3.33565">
        <ele>197.21</ele>
        <time>2016-10-10T07:54:41Z</time>
      </trkpt>
      <trkpt lat="48.0326" lon="3.33573">
        <ele>198.65</ele>
        <time>2016-10-10T07:54:47Z</time>
      </trkpt>
      <trkpt lat="48.03255" lon="3.3358">
        <ele>198.17</ele>
        <time>2016-10-10T07:54:54Z</time>
      </trkpt>
      <trkpt lat="48.03249" lon="3.33588">
        <ele>198.17</ele>
        <time>2016-10-10T07:54:59Z</time>
      </trkpt>
      <trkpt lat="48.03242" lon="3.33601">
        <ele>200.57</ele>
        <time>2016-10-10T07:55:05Z</time>
      </trkpt>
      <trkpt lat="48.03236" lon="3.33612">
        <ele>199.61</ele>
        <time>2016-10-10T07:55:12Z</time>
      </trkpt>
      <trkpt lat="48.03224" lon="3.33619">
        <ele>199.61</ele>
        <time>2016-10-10T07:55:21Z</time>
      </trkpt>
      <trkpt lat="48.03218" lon="3.33623">
        <ele>198.65</ele>
        <time>2016-10-10T07:55:27Z</time>
      </trkpt>
      <trkpt lat="48.03214" lon="3.33626">
        <ele>198.65</ele>
        <time>2016-10-10T07:55:32Z</time>
      </trkpt>
      <trkpt lat="48.03205" lon="3.33635">
        <ele>198.65</ele>
        <time>2016-10-10T07:55:40Z</time>
      </trkpt>
      <trkpt lat="48.03196" lon="3.33636">
        <ele>196.73</ele>
        <time>2016-10-10T07:55:46Z</time>
      </trkpt>
      <trkpt lat="48.03193" lon="3.33639">
        <ele>195.77</ele>
        <time>2016-10-10T07:55:53Z</time>
      </trkpt>
      <trkpt lat="48.03183" lon="3.33642">
        <ele>195.28</ele>
        <time>2016-10-10T07:56:00Z</time>
      </trkpt>
      <trkpt lat="48.03178" lon="3.33647">
        <ele>196.25</ele>
        <time>2016-10-10T07:56:06Z</time>
      </trkpt>
      <trkpt lat="48.03172" lon="3.33658">
        <ele>195.77</ele>
        <time>2016-10-10T07:56:14Z</time>
      </trkpt>
      <trkpt lat="48.03166" lon="3.33666">
        <ele>197.69</ele>
        <time>2016-10-10T07:56:17Z</time>
      </trkpt>
      <trkpt lat="48.03159" lon="3.33672">
        <ele>198.17</ele>
        <time>2016-10-10T07:56:24Z</time>
      </trkpt>
      <trkpt lat="48.03154" lon="3.33677">
        <ele>198.17</ele>
        <time>2016-10-10T07:56:29Z</time>
      </trkpt>
      <trkpt lat="48.03145" lon="3.33684">
        <ele>198.65</ele>
        <time>2016-10-10T07:56:37Z</time>
      </trkpt>
      <trkpt lat="48.03137" lon="3.33692">
        <ele>198.17</ele>
        <time>2016-10-10T07:56:44Z</time>
      </trkpt>
      <trkpt lat="48.03129" lon="3.337">
        <ele>198.17</ele>
        <time>2016-10-10T07:56:51Z</time>
      </trkpt>
      <trkpt lat="48.03123" lon="3.33704">
        <ele>197.21</ele>
        <time>2016-10-10T07:56:56Z</time>
      </trkpt>
      <trkpt lat="48.03114" lon="3.3371">
        <ele>196.73</ele>
        <time>2016-10-10T07:57:03Z</time>
      </trkpt>
      <trkpt lat="48.03108" lon="3.33715">
        <ele>197.21</ele>
        <time>2016-10-10T07:57:11Z</time>
      </trkpt>
      <trkpt lat="48.03102" lon="3.33721">
        <ele>196.25</ele>
        <time>2016-10-10T07:57:18Z</time>
      </trkpt>
      <trkpt lat="48.03093" lon="3.33729">
        <ele>194.8</ele>
        <time>2016-10-10T07:57:26Z</time>
      </trkpt>
      <trkpt lat="48.03085" lon="3.33737">
        <ele>193.84</ele>
        <time>2016-10-10T07:57:33Z</time>
      </trkpt>
      <trkpt lat="48.03077" lon="3.33749">
        <ele>196.25</ele>
        <time>2016-10-10T07:57:41Z</time>
      </trkpt>
      <trkpt lat="48.03071" lon="3.33752">
        <ele>198.65</ele>
        <time>2016-10-10T07:57:48Z</time>
      </trkpt>
      <trkpt lat="48.03068" lon="3.33756">
        <ele>199.13</ele>
        <time>2016-10-10T07:57:56Z</time>
      </trkpt>
      <trkpt lat="48.03059" lon="3.33764">
        <ele>201.53</ele>
        <time>2016-10-10T07:58:03Z</time>
      </trkpt>
      <trkpt lat="48.03046" lon="3.33765">
        <ele>204.42</ele>
        <time>2016-10-10T07:58:12Z</time>
      </trkpt>
      <trkpt lat="48.03037" lon="3.33755">
        <ele>203.46</ele>
        <time>2016-10-10T07:58:20Z</time>
      </trkpt>
      <trkpt lat="48.03029" lon="3.33747">
        <ele>203.46</ele>
        <time>2016-10-10T07:58:29Z</time>
      </trkpt>
      <trkpt lat="48.0302" lon="3.33737">
        <ele>202.49</ele>
        <time>2016-10-10T07:58:36Z</time>
      </trkpt>
      <trkpt lat="48.0301" lon="3.3373">
        <ele>202.49</ele>
        <time>2016-10-10T07:58:44Z</time>
      </trkpt>
      <trkpt lat="48.03003" lon="3.33723">
        <ele>203.94</ele>
        <time>2016-10-10T07:58:51Z</time>
      </trkpt>
      <trkpt lat="48.02994" lon="3.33713">
        <ele>203.94</ele>
        <time>2016-10-10T07:58:59Z</time>
      </trkpt>
      <trkpt lat="48.02987" lon="3.33704">
        <ele>204.42</ele>
        <time>2016-10-10T07:59:08Z</time>
      </trkpt>
      <trkpt lat="48.0298" lon="3.33694">
        <ele>203.94</ele>
        <time>2016-10-10T07:59:16Z</time>
      </trkpt>
      <trkpt lat="48.02976" lon="3.33687">
        <ele>202.01</ele>
        <time>2016-10-10T07:59:22Z</time>
      </trkpt>
      <trkpt lat="48.02966" lon="3.33674">
        <ele>199.13</ele>
        <time>2016-10-10T07:59:30Z</time>
      </trkpt>
      <trkpt lat="48.0296" lon="3.33663">
        <ele>195.28</ele>
        <time>2016-10-10T07:59:37Z</time>
      </trkpt>
      <trkpt lat="48.02953" lon="3.33659">
        <ele>192.88</ele>
        <time>2016-10-10T07:59:45Z</time>
      </trkpt>
      <trkpt lat="48.02947" lon="3.33655">
        <ele>191.92</ele>
        <time>2016-10-10T07:59:51Z</time>
      </trkpt>
      <trkpt lat="48.02941" lon="3.3365">
        <ele>189.04</ele>
        <time>2016-10-10T07:59:57Z</time>
      </trkpt>
      <trkpt lat="48.0293" lon="3.33641">
        <ele>186.63</ele>
        <time>2016-10-10T08:00:06Z</time>
      </trkpt>
      <trkpt lat="48.02928" lon="3.33638">
        <ele>186.15</ele>
        <time>2016-10-10T08:00:08Z</time>
      </trkpt>
      <trkpt lat="48.02919" lon="3.33627">
        <ele>183.75</ele>
        <time>2016-10-10T08:00:16Z</time>
      </trkpt>
      <trkpt lat="48.02916" lon="3.33622">
        <ele>181.83</ele>
        <time>2016-10-10T08:00:23Z</time>
      </trkpt>
      <trkpt lat="48.02913" lon="3.33617">
        <ele>180.87</ele>
        <time>2016-10-10T08:00:30Z</time>
      </trkpt>
      <trkpt lat="48.02906" lon="3.33606">
        <ele>179.42</ele>
        <time>2016-10-10T08:00:36Z</time>
      </trkpt>
      <trkpt lat="48.02899" lon="3.33598">
        <ele>180.87</ele>
        <time>2016-10-10T08:00:44Z</time>
      </trkpt>
      <trkpt lat="48.02892" lon="3.33591">
        <ele>179.42</ele>
        <time>2016-10-10T08:00:51Z</time>
      </trkpt>
      <trkpt lat="48.02887" lon="3.33584">
        <ele>179.42</ele>
        <time>2016-10-10T08:00:58Z</time>
      </trkpt>
      <trkpt lat="48.0288" lon="3.33575">
        <ele>179.42</ele>
        <time>2016-10-10T08:01:05Z</time>
      </trkpt>
      <trkpt lat="48.02873" lon="3.33567">
        <ele>181.35</ele>
        <time>2016-10-10T08:01:13Z</time>
      </trkpt>
      <trkpt lat="48.02866" lon="3.33559">
        <ele>181.35</ele>
        <time>2016-10-10T08:01:21Z</time>
      </trkpt>
      <trkpt lat="48.02857" lon="3.33549">
        <ele>182.79</ele>
        <time>2016-10-10T08:01:29Z</time>
      </trkpt>
      <trkpt lat="48.02852" lon="3.33543">
        <ele>183.27</ele>
        <time>2016-10-10T08:01:35Z</time>
      </trkpt>
      <trkpt lat="48.02846" lon="3.33533">
        <ele>183.75</ele>
        <time>2016-10-10T08:01:43Z</time>
      </trkpt>
      <trkpt lat="48.02837" lon="3.33525">
        <ele>186.63</ele>
        <time>2016-10-10T08:01:50Z</time>
      </trkpt>
      <trkpt lat="48.02835" lon="3.33523">
        <ele>187.59</ele>
        <time>2016-10-10T08:01:53Z</time>
      </trkpt>
      <trkpt lat="48.02828" lon="3.33514">
        <ele>189.04</ele>
        <time>2016-10-10T08:02:02Z</time>
      </trkpt>
      <trkpt lat="48.02829" lon="3.33507">
        <ele>188.56</ele>
        <time>2016-10-10T08:02:08Z</time>
      </trkpt>
      <trkpt lat="48.02827" lon="3.33503">
        <ele>188.56</ele>
        <time>2016-10-10T08:02:11Z</time>
      </trkpt>
      <trkpt lat="48.02825" lon="3.335">
        <ele>188.56</ele>
        <time>2016-10-10T08:02:13Z</time>
      </trkpt>
      <trkpt lat="48.02821" lon="3.33489">
        <ele>188.56</ele>
        <time>2016-10-10T08:02:20Z</time>
      </trkpt>
      <trkpt lat="48.02816" lon="3.33474">
        <ele>187.59</ele>
        <time>2016-10-10T08:02:29Z</time>
      </trkpt>
      <trkpt lat="48.02815" lon="3.3347">
        <ele>187.11</ele>
        <time>2016-10-10T08:02:31Z</time>
      </trkpt>
      <trkpt lat="48.02813" lon="3.33462">
        <ele>185.19</ele>
        <time>2016-10-10T08:02:37Z</time>
      </trkpt>
      <trkpt lat="48.02809" lon="3.3345">
        <ele>185.67</ele>
        <time>2016-10-10T08:02:44Z</time>
      </trkpt>
      <trkpt lat="48.02802" lon="3.33432">
        <ele>185.67</ele>
        <time>2016-10-10T08:02:52Z</time>
      </trkpt>
      <trkpt lat="48.02798" lon="3.33422">
        <ele>185.67</ele>
        <time>2016-10-10T08:03:00Z</time>
      </trkpt>
      <trkpt lat="48.02794" lon="3.33409">
        <ele>188.08</ele>
        <time>2016-10-10T08:03:08Z</time>
      </trkpt>
      <trkpt lat="48.02789" lon="3.33393">
        <ele>188.56</ele>
        <time>2016-10-10T08:03:15Z</time>
      </trkpt>
      <trkpt lat="48.02786" lon="3.33381">
        <ele>188.08</ele>
        <time>2016-10-10T08:03:22Z</time>
      </trkpt>
      <trkpt lat="48.02782" lon="3.33369">
        <ele>189.04</ele>
        <time>2016-10-10T08:03:30Z</time>
      </trkpt>
      <trkpt lat="48.02778" lon="3.33357">
        <ele>190</ele>
        <time>2016-10-10T08:03:36Z</time>
      </trkpt>
      <trkpt lat="48.02775" lon="3.33346">
        <ele>190</ele>
        <time>2016-10-10T08:03:42Z</time>
      </trkpt>
      <trkpt lat="48.02772" lon="3.33335">
        <ele>190.96</ele>
        <time>2016-10-10T08:03:49Z</time>
      </trkpt>
      <trkpt lat="48.02768" lon="3.33323">
        <ele>190.96</ele>
        <time>2016-10-10T08:03:56Z</time>
      </trkpt>
      <trkpt lat="48.02767" lon="3.33315">
        <ele>190.48</ele>
        <time>2016-10-10T08:04:03Z</time>
      </trkpt>
      <trkpt lat="48.02763" lon="3.33302">
        <ele>189.04</ele>
        <time>2016-10-10T08:04:09Z</time>
      </trkpt>
      <trkpt lat="48.02759" lon="3.3329">
        <ele>187.11</ele>
        <time>2016-10-10T08:04:17Z</time>
      </trkpt>
      <trkpt lat="48.02755" lon="3.33279">
        <ele>188.08</ele>
        <time>2016-10-10T08:04:23Z</time>
      </trkpt>
      <trkpt lat="48.02752" lon="3.33263">
        <ele>186.15</ele>
        <time>2016-10-10T08:04:33Z</time>
      </trkpt>
      <trkpt lat="48.02751" lon="3.3326">
        <ele>186.15</ele>
        <time>2016-10-10T08:04:35Z</time>
      </trkpt>
      <trkpt lat="48.02748" lon="3.33251">
        <ele>186.15</ele>
        <time>2016-10-10T08:04:40Z</time>
      </trkpt>
      <trkpt lat="48.02744" lon="3.3324">
        <ele>186.15</ele>
        <time>2016-10-10T08:04:49Z</time>
      </trkpt>
      <trkpt lat="48.02741" lon="3.33225">
        <ele>184.71</ele>
        <time>2016-10-10T08:04:56Z</time>
      </trkpt>
      <trkpt lat="48.02738" lon="3.33215">
        <ele>183.27</ele>
        <time>2016-10-10T08:05:02Z</time>
      </trkpt>
      <trkpt lat="48.02736" lon="3.33202">
        <ele>181.35</ele>
        <time>2016-10-10T08:05:10Z</time>
      </trkpt>
      <trkpt lat="48.02732" lon="3.33188">
        <ele>179.9</ele>
        <time>2016-10-10T08:05:17Z</time>
      </trkpt>
      <trkpt lat="48.02729" lon="3.33177">
        <ele>178.94</ele>
        <time>2016-10-10T08:05:25Z</time>
      </trkpt>
      <trkpt lat="48.02726" lon="3.33166">
        <ele>177.02</ele>
        <time>2016-10-10T08:05:32Z</time>
      </trkpt>
      <trkpt lat="48.02725" lon="3.33157">
        <ele>177.02</ele>
        <time>2016-10-10T08:05:38Z</time>
      </trkpt>
      <trkpt lat="48.02721" lon="3.33146">
        <ele>176.54</ele>
        <time>2016-10-10T08:05:45Z</time>
      </trkpt>
      <trkpt lat="48.02719" lon="3.33132">
        <ele>177.5</ele>
        <time>2016-10-10T08:05:54Z</time>
      </trkpt>
      <trkpt lat="48.02715" lon="3.33121">
        <ele>178.94</ele>
        <time>2016-10-10T08:06:00Z</time>
      </trkpt>
      <trkpt lat="48.02711" lon="3.33111">
        <ele>179.9</ele>
        <time>2016-10-10T08:06:08Z</time>
      </trkpt>
      <trkpt lat="48.02706" lon="3.331">
        <ele>181.35</ele>
        <time>2016-10-10T08:06:15Z</time>
      </trkpt>
      <trkpt lat="48.027" lon="3.33087">
        <ele>183.27</ele>
        <time>2016-10-10T08:06:23Z</time>
      </trkpt>
      <trkpt lat="48.02697" lon="3.33075">
        <ele>183.27</ele>
        <time>2016-10-10T08:06:31Z</time>
      </trkpt>
      <trkpt lat="48.02694" lon="3.33061">
        <ele>184.23</ele>
        <time>2016-10-10T08:06:40Z</time>
      </trkpt>
      <trkpt lat="48.02692" lon="3.33049">
        <ele>183.75</ele>
        <time>2016-10-10T08:06:48Z</time>
      </trkpt>
      <trkpt lat="48.02689" lon="3.33035">
        <ele>183.27</ele>
        <time>2016-10-10T08:06:56Z</time>
      </trkpt>
      <trkpt lat="48.02685" lon="3.33021">
        <ele>183.27</ele>
        <time>2016-10-10T08:07:05Z</time>
      </trkpt>
      <trkpt lat="48.0268" lon="3.33008">
        <ele>182.79</ele>
        <time>2016-10-10T08:07:14Z</time>
      </trkpt>
      <trkpt lat="48.02676" lon="3.32998">
        <ele>183.75</ele>
        <time>2016-10-10T08:07:20Z</time>
      </trkpt>
      <trkpt lat="48.0267" lon="3.32982">
        <ele>183.27</ele>
        <time>2016-10-10T08:07:29Z</time>
      </trkpt>
      <trkpt lat="48.02666" lon="3.32967">
        <ele>181.83</ele>
        <time>2016-10-10T08:07:36Z</time>
      </trkpt>
      <trkpt lat="48.02663" lon="3.32953">
        <ele>180.87</ele>
        <time>2016-10-10T08:07:45Z</time>
      </trkpt>
      <trkpt lat="48.02661" lon="3.32941">
        <ele>179.42</ele>
        <time>2016-10-10T08:07:53Z</time>
      </trkpt>
      <trkpt lat="48.02658" lon="3.3293">
        <ele>179.9</ele>
        <time>2016-10-10T08:08:01Z</time>
      </trkpt>
      <trkpt lat="48.02657" lon="3.32925">
        <ele>179.42</ele>
        <time>2016-10-10T08:08:04Z</time>
      </trkpt>
      <trkpt lat="48.02651" lon="3.32907">
        <ele>180.87</ele>
        <time>2016-10-10T08:08:13Z</time>
      </trkpt>
      <trkpt lat="48.02645" lon="3.3289">
        <ele>182.31</ele>
        <time>2016-10-10T08:08:21Z</time>
      </trkpt>
      <trkpt lat="48.02642" lon="3.32879">
        <ele>181.35</ele>
        <time>2016-10-10T08:08:28Z</time>
      </trkpt>
      <trkpt lat="48.02638" lon="3.32865">
        <ele>180.38</ele>
        <time>2016-10-10T08:08:37Z</time>
      </trkpt>
      <trkpt lat="48.02635" lon="3.32855">
        <ele>179.9</ele>
        <time>2016-10-10T08:08:44Z</time>
      </trkpt>
      <trkpt lat="48.02632" lon="3.32844">
        <ele>179.9</ele>
        <time>2016-10-10T08:08:51Z</time>
      </trkpt>
      <trkpt lat="48.02629" lon="3.32831">
        <ele>179.9</ele>
        <time>2016-10-10T08:08:59Z</time>
      </trkpt>
      <trkpt lat="48.02622" lon="3.32813">
        <ele>181.35</ele>
        <time>2016-10-10T08:09:08Z</time>
      </trkpt>
      <trkpt lat="48.0262" lon="3.32802">
        <ele>181.35</ele>
        <time>2016-10-10T08:09:15Z</time>
      </trkpt>
      <trkpt lat="48.02615" lon="3.32788">
        <ele>181.83</ele>
        <time>2016-10-10T08:09:23Z</time>
      </trkpt>
      <trkpt lat="48.02611" lon="3.32776">
        <ele>182.31</ele>
        <time>2016-10-10T08:09:30Z</time>
      </trkpt>
      <trkpt lat="48.02607" lon="3.32761">
        <ele>181.83</ele>
        <time>2016-10-10T08:09:38Z</time>
      </trkpt>
      <trkpt lat="48.02604" lon="3.32752">
        <ele>182.79</ele>
        <time>2016-10-10T08:09:45Z</time>
      </trkpt>
      <trkpt lat="48.02599" lon="3.32734">
        <ele>183.27</ele>
        <time>2016-10-10T08:09:55Z</time>
      </trkpt>
      <trkpt lat="48.02595" lon="3.32719">
        <ele>183.27</ele>
        <time>2016-10-10T08:10:03Z</time>
      </trkpt>
      <trkpt lat="48.02592" lon="3.32706">
        <ele>182.79</ele>
        <time>2016-10-10T08:10:10Z</time>
      </trkpt>
      <trkpt lat="48.02588" lon="3.32692">
        <ele>181.83</ele>
        <time>2016-10-10T08:10:18Z</time>
      </trkpt>
      <trkpt lat="48.02586" lon="3.32686">
        <ele>181.83</ele>
        <time>2016-10-10T08:10:23Z</time>
      </trkpt>
      <trkpt lat="48.02585" lon="3.32683">
        <ele>181.83</ele>
        <time>2016-10-10T08:10:25Z</time>
      </trkpt>
      <trkpt lat="48.02581" lon="3.32667">
        <ele>181.35</ele>
        <time>2016-10-10T08:10:35Z</time>
      </trkpt>
      <trkpt lat="48.02577" lon="3.32653">
        <ele>181.35</ele>
        <time>2016-10-10T08:10:43Z</time>
      </trkpt>
      <trkpt lat="48.02572" lon="3.32642">
        <ele>182.31</ele>
        <time>2016-10-10T08:10:51Z</time>
      </trkpt>
      <trkpt lat="48.0257" lon="3.32632">
        <ele>182.79</ele>
        <time>2016-10-10T08:10:58Z</time>
      </trkpt>
      <trkpt lat="48.02566" lon="3.32621">
        <ele>183.27</ele>
        <time>2016-10-10T08:11:05Z</time>
      </trkpt>
      <trkpt lat="48.02566" lon="3.32618">
        <ele>183.75</ele>
        <time>2016-10-10T08:11:07Z</time>
      </trkpt>
      <trkpt lat="48.02566" lon="3.32613">
        <ele>183.75</ele>
        <time>2016-10-10T08:11:14Z</time>
      </trkpt>
      <trkpt lat="48.02565" lon="3.32612">
        <ele>184.23</ele>
        <time>2016-10-10T08:11:26Z</time>
      </trkpt>
      <trkpt lat="48.02568" lon="3.32607">
        <ele>184.23</ele>
        <time>2016-10-10T08:11:43Z</time>
      </trkpt>
      <trkpt lat="48.02567" lon="3.32607">
        <ele>185.19</ele>
        <time>2016-10-10T08:12:00Z</time>
      </trkpt>
      <trkpt lat="48.02568" lon="3.32611">
        <ele>185.19</ele>
        <time>2016-10-10T08:12:13Z</time>
      </trkpt>
      <trkpt lat="48.02566" lon="3.32613">
        <ele>184.71</ele>
        <time>2016-10-10T08:12:20Z</time>
      </trkpt>
      <trkpt lat="48.02564" lon="3.32607">
        <ele>184.71</ele>
        <time>2016-10-10T08:12:26Z</time>
      </trkpt>
      <trkpt lat="48.02561" lon="3.32601">
        <ele>184.23</ele>
        <time>2016-10-10T08:12:33Z</time>
      </trkpt>
      <trkpt lat="48.02559" lon="3.32598">
        <ele>185.67</ele>
        <time>2016-10-10T08:12:40Z</time>
      </trkpt>
      <trkpt lat="48.02559" lon="3.32598">
        <ele>186.15</ele>
        <time>2016-10-10T08:12:53Z</time>
      </trkpt>
      <trkpt lat="48.02559" lon="3.32602">
        <ele>187.11</ele>
        <time>2016-10-10T08:13:08Z</time>
      </trkpt>
      <trkpt lat="48.0256" lon="3.32604">
        <ele>185.19</ele>
        <time>2016-10-10T08:13:19Z</time>
      </trkpt>
      <trkpt lat="48.02562" lon="3.32606">
        <ele>186.63</ele>
        <time>2016-10-10T08:13:30Z</time>
      </trkpt>
      <trkpt lat="48.02561" lon="3.32607">
        <ele>187.11</ele>
        <time>2016-10-10T08:13:49Z</time>
      </trkpt>
      <trkpt lat="48.02561" lon="3.32607">
        <ele>186.63</ele>
        <time>2016-10-10T08:14:07Z</time>
      </trkpt>
      <trkpt lat="48.02558" lon="3.32609">
        <ele>188.08</ele>
        <time>2016-10-10T08:14:25Z</time>
      </trkpt>
      <trkpt lat="48.02559" lon="3.32612">
        <ele>188.56</ele>
        <time>2016-10-10T08:14:41Z</time>
      </trkpt>
      <trkpt lat="48.02559" lon="3.32612">
        <ele>188.08</ele>
        <time>2016-10-10T08:14:55Z</time>
      </trkpt>
      <trkpt lat="48.02563" lon="3.32608">
        <ele>188.08</ele>
        <time>2016-10-10T08:15:10Z</time>
      </trkpt>
      <trkpt lat="48.02563" lon="3.32608">
        <ele>187.11</ele>
        <time>2016-10-10T08:15:20Z</time>
      </trkpt>
      <trkpt lat="48.02561" lon="3.32606">
        <ele>189.04</ele>
        <time>2016-10-10T08:15:34Z</time>
      </trkpt>
      <trkpt lat="48.0256" lon="3.32604">
        <ele>190</ele>
        <time>2016-10-10T08:15:47Z</time>
      </trkpt>
      <trkpt lat="48.02561" lon="3.326">
        <ele>188.08</ele>
        <time>2016-10-10T08:15:56Z</time>
      </trkpt>
      <trkpt lat="48.02561" lon="3.32596">
        <ele>187.59</ele>
        <time>2016-10-10T08:16:09Z</time>
      </trkpt>
      <trkpt lat="48.0256" lon="3.32593">
        <ele>188.08</ele>
        <time>2016-10-10T08:16:24Z</time>
      </trkpt>
      <trkpt lat="48.02558" lon="3.32589">
        <ele>188.56</ele>
        <time>2016-10-10T08:16:41Z</time>
      </trkpt>
      <trkpt lat="48.02558" lon="3.3259">
        <ele>189.04</ele>
        <time>2016-10-10T08:16:44Z</time>
      </trkpt>
      <trkpt lat="48.02561" lon="3.32591">
        <ele>189.52</ele>
        <time>2016-10-10T08:16:51Z</time>
      </trkpt>
      <trkpt lat="48.02562" lon="3.32592">
        <ele>190.48</ele>
        <time>2016-10-10T08:17:06Z</time>
      </trkpt>
      <trkpt lat="48.02563" lon="3.32592">
        <ele>191.92</ele>
        <time>2016-10-10T08:17:21Z</time>
      </trkpt>
      <trkpt lat="48.02561" lon="3.32596">
        <ele>192.88</ele>
        <time>2016-10-10T08:17:36Z</time>
      </trkpt>
      <trkpt lat="48.02561" lon="3.32603">
        <ele>194.32</ele>
        <time>2016-10-10T08:17:48Z</time>
      </trkpt>
      <trkpt lat="48.02555" lon="3.32601">
        <ele>192.88</ele>
        <time>2016-10-10T08:17:56Z</time>
      </trkpt>
      <trkpt lat="48.02554" lon="3.32603">
        <ele>193.36</ele>
        <time>2016-10-10T08:18:06Z</time>
      </trkpt>
      <trkpt lat="48.02554" lon="3.32602">
        <ele>193.36</ele>
        <time>2016-10-10T08:18:18Z</time>
      </trkpt>
      <trkpt lat="48.02557" lon="3.32601">
        <ele>192.88</ele>
        <time>2016-10-10T08:18:29Z</time>
      </trkpt>
      <trkpt lat="48.02558" lon="3.32596">
        <ele>192.88</ele>
        <time>2016-10-10T08:18:43Z</time>
      </trkpt>
      <trkpt lat="48.02559" lon="3.32596">
        <ele>191.92</ele>
        <time>2016-10-10T08:18:54Z</time>
      </trkpt>
      <trkpt lat="48.02559" lon="3.32597">
        <ele>191.44</ele>
        <time>2016-10-10T08:19:06Z</time>
      </trkpt>
      <trkpt lat="48.02558" lon="3.326">
        <ele>191.92</ele>
        <time>2016-10-10T08:19:23Z</time>
      </trkpt>
      <trkpt lat="48.02558" lon="3.32601">
        <ele>192.88</ele>
        <time>2016-10-10T08:19:35Z</time>
      </trkpt>
      <trkpt lat="48.02557" lon="3.32598">
        <ele>193.84</ele>
        <time>2016-10-10T08:19:51Z</time>
      </trkpt>
      <trkpt lat="48.02556" lon="3.32595">
        <ele>194.32</ele>
        <time>2016-10-10T08:20:09Z</time>
      </trkpt>
      <trkpt lat="48.02554" lon="3.326">
        <ele>194.8</ele>
        <time>2016-10-10T08:20:16Z</time>
      </trkpt>
      <trkpt lat="48.02549" lon="3.32601">
        <ele>194.32</ele>
        <time>2016-10-10T08:20:25Z</time>
      </trkpt>
      <trkpt lat="48.02543" lon="3.32606">
        <ele>193.36</ele>
        <time>2016-10-10T08:20:33Z</time>
      </trkpt>
      <trkpt lat="48.0254" lon="3.32607">
        <ele>192.4</ele>
        <time>2016-10-10T08:20:36Z</time>
      </trkpt>
      <trkpt lat="48.02532" lon="3.32613">
        <ele>190.96</ele>
        <time>2016-10-10T08:20:44Z</time>
      </trkpt>
      <trkpt lat="48.02519" lon="3.3262">
        <ele>191.92</ele>
        <time>2016-10-10T08:20:55Z</time>
      </trkpt>
      <trkpt lat="48.02514" lon="3.32628">
        <ele>191.44</ele>
        <time>2016-10-10T08:21:04Z</time>
      </trkpt>
      <trkpt lat="48.02507" lon="3.32637">
        <ele>191.44</ele>
        <time>2016-10-10T08:21:13Z</time>
      </trkpt>
      <trkpt lat="48.025" lon="3.32648">
        <ele>191.44</ele>
        <time>2016-10-10T08:21:21Z</time>
      </trkpt>
      <trkpt lat="48.02491" lon="3.32659">
        <ele>190.48</ele>
        <time>2016-10-10T08:21:31Z</time>
      </trkpt>
      <trkpt lat="48.02483" lon="3.32666">
        <ele>191.44</ele>
        <time>2016-10-10T08:21:39Z</time>
      </trkpt>
      <trkpt lat="48.02475" lon="3.32675">
        <ele>191.44</ele>
        <time>2016-10-10T08:21:47Z</time>
      </trkpt>
      <trkpt lat="48.02465" lon="3.32683">
        <ele>189.04</ele>
        <time>2016-10-10T08:21:55Z</time>
      </trkpt>
      <trkpt lat="48.02457" lon="3.32687">
        <ele>188.08</ele>
        <time>2016-10-10T08:22:03Z</time>
      </trkpt>
      <trkpt lat="48.0245" lon="3.32694">
        <ele>187.11</ele>
        <time>2016-10-10T08:22:11Z</time>
      </trkpt>
      <trkpt lat="48.02443" lon="3.327">
        <ele>187.11</ele>
        <time>2016-10-10T08:22:19Z</time>
      </trkpt>
      <trkpt lat="48.02434" lon="3.32708">
        <ele>185.19</ele>
        <time>2016-10-10T08:22:27Z</time>
      </trkpt>
      <trkpt lat="48.02426" lon="3.32716">
        <ele>184.23</ele>
        <time>2016-10-10T08:22:37Z</time>
      </trkpt>
      <trkpt lat="48.02417" lon="3.32724">
        <ele>183.27</ele>
        <time>2016-10-10T08:22:46Z</time>
      </trkpt>
      <trkpt lat="48.02408" lon="3.32732">
        <ele>181.83</ele>
        <time>2016-10-10T08:22:55Z</time>
      </trkpt>
      <trkpt lat="48.02399" lon="3.32742">
        <ele>181.35</ele>
        <time>2016-10-10T08:23:05Z</time>
      </trkpt>
      <trkpt lat="48.02392" lon="3.3275">
        <ele>181.35</ele>
        <time>2016-10-10T08:23:14Z</time>
      </trkpt>
      <trkpt lat="48.02383" lon="3.32762">
        <ele>180.38</ele>
        <time>2016-10-10T08:23:24Z</time>
      </trkpt>
      <trkpt lat="48.02373" lon="3.32773">
        <ele>181.35</ele>
        <time>2016-10-10T08:23:34Z</time>
      </trkpt>
      <trkpt lat="48.02365" lon="3.32785">
        <ele>180.38</ele>
        <time>2016-10-10T08:23:45Z</time>
      </trkpt>
      <trkpt lat="48.02355" lon="3.32795">
        <ele>179.42</ele>
        <time>2016-10-10T08:23:55Z</time>
      </trkpt>
      <trkpt lat="48.02344" lon="3.32806">
        <ele>178.46</ele>
        <time>2016-10-10T08:24:06Z</time>
      </trkpt>
      <trkpt lat="48.02331" lon="3.32819">
        <ele>177.98</ele>
        <time>2016-10-10T08:24:19Z</time>
      </trkpt>
      <trkpt lat="48.02322" lon="3.3283">
        <ele>178.46</ele>
        <time>2016-10-10T08:24:29Z</time>
      </trkpt>
      <trkpt lat="48.02314" lon="3.3284">
        <ele>178.94</ele>
        <time>2016-10-10T08:24:37Z</time>
      </trkpt>
      <trkpt lat="48.02306" lon="3.32849">
        <ele>179.9</ele>
        <time>2016-10-10T08:24:46Z</time>
      </trkpt>
      <trkpt lat="48.02296" lon="3.32861">
        <ele>180.38</ele>
        <time>2016-10-10T08:24:57Z</time>
      </trkpt>
      <trkpt lat="48.02288" lon="3.3287">
        <ele>180.87</ele>
        <time>2016-10-10T08:25:07Z</time>
      </trkpt>
      <trkpt lat="48.02286" lon="3.32875">
        <ele>180.87</ele>
        <time>2016-10-10T08:25:10Z</time>
      </trkpt>
      <trkpt lat="48.02285" lon="3.32887">
        <ele>181.35</ele>
        <time>2016-10-10T08:25:17Z</time>
      </trkpt>
      <trkpt lat="48.02288" lon="3.32895">
        <ele>181.35</ele>
        <time>2016-10-10T08:25:21Z</time>
      </trkpt>
      <trkpt lat="48.02293" lon="3.3291">
        <ele>182.79</ele>
        <time>2016-10-10T08:25:30Z</time>
      </trkpt>
      <trkpt lat="48.02296" lon="3.32921">
        <ele>183.75</ele>
        <time>2016-10-10T08:25:38Z</time>
      </trkpt>
      <trkpt lat="48.02297" lon="3.32933">
        <ele>185.19</ele>
        <time>2016-10-10T08:25:45Z</time>
      </trkpt>
      <trkpt lat="48.02299" lon="3.32946">
        <ele>185.19</ele>
        <time>2016-10-10T08:25:55Z</time>
      </trkpt>
      <trkpt lat="48.02301" lon="3.32958">
        <ele>186.15</ele>
        <time>2016-10-10T08:26:04Z</time>
      </trkpt>
      <trkpt lat="48.02302" lon="3.3297">
        <ele>186.63</ele>
        <time>2016-10-10T08:26:14Z</time>
      </trkpt>
      <trkpt lat="48.02304" lon="3.32988">
        <ele>185.67</ele>
        <time>2016-10-10T08:26:25Z</time>
      </trkpt>
      <trkpt lat="48.02306" lon="3.32993">
        <ele>185.19</ele>
        <time>2016-10-10T08:26:29Z</time>
      </trkpt>
      <trkpt lat="48.02313" lon="3.33005">
        <ele>184.23</ele>
        <time>2016-10-10T08:26:38Z</time>
      </trkpt>
      <trkpt lat="48.02318" lon="3.33013">
        <ele>183.75</ele>
        <time>2016-10-10T08:26:45Z</time>
      </trkpt>
      <trkpt lat="48.02323" lon="3.33024">
        <ele>184.71</ele>
        <time>2016-10-10T08:26:52Z</time>
      </trkpt>
      <trkpt lat="48.02327" lon="3.33038">
        <ele>184.23</ele>
        <time>2016-10-10T08:27:00Z</time>
      </trkpt>
      <trkpt lat="48.02328" lon="3.33048">
        <ele>185.19</ele>
        <time>2016-10-10T08:27:07Z</time>
      </trkpt>
      <trkpt lat="48.0233" lon="3.33061">
        <ele>183.75</ele>
        <time>2016-10-10T08:27:15Z</time>
      </trkpt>
      <trkpt lat="48.02333" lon="3.33074">
        <ele>183.27</ele>
        <time>2016-10-10T08:27:23Z</time>
      </trkpt>
      <trkpt lat="48.02333" lon="3.33076">
        <ele>183.27</ele>
        <time>2016-10-10T08:27:24Z</time>
      </trkpt>
      <trkpt lat="48.02336" lon="3.33092">
        <ele>183.27</ele>
        <time>2016-10-10T08:27:33Z</time>
      </trkpt>
      <trkpt lat="48.02339" lon="3.33106">
        <ele>184.23</ele>
        <time>2016-10-10T08:27:41Z</time>
      </trkpt>
      <trkpt lat="48.02342" lon="3.33118">
        <ele>185.67</ele>
        <time>2016-10-10T08:27:48Z</time>
      </trkpt>
      <trkpt lat="48.02344" lon="3.33128">
        <ele>187.11</ele>
        <time>2016-10-10T08:27:55Z</time>
      </trkpt>
      <trkpt lat="48.02346" lon="3.33139">
        <ele>188.08</ele>
        <time>2016-10-10T08:28:02Z</time>
      </trkpt>
      <trkpt lat="48.02348" lon="3.3315">
        <ele>188.08</ele>
        <time>2016-10-10T08:28:09Z</time>
      </trkpt>
      <trkpt lat="48.0235" lon="3.33161">
        <ele>190</ele>
        <time>2016-10-10T08:28:16Z</time>
      </trkpt>
      <trkpt lat="48.02352" lon="3.33172">
        <ele>191.92</ele>
        <time>2016-10-10T08:28:23Z</time>
      </trkpt>
      <trkpt lat="48.02355" lon="3.3318">
        <ele>193.36</ele>
        <time>2016-10-10T08:28:30Z</time>
      </trkpt>
      <trkpt lat="48.02358" lon="3.33196">
        <ele>194.32</ele>
        <time>2016-10-10T08:28:39Z</time>
      </trkpt>
      <trkpt lat="48.02361" lon="3.33207">
        <ele>195.28</ele>
        <time>2016-10-10T08:28:48Z</time>
      </trkpt>
      <trkpt lat="48.02364" lon="3.3322">
        <ele>195.77</ele>
        <time>2016-10-10T08:28:57Z</time>
      </trkpt>
      <trkpt lat="48.02366" lon="3.3323">
        <ele>195.77</ele>
        <time>2016-10-10T08:29:04Z</time>
      </trkpt>
      <trkpt lat="48.0237" lon="3.33238">
        <ele>195.28</ele>
        <time>2016-10-10T08:29:11Z</time>
      </trkpt>
      <trkpt lat="48.02372" lon="3.33244">
        <ele>194.8</ele>
        <time>2016-10-10T08:29:18Z</time>
      </trkpt>
      <trkpt lat="48.02373" lon="3.33251">
        <ele>195.28</ele>
        <time>2016-10-10T08:29:22Z</time>
      </trkpt>
      <trkpt lat="48.02376" lon="3.33257">
        <ele>195.28</ele>
        <time>2016-10-10T08:29:26Z</time>
      </trkpt>
      <trkpt lat="48.0238" lon="3.33268">
        <ele>195.28</ele>
        <time>2016-10-10T08:29:33Z</time>
      </trkpt>
      <trkpt lat="48.02383" lon="3.33278">
        <ele>195.28</ele>
        <time>2016-10-10T08:29:40Z</time>
      </trkpt>
      <trkpt lat="48.02387" lon="3.33291">
        <ele>194.8</ele>
        <time>2016-10-10T08:29:47Z</time>
      </trkpt>
      <trkpt lat="48.02391" lon="3.33301">
        <ele>195.28</ele>
        <time>2016-10-10T08:29:54Z</time>
      </trkpt>
      <trkpt lat="48.02394" lon="3.3331">
        <ele>195.28</ele>
        <time>2016-10-10T08:30:01Z</time>
      </trkpt>
      <trkpt lat="48.02397" lon="3.33314">
        <ele>195.28</ele>
        <time>2016-10-10T08:30:06Z</time>
      </trkpt>
      <trkpt lat="48.02401" lon="3.3332">
        <ele>195.28</ele>
        <time>2016-10-10T08:30:12Z</time>
      </trkpt>
      <trkpt lat="48.02402" lon="3.33328">
        <ele>195.28</ele>
        <time>2016-10-10T08:30:17Z</time>
      </trkpt>
      <trkpt lat="48.02406" lon="3.33343">
        <ele>195.28</ele>
        <time>2016-10-10T08:30:25Z</time>
      </trkpt>
      <trkpt lat="48.0241" lon="3.33355">
        <ele>197.21</ele>
        <time>2016-10-10T08:30:33Z</time>
      </trkpt>
      <trkpt lat="48.0241" lon="3.33366">
        <ele>198.65</ele>
        <time>2016-10-10T08:30:41Z</time>
      </trkpt>
      <trkpt lat="48.02414" lon="3.33376">
        <ele>199.13</ele>
        <time>2016-10-10T08:30:48Z</time>
      </trkpt>
      <trkpt lat="48.02417" lon="3.33386">
        <ele>198.17</ele>
        <time>2016-10-10T08:30:56Z</time>
      </trkpt>
      <trkpt lat="48.02421" lon="3.33396">
        <ele>196.25</ele>
        <time>2016-10-10T08:31:03Z</time>
      </trkpt>
      <trkpt lat="48.02425" lon="3.33409">
        <ele>194.8</ele>
        <time>2016-10-10T08:31:12Z</time>
      </trkpt>
      <trkpt lat="48.02427" lon="3.33414">
        <ele>194.32</ele>
        <time>2016-10-10T08:31:16Z</time>
      </trkpt>
      <trkpt lat="48.02426" lon="3.33419">
        <ele>194.32</ele>
        <time>2016-10-10T08:31:19Z</time>
      </trkpt>
      <trkpt lat="48.02426" lon="3.3343">
        <ele>193.36</ele>
        <time>2016-10-10T08:31:28Z</time>
      </trkpt>
      <trkpt lat="48.02423" lon="3.33431">
        <ele>193.36</ele>
        <time>2016-10-10T08:31:32Z</time>
      </trkpt>
      <trkpt lat="48.02414" lon="3.33433">
        <ele>193.36</ele>
        <time>2016-10-10T08:31:40Z</time>
      </trkpt>
      <trkpt lat="48.02407" lon="3.33432">
        <ele>192.88</ele>
        <time>2016-10-10T08:31:47Z</time>
      </trkpt>
      <trkpt lat="48.024" lon="3.33432">
        <ele>192.4</ele>
        <time>2016-10-10T08:31:54Z</time>
      </trkpt>
      <trkpt lat="48.02392" lon="3.33432">
        <ele>191.92</ele>
        <time>2016-10-10T08:32:01Z</time>
      </trkpt>
      <trkpt lat="48.02388" lon="3.33433">
        <ele>192.4</ele>
        <time>2016-10-10T08:32:04Z</time>
      </trkpt>
      <trkpt lat="48.02382" lon="3.33431">
        <ele>191.92</ele>
        <time>2016-10-10T08:32:10Z</time>
      </trkpt>
      <trkpt lat="48.02372" lon="3.33431">
        <ele>191.44</ele>
        <time>2016-10-10T08:32:19Z</time>
      </trkpt>
      <trkpt lat="48.02363" lon="3.33432">
        <ele>190.48</ele>
        <time>2016-10-10T08:32:27Z</time>
      </trkpt>
      <trkpt lat="48.02353" lon="3.33433">
        <ele>190.48</ele>
        <time>2016-10-10T08:32:35Z</time>
      </trkpt>
      <trkpt lat="48.02347" lon="3.33433">
        <ele>190.96</ele>
        <time>2016-10-10T08:32:40Z</time>
      </trkpt>
      <trkpt lat="48.02337" lon="3.33434">
        <ele>190.96</ele>
        <time>2016-10-10T08:32:49Z</time>
      </trkpt>
      <trkpt lat="48.02328" lon="3.33435">
        <ele>190.96</ele>
        <time>2016-10-10T08:32:57Z</time>
      </trkpt>
      <trkpt lat="48.02321" lon="3.33436">
        <ele>190.96</ele>
        <time>2016-10-10T08:33:04Z</time>
      </trkpt>
      <trkpt lat="48.02316" lon="3.33436">
        <ele>191.92</ele>
        <time>2016-10-10T08:33:11Z</time>
      </trkpt>
      <trkpt lat="48.02314" lon="3.33435">
        <ele>191.92</ele>
        <time>2016-10-10T08:33:20Z</time>
      </trkpt>
      <trkpt lat="48.02314" lon="3.33436">
        <ele>192.4</ele>
        <time>2016-10-10T08:33:32Z</time>
      </trkpt>
      <trkpt lat="48.02313" lon="3.33437">
        <ele>191.44</ele>
        <time>2016-10-10T08:33:46Z</time>
      </trkpt>
      <trkpt lat="48.02313" lon="3.33438">
        <ele>190.96</ele>
        <time>2016-10-10T08:33:57Z</time>
      </trkpt>
      <trkpt lat="48.02313" lon="3.33438">
        <ele>190.96</ele>
        <time>2016-10-10T08:34:11Z</time>
      </trkpt>
      <trkpt lat="48.02313" lon="3.33438">
        <ele>190.96</ele>
        <time>2016-10-10T08:34:20Z</time>
      </trkpt>
      <trkpt lat="48.02313" lon="3.33437">
        <ele>190.96</ele>
        <time>2016-10-10T08:34:29Z</time>
      </trkpt>
      <trkpt lat="48.02314" lon="3.33438">
        <ele>190.48</ele>
        <time>2016-10-10T08:34:40Z</time>
      </trkpt>
      <trkpt lat="48.02314" lon="3.33438">
        <ele>190</ele>
        <time>2016-10-10T08:34:51Z</time>
      </trkpt>
      <trkpt lat="48.02313" lon="3.33438">
        <ele>189.52</ele>
        <time>2016-10-10T08:35:03Z</time>
      </trkpt>
      <trkpt lat="48.02312" lon="3.33439">
        <ele>189.04</ele>
        <time>2016-10-10T08:35:14Z</time>
      </trkpt>
      <trkpt lat="48.02313" lon="3.33437">
        <ele>189.04</ele>
        <time>2016-10-10T08:35:29Z</time>
      </trkpt>
      <trkpt lat="48.02313" lon="3.33436">
        <ele>189.52</ele>
        <time>2016-10-10T08:35:41Z</time>
      </trkpt>
      <trkpt lat="48.0231" lon="3.33438">
        <ele>190.48</ele>
        <time>2016-10-10T08:35:48Z</time>
      </trkpt>
      <trkpt lat="48.02305" lon="3.3344">
        <ele>190.96</ele>
        <time>2016-10-10T08:35:57Z</time>
      </trkpt>
      <trkpt lat="48.02306" lon="3.33441">
        <ele>190</ele>
        <time>2016-10-10T08:36:12Z</time>
      </trkpt>
      <trkpt lat="48.02304" lon="3.33442">
        <ele>189.52</ele>
        <time>2016-10-10T08:36:21Z</time>
      </trkpt>
      <trkpt lat="48.02299" lon="3.33442">
        <ele>189.52</ele>
        <time>2016-10-10T08:36:28Z</time>
      </trkpt>
      <trkpt lat="48.02293" lon="3.3344">
        <ele>190</ele>
        <time>2016-10-10T08:36:35Z</time>
      </trkpt>
      <trkpt lat="48.02286" lon="3.33439">
        <ele>190.48</ele>
        <time>2016-10-10T08:36:42Z</time>
      </trkpt>
      <trkpt lat="48.02283" lon="3.3344">
        <ele>190</ele>
        <time>2016-10-10T08:36:45Z</time>
      </trkpt>
      <trkpt lat="48.02274" lon="3.33439">
        <ele>190</ele>
        <time>2016-10-10T08:36:54Z</time>
      </trkpt>
      <trkpt lat="48.02267" lon="3.3344">
        <ele>190</ele>
        <time>2016-10-10T08:37:02Z</time>
      </trkpt>
      <trkpt lat="48.02264" lon="3.3344">
        <ele>189.04</ele>
        <time>2016-10-10T08:37:09Z</time>
      </trkpt>
      <trkpt lat="48.02262" lon="3.33441">
        <ele>188.56</ele>
        <time>2016-10-10T08:37:15Z</time>
      </trkpt>
      <trkpt lat="48.02261" lon="3.33442">
        <ele>188.56</ele>
        <time>2016-10-10T08:37:18Z</time>
      </trkpt>
      <trkpt lat="48.02252" lon="3.3344">
        <ele>187.11</ele>
        <time>2016-10-10T08:37:26Z</time>
      </trkpt>
      <trkpt lat="48.02242" lon="3.3344">
        <ele>186.63</ele>
        <time>2016-10-10T08:37:34Z</time>
      </trkpt>
      <trkpt lat="48.02237" lon="3.33439">
        <ele>186.63</ele>
        <time>2016-10-10T08:37:39Z</time>
      </trkpt>
      <trkpt lat="48.02234" lon="3.3344">
        <ele>186.63</ele>
        <time>2016-10-10T08:37:41Z</time>
      </trkpt>
      <trkpt lat="48.02224" lon="3.33441">
        <ele>186.63</ele>
        <time>2016-10-10T08:37:50Z</time>
      </trkpt>
      <trkpt lat="48.02214" lon="3.33441">
        <ele>187.59</ele>
        <time>2016-10-10T08:37:59Z</time>
      </trkpt>
      <trkpt lat="48.02209" lon="3.33442">
        <ele>188.08</ele>
        <time>2016-10-10T08:38:04Z</time>
      </trkpt>
      <trkpt lat="48.02198" lon="3.33444">
        <ele>186.63</ele>
        <time>2016-10-10T08:38:13Z</time>
      </trkpt>
      <trkpt lat="48.02189" lon="3.33444">
        <ele>187.11</ele>
        <time>2016-10-10T08:38:20Z</time>
      </trkpt>
      <trkpt lat="48.02181" lon="3.33445">
        <ele>186.63</ele>
        <time>2016-10-10T08:38:28Z</time>
      </trkpt>
      <trkpt lat="48.02173" lon="3.33446">
        <ele>185.67</ele>
        <time>2016-10-10T08:38:35Z</time>
      </trkpt>
      <trkpt lat="48.02166" lon="3.33447">
        <ele>186.15</ele>
        <time>2016-10-10T08:38:42Z</time>
      </trkpt>
      <trkpt lat="48.02161" lon="3.33446">
        <ele>185.67</ele>
        <time>2016-10-10T08:38:48Z</time>
      </trkpt>
      <trkpt lat="48.02159" lon="3.33446">
        <ele>186.63</ele>
        <time>2016-10-10T08:38:56Z</time>
      </trkpt>
      <trkpt lat="48.02155" lon="3.33447">
        <ele>187.11</ele>
        <time>2016-10-10T08:39:04Z</time>
      </trkpt>
      <trkpt lat="48.02149" lon="3.33448">
        <ele>186.63</ele>
        <time>2016-10-10T08:39:09Z</time>
      </trkpt>
      <trkpt lat="48.02141" lon="3.33447">
        <ele>186.15</ele>
        <time>2016-10-10T08:39:16Z</time>
      </trkpt>
      <trkpt lat="48.02131" lon="3.33448">
        <ele>185.19</ele>
        <time>2016-10-10T08:39:24Z</time>
      </trkpt>
      <trkpt lat="48.02125" lon="3.3345">
        <ele>184.23</ele>
        <time>2016-10-10T08:39:30Z</time>
      </trkpt>
      <trkpt lat="48.02121" lon="3.33449">
        <ele>184.71</ele>
        <time>2016-10-10T08:39:33Z</time>
      </trkpt>
      <trkpt lat="48.02112" lon="3.3345">
        <ele>183.27</ele>
        <time>2016-10-10T08:39:41Z</time>
      </trkpt>
      <trkpt lat="48.02106" lon="3.3345">
        <ele>183.75</ele>
        <time>2016-10-10T08:39:46Z</time>
      </trkpt>
      <trkpt lat="48.02098" lon="3.33452">
        <ele>183.27</ele>
        <time>2016-10-10T08:39:52Z</time>
      </trkpt>
      <trkpt lat="48.02088" lon="3.33453">
        <ele>182.79</ele>
        <time>2016-10-10T08:40:01Z</time>
      </trkpt>
      <trkpt lat="48.0208" lon="3.33453">
        <ele>182.31</ele>
        <time>2016-10-10T08:40:06Z</time>
      </trkpt>
      <trkpt lat="48.02072" lon="3.33456">
        <ele>181.35</ele>
        <time>2016-10-10T08:40:13Z</time>
      </trkpt>
      <trkpt lat="48.02062" lon="3.33457">
        <ele>181.83</ele>
        <time>2016-10-10T08:40:21Z</time>
      </trkpt>
      <trkpt lat="48.02055" lon="3.33457">
        <ele>181.35</ele>
        <time>2016-10-10T08:40:28Z</time>
      </trkpt>
      <trkpt lat="48.0205" lon="3.33455">
        <ele>181.83</ele>
        <time>2016-10-10T08:40:32Z</time>
      </trkpt>
      <trkpt lat="48.02041" lon="3.33457">
        <ele>182.31</ele>
        <time>2016-10-10T08:40:40Z</time>
      </trkpt>
      <trkpt lat="48.02033" lon="3.33458">
        <ele>181.83</ele>
        <time>2016-10-10T08:40:47Z</time>
      </trkpt>
      <trkpt lat="48.02024" lon="3.33456">
        <ele>182.31</ele>
        <time>2016-10-10T08:40:55Z</time>
      </trkpt>
      <trkpt lat="48.02014" lon="3.33458">
        <ele>181.83</ele>
        <time>2016-10-10T08:41:04Z</time>
      </trkpt>
      <trkpt lat="48.02004" lon="3.33458">
        <ele>181.83</ele>
        <time>2016-10-10T08:41:12Z</time>
      </trkpt>
      <trkpt lat="48.02002" lon="3.33461">
        <ele>181.83</ele>
        <time>2016-10-10T08:41:19Z</time>
      </trkpt>
      <trkpt lat="48.01996" lon="3.33463">
        <ele>181.35</ele>
        <time>2016-10-10T08:41:30Z</time>
      </trkpt>
      <trkpt lat="48.01994" lon="3.33464">
        <ele>181.83</ele>
        <time>2016-10-10T08:41:36Z</time>
      </trkpt>
      <trkpt lat="48.01994" lon="3.33465">
        <ele>180.87</ele>
        <time>2016-10-10T08:41:40Z</time>
      </trkpt>
      <trkpt lat="48.01985" lon="3.33461">
        <ele>179.9</ele>
        <time>2016-10-10T08:41:48Z</time>
      </trkpt>
      <trkpt lat="48.01978" lon="3.33463">
        <ele>179.42</ele>
        <time>2016-10-10T08:41:55Z</time>
      </trkpt>
      <trkpt lat="48.01964" lon="3.33466">
        <ele>176.54</ele>
        <time>2016-10-10T08:42:05Z</time>
      </trkpt>
      <trkpt lat="48.01953" lon="3.33468">
        <ele>175.58</ele>
        <time>2016-10-10T08:42:13Z</time>
      </trkpt>
      <trkpt lat="48.01943" lon="3.33471">
        <ele>176.54</ele>
        <time>2016-10-10T08:42:21Z</time>
      </trkpt>
      <trkpt lat="48.01934" lon="3.33467">
        <ele>176.06</ele>
        <time>2016-10-10T08:42:30Z</time>
      </trkpt>
      <trkpt lat="48.0193" lon="3.33467">
        <ele>175.58</ele>
        <time>2016-10-10T08:42:36Z</time>
      </trkpt>
      <trkpt lat="48.01928" lon="3.33468">
        <ele>175.58</ele>
        <time>2016-10-10T08:42:43Z</time>
      </trkpt>
      <trkpt lat="48.01925" lon="3.33468">
        <ele>176.06</ele>
        <time>2016-10-10T08:42:46Z</time>
      </trkpt>
      <trkpt lat="48.01918" lon="3.33467">
        <ele>175.58</ele>
        <time>2016-10-10T08:42:52Z</time>
      </trkpt>
      <trkpt lat="48.01912" lon="3.33464">
        <ele>177.02</ele>
        <time>2016-10-10T08:42:58Z</time>
      </trkpt>
      <trkpt lat="48.01904" lon="3.33464">
        <ele>177.98</ele>
        <time>2016-10-10T08:43:06Z</time>
      </trkpt>
      <trkpt lat="48.01893" lon="3.33456">
        <ele>177.02</ele>
        <time>2016-10-10T08:43:15Z</time>
      </trkpt>
      <trkpt lat="48.01883" lon="3.33449">
        <ele>176.54</ele>
        <time>2016-10-10T08:43:24Z</time>
      </trkpt>
      <trkpt lat="48.01873" lon="3.33442">
        <ele>176.06</ele>
        <time>2016-10-10T08:43:33Z</time>
      </trkpt>
      <trkpt lat="48.01865" lon="3.33437">
        <ele>176.06</ele>
        <time>2016-10-10T08:43:39Z</time>
      </trkpt>
      <trkpt lat="48.01857" lon="3.33436">
        <ele>173.66</ele>
        <time>2016-10-10T08:43:47Z</time>
      </trkpt>
      <trkpt lat="48.01848" lon="3.33434">
        <ele>174.14</ele>
        <time>2016-10-10T08:43:53Z</time>
      </trkpt>
      <trkpt lat="48.01839" lon="3.33431">
        <ele>173.66</ele>
        <time>2016-10-10T08:44:01Z</time>
      </trkpt>
      <trkpt lat="48.01831" lon="3.33428">
        <ele>174.62</ele>
        <time>2016-10-10T08:44:10Z</time>
      </trkpt>
      <trkpt lat="48.01824" lon="3.33425">
        <ele>176.06</ele>
        <time>2016-10-10T08:44:18Z</time>
      </trkpt>
      <trkpt lat="48.01817" lon="3.33423">
        <ele>176.54</ele>
        <time>2016-10-10T08:44:24Z</time>
      </trkpt>
      <trkpt lat="48.0181" lon="3.33421">
        <ele>176.54</ele>
        <time>2016-10-10T08:44:32Z</time>
      </trkpt>
      <trkpt lat="48.01801" lon="3.33418">
        <ele>177.02</ele>
        <time>2016-10-10T08:44:39Z</time>
      </trkpt>
      <trkpt lat="48.01794" lon="3.33418">
        <ele>177.02</ele>
        <time>2016-10-10T08:44:46Z</time>
      </trkpt>
      <trkpt lat="48.01786" lon="3.33415">
        <ele>177.02</ele>
        <time>2016-10-10T08:44:55Z</time>
      </trkpt>
      <trkpt lat="48.01778" lon="3.33412">
        <ele>177.5</ele>
        <time>2016-10-10T08:45:03Z</time>
      </trkpt>
      <trkpt lat="48.01772" lon="3.33409">
        <ele>176.54</ele>
        <time>2016-10-10T08:45:10Z</time>
      </trkpt>
      <trkpt lat="48.01763" lon="3.33405">
        <ele>176.06</ele>
        <time>2016-10-10T08:45:18Z</time>
      </trkpt>
      <trkpt lat="48.01758" lon="3.33403">
        <ele>176.54</ele>
        <time>2016-10-10T08:45:24Z</time>
      </trkpt>
      <trkpt lat="48.01759" lon="3.33397">
        <ele>175.58</ele>
        <time>2016-10-10T08:45:32Z</time>
      </trkpt>
      <trkpt lat="48.01762" lon="3.33396">
        <ele>177.98</ele>
        <time>2016-10-10T08:45:51Z</time>
      </trkpt>
      <trkpt lat="48.01762" lon="3.33398">
        <ele>177.98</ele>
        <time>2016-10-10T08:46:04Z</time>
      </trkpt>
      <trkpt lat="48.01751" lon="3.33395">
        <ele>176.54</ele>
        <time>2016-10-10T08:46:11Z</time>
      </trkpt>
      <trkpt lat="48.01744" lon="3.33395">
        <ele>176.54</ele>
        <time>2016-10-10T08:46:17Z</time>
      </trkpt>
      <trkpt lat="48.01735" lon="3.33393">
        <ele>178.94</ele>
        <time>2016-10-10T08:46:24Z</time>
      </trkpt>
      <trkpt lat="48.01725" lon="3.33391">
        <ele>179.42</ele>
        <time>2016-10-10T08:46:32Z</time>
      </trkpt>
      <trkpt lat="48.01717" lon="3.33388">
        <ele>180.38</ele>
        <time>2016-10-10T08:46:40Z</time>
      </trkpt>
      <trkpt lat="48.01707" lon="3.33384">
        <ele>180.38</ele>
        <time>2016-10-10T08:46:48Z</time>
      </trkpt>
      <trkpt lat="48.017" lon="3.33381">
        <ele>180.87</ele>
        <time>2016-10-10T08:46:55Z</time>
      </trkpt>
      <trkpt lat="48.01688" lon="3.33378">
        <ele>180.87</ele>
        <time>2016-10-10T08:47:05Z</time>
      </trkpt>
      <trkpt lat="48.0168" lon="3.33376">
        <ele>181.35</ele>
        <time>2016-10-10T08:47:12Z</time>
      </trkpt>
      <trkpt lat="48.01671" lon="3.33372">
        <ele>181.83</ele>
        <time>2016-10-10T08:47:20Z</time>
      </trkpt>
      <trkpt lat="48.01664" lon="3.33367">
        <ele>181.83</ele>
        <time>2016-10-10T08:47:27Z</time>
      </trkpt>
      <trkpt lat="48.01654" lon="3.33365">
        <ele>182.79</ele>
        <time>2016-10-10T08:47:35Z</time>
      </trkpt>
      <trkpt lat="48.01646" lon="3.3336">
        <ele>182.79</ele>
        <time>2016-10-10T08:47:44Z</time>
      </trkpt>
      <trkpt lat="48.01635" lon="3.33354">
        <ele>182.79</ele>
        <time>2016-10-10T08:47:56Z</time>
      </trkpt>
      <trkpt lat="48.01623" lon="3.33351">
        <ele>182.79</ele>
        <time>2016-10-10T08:48:08Z</time>
      </trkpt>
      <trkpt lat="48.01611" lon="3.33348">
        <ele>181.35</ele>
        <time>2016-10-10T08:48:18Z</time>
      </trkpt>
      <trkpt lat="48.01602" lon="3.33351">
        <ele>182.31</ele>
        <time>2016-10-10T08:48:26Z</time>
      </trkpt>
      <trkpt lat="48.01595" lon="3.3334">
        <ele>182.31</ele>
        <time>2016-10-10T08:48:34Z</time>
      </trkpt>
      <trkpt lat="48.0159" lon="3.33332">
        <ele>182.31</ele>
        <time>2016-10-10T08:48:42Z</time>
      </trkpt>
      <trkpt lat="48.01583" lon="3.33323">
        <ele>184.23</ele>
        <time>2016-10-10T08:48:50Z</time>
      </trkpt>
      <trkpt lat="48.01581" lon="3.33319">
        <ele>184.71</ele>
        <time>2016-10-10T08:48:55Z</time>
      </trkpt>
      <trkpt lat="48.01574" lon="3.33309">
        <ele>184.23</ele>
        <time>2016-10-10T08:49:04Z</time>
      </trkpt>
      <trkpt lat="48.01569" lon="3.33299">
        <ele>183.27</ele>
        <time>2016-10-10T08:49:11Z</time>
      </trkpt>
      <trkpt lat="48.01564" lon="3.33289">
        <ele>181.35</ele>
        <time>2016-10-10T08:49:19Z</time>
      </trkpt>
      <trkpt lat="48.01557" lon="3.33278">
        <ele>180.38</ele>
        <time>2016-10-10T08:49:27Z</time>
      </trkpt>
      <trkpt lat="48.01555" lon="3.33274">
        <ele>179.9</ele>
        <time>2016-10-10T08:49:35Z</time>
      </trkpt>
      <trkpt lat="48.01554" lon="3.33274">
        <ele>177.5</ele>
        <time>2016-10-10T08:49:46Z</time>
      </trkpt>
      <trkpt lat="48.01555" lon="3.33273">
        <ele>178.94</ele>
        <time>2016-10-10T08:49:55Z</time>
      </trkpt>
      <trkpt lat="48.01555" lon="3.33273">
        <ele>182.31</ele>
        <time>2016-10-10T08:50:11Z</time>
      </trkpt>
      <trkpt lat="48.01555" lon="3.33273">
        <ele>183.75</ele>
        <time>2016-10-10T08:50:23Z</time>
      </trkpt>
      <trkpt lat="48.01556" lon="3.33272">
        <ele>183.27</ele>
        <time>2016-10-10T08:50:35Z</time>
      </trkpt>
      <trkpt lat="48.01555" lon="3.33272">
        <ele>182.31</ele>
        <time>2016-10-10T08:50:51Z</time>
      </trkpt>
      <trkpt lat="48.01556" lon="3.33271">
        <ele>182.31</ele>
        <time>2016-10-10T08:51:09Z</time>
      </trkpt>
      <trkpt lat="48.01555" lon="3.33269">
        <ele>183.75</ele>
        <time>2016-10-10T08:51:26Z</time>
      </trkpt>
      <trkpt lat="48.01552" lon="3.33267">
        <ele>184.23</ele>
        <time>2016-10-10T08:51:38Z</time>
      </trkpt>
      <trkpt lat="48.01553" lon="3.33268">
        <ele>182.79</ele>
        <time>2016-10-10T08:51:52Z</time>
      </trkpt>
      <trkpt lat="48.01553" lon="3.33268">
        <ele>181.83</ele>
        <time>2016-10-10T08:52:14Z</time>
      </trkpt>
      <trkpt lat="48.01553" lon="3.3327">
        <ele>181.83</ele>
        <time>2016-10-10T08:52:36Z</time>
      </trkpt>
      <trkpt lat="48.01551" lon="3.3327">
        <ele>176.54</ele>
        <time>2016-10-10T08:52:54Z</time>
      </trkpt>
      <trkpt lat="48.01551" lon="3.33269">
        <ele>175.58</ele>
        <time>2016-10-10T08:53:06Z</time>
      </trkpt>
      <trkpt lat="48.01551" lon="3.33269">
        <ele>175.58</ele>
        <time>2016-10-10T08:53:17Z</time>
      </trkpt>
      <trkpt lat="48.01552" lon="3.3327">
        <ele>176.06</ele>
        <time>2016-10-10T08:53:31Z</time>
      </trkpt>
      <trkpt lat="48.01547" lon="3.33267">
        <ele>176.54</ele>
        <time>2016-10-10T08:53:40Z</time>
      </trkpt>
      <trkpt lat="48.01543" lon="3.33261">
        <ele>178.94</ele>
        <time>2016-10-10T08:53:47Z</time>
      </trkpt>
      <trkpt lat="48.01536" lon="3.33253">
        <ele>180.87</ele>
        <time>2016-10-10T08:53:57Z</time>
      </trkpt>
      <trkpt lat="48.0153" lon="3.33247">
        <ele>181.83</ele>
        <time>2016-10-10T08:54:05Z</time>
      </trkpt>
      <trkpt lat="48.01524" lon="3.33237">
        <ele>185.19</ele>
        <time>2016-10-10T08:54:15Z</time>
      </trkpt>
      <trkpt lat="48.01522" lon="3.33234">
        <ele>187.59</ele>
        <time>2016-10-10T08:54:21Z</time>
      </trkpt>
      <trkpt lat="48.01514" lon="3.33224">
        <ele>188.56</ele>
        <time>2016-10-10T08:54:30Z</time>
      </trkpt>
      <trkpt lat="48.01507" lon="3.33216">
        <ele>188.08</ele>
        <time>2016-10-10T08:54:38Z</time>
      </trkpt>
      <trkpt lat="48.01501" lon="3.33207">
        <ele>188.56</ele>
        <time>2016-10-10T08:54:46Z</time>
      </trkpt>
      <trkpt lat="48.01496" lon="3.33199">
        <ele>188.56</ele>
        <time>2016-10-10T08:54:54Z</time>
      </trkpt>
      <trkpt lat="48.01493" lon="3.33196">
        <ele>188.08</ele>
        <time>2016-10-10T08:54:58Z</time>
      </trkpt>
      <trkpt lat="48.01489" lon="3.33188">
        <ele>188.08</ele>
        <time>2016-10-10T08:55:05Z</time>
      </trkpt>
      <trkpt lat="48.01483" lon="3.3318">
        <ele>188.08</ele>
        <time>2016-10-10T08:55:13Z</time>
      </trkpt>
      <trkpt lat="48.01478" lon="3.33173">
        <ele>188.08</ele>
        <time>2016-10-10T08:55:21Z</time>
      </trkpt>
      <trkpt lat="48.01474" lon="3.33164">
        <ele>187.59</ele>
        <time>2016-10-10T08:55:28Z</time>
      </trkpt>
      <trkpt lat="48.01469" lon="3.33158">
        <ele>186.63</ele>
        <time>2016-10-10T08:55:35Z</time>
      </trkpt>
      <trkpt lat="48.01467" lon="3.33156">
        <ele>187.11</ele>
        <time>2016-10-10T08:55:43Z</time>
      </trkpt>
      <trkpt lat="48.01469" lon="3.33144">
        <ele>184.23</ele>
        <time>2016-10-10T08:55:56Z</time>
      </trkpt>
      <trkpt lat="48.01467" lon="3.33145">
        <ele>182.79</ele>
        <time>2016-10-10T08:56:07Z</time>
      </trkpt>
      <trkpt lat="48.01467" lon="3.33143">
        <ele>181.83</ele>
        <time>2016-10-10T08:56:27Z</time>
      </trkpt>
      <trkpt lat="48.01468" lon="3.33142">
        <ele>181.83</ele>
        <time>2016-10-10T08:56:44Z</time>
      </trkpt>
      <trkpt lat="48.01469" lon="3.33142">
        <ele>181.35</ele>
        <time>2016-10-10T08:56:54Z</time>
      </trkpt>
      <trkpt lat="48.01468" lon="3.33141">
        <ele>182.79</ele>
        <time>2016-10-10T08:57:08Z</time>
      </trkpt>
      <trkpt lat="48.01469" lon="3.33143">
        <ele>181.83</ele>
        <time>2016-10-10T08:57:25Z</time>
      </trkpt>
      <trkpt lat="48.01469" lon="3.33142">
        <ele>181.35</ele>
        <time>2016-10-10T08:57:38Z</time>
      </trkpt>
      <trkpt lat="48.01468" lon="3.3314">
        <ele>182.79</ele>
        <time>2016-10-10T08:57:53Z</time>
      </trkpt>
      <trkpt lat="48.01465" lon="3.3314">
        <ele>181.35</ele>
        <time>2016-10-10T08:58:03Z</time>
      </trkpt>
      <trkpt lat="48.01466" lon="3.33142">
        <ele>181.35</ele>
        <time>2016-10-10T08:58:11Z</time>
      </trkpt>
      <trkpt lat="48.01465" lon="3.33143">
        <ele>180.87</ele>
        <time>2016-10-10T08:58:30Z</time>
      </trkpt>
      <trkpt lat="48.01466" lon="3.33143">
        <ele>182.79</ele>
        <time>2016-10-10T08:58:46Z</time>
      </trkpt>
      <trkpt lat="48.01467" lon="3.33143">
        <ele>181.83</ele>
        <time>2016-10-10T08:58:58Z</time>
      </trkpt>
      <trkpt lat="48.01466" lon="3.33144">
        <ele>183.75</ele>
        <time>2016-10-10T08:59:13Z</time>
      </trkpt>
      <trkpt lat="48.01467" lon="3.33144">
        <ele>182.79</ele>
        <time>2016-10-10T08:59:29Z</time>
      </trkpt>
      <trkpt lat="48.01466" lon="3.33143">
        <ele>184.23</ele>
        <time>2016-10-10T08:59:39Z</time>
      </trkpt>
      <trkpt lat="48.01467" lon="3.33142">
        <ele>183.27</ele>
        <time>2016-10-10T08:59:48Z</time>
      </trkpt>
      <trkpt lat="48.01467" lon="3.33141">
        <ele>182.79</ele>
        <time>2016-10-10T08:59:57Z</time>
      </trkpt>
      <trkpt lat="48.01466" lon="3.33141">
        <ele>180.38</ele>
        <time>2016-10-10T09:00:08Z</time>
      </trkpt>
      <trkpt lat="48.01465" lon="3.33139">
        <ele>179.9</ele>
        <time>2016-10-10T09:00:22Z</time>
      </trkpt>
      <trkpt lat="48.01464" lon="3.33137">
        <ele>178.94</ele>
        <time>2016-10-10T09:00:37Z</time>
      </trkpt>
      <trkpt lat="48.01464" lon="3.33136">
        <ele>179.42</ele>
        <time>2016-10-10T09:00:48Z</time>
      </trkpt>
      <trkpt lat="48.01462" lon="3.33134">
        <ele>180.38</ele>
        <time>2016-10-10T09:01:03Z</time>
      </trkpt>
      <trkpt lat="48.01463" lon="3.33142">
        <ele>180.87</ele>
        <time>2016-10-10T09:01:15Z</time>
      </trkpt>
      <trkpt lat="48.01462" lon="3.33144">
        <ele>181.35</ele>
        <time>2016-10-10T09:01:17Z</time>
      </trkpt>
      <trkpt lat="48.0146" lon="3.33148">
        <ele>181.35</ele>
        <time>2016-10-10T09:01:24Z</time>
      </trkpt>
      <trkpt lat="48.01461" lon="3.33148">
        <ele>178.94</ele>
        <time>2016-10-10T09:01:35Z</time>
      </trkpt>
      <trkpt lat="48.01462" lon="3.33149">
        <ele>176.06</ele>
        <time>2016-10-10T09:01:45Z</time>
      </trkpt>
      <trkpt lat="48.01462" lon="3.33151">
        <ele>174.62</ele>
        <time>2016-10-10T09:01:55Z</time>
      </trkpt>
      <trkpt lat="48.01456" lon="3.33158">
        <ele>173.66</ele>
        <time>2016-10-10T09:02:03Z</time>
      </trkpt>
      <trkpt lat="48.01452" lon="3.33165">
        <ele>175.1</ele>
        <time>2016-10-10T09:02:11Z</time>
      </trkpt>
      <trkpt lat="48.01446" lon="3.3317">
        <ele>174.62</ele>
        <time>2016-10-10T09:02:19Z</time>
      </trkpt>
      <trkpt lat="48.01443" lon="3.33176">
        <ele>175.58</ele>
        <time>2016-10-10T09:02:27Z</time>
      </trkpt>
      <trkpt lat="48.01441" lon="3.33178">
        <ele>175.58</ele>
        <time>2016-10-10T09:02:29Z</time>
      </trkpt>
      <trkpt lat="48.01437" lon="3.33177">
        <ele>177.98</ele>
        <time>2016-10-10T09:02:36Z</time>
      </trkpt>
      <trkpt lat="48.01433" lon="3.33176">
        <ele>179.9</ele>
        <time>2016-10-10T09:02:45Z</time>
      </trkpt>
      <trkpt lat="48.0143" lon="3.33175">
        <ele>180.38</ele>
        <time>2016-10-10T09:02:53Z</time>
      </trkpt>
      <trkpt lat="48.01427" lon="3.3317">
        <ele>180.87</ele>
        <time>2016-10-10T09:03:05Z</time>
      </trkpt>
      <trkpt lat="48.01422" lon="3.33165">
        <ele>179.9</ele>
        <time>2016-10-10T09:03:13Z</time>
      </trkpt>
      <trkpt lat="48.01421" lon="3.33164">
        <ele>179.9</ele>
        <time>2016-10-10T09:03:14Z</time>
      </trkpt>
      <trkpt lat="48.01414" lon="3.33157">
        <ele>181.35</ele>
        <time>2016-10-10T09:03:23Z</time>
      </trkpt>
      <trkpt lat="48.01407" lon="3.33153">
        <ele>182.79</ele>
        <time>2016-10-10T09:03:31Z</time>
      </trkpt>
      <trkpt lat="48.014" lon="3.33149">
        <ele>180.87</ele>
        <time>2016-10-10T09:03:40Z</time>
      </trkpt>
      <trkpt lat="48.01397" lon="3.33148">
        <ele>180.38</ele>
        <time>2016-10-10T09:03:42Z</time>
      </trkpt>
      <trkpt lat="48.01391" lon="3.33143">
        <ele>179.42</ele>
        <time>2016-10-10T09:03:49Z</time>
      </trkpt>
      <trkpt lat="48.01384" lon="3.33136">
        <ele>178.46</ele>
        <time>2016-10-10T09:03:56Z</time>
      </trkpt>
      <trkpt lat="48.01378" lon="3.33125">
        <ele>177.02</ele>
        <time>2016-10-10T09:04:04Z</time>
      </trkpt>
      <trkpt lat="48.01371" lon="3.33117">
        <ele>174.62</ele>
        <time>2016-10-10T09:04:11Z</time>
      </trkpt>
      <trkpt lat="48.01366" lon="3.33106">
        <ele>170.77</ele>
        <time>2016-10-10T09:04:20Z</time>
      </trkpt>
      <trkpt lat="48.01363" lon="3.33096">
        <ele>167.89</ele>
        <time>2016-10-10T09:04:27Z</time>
      </trkpt>
      <trkpt lat="48.01359" lon="3.33089">
        <ele>165.48</ele>
        <time>2016-10-10T09:04:34Z</time>
      </trkpt>
      <trkpt lat="48.01353" lon="3.33082">
        <ele>164.04</ele>
        <time>2016-10-10T09:04:41Z</time>
      </trkpt>
      <trkpt lat="48.01347" lon="3.33074">
        <ele>164.04</ele>
        <time>2016-10-10T09:04:48Z</time>
      </trkpt>
      <trkpt lat="48.01341" lon="3.33065">
        <ele>163.08</ele>
        <time>2016-10-10T09:04:54Z</time>
      </trkpt>
      <trkpt lat="48.01341" lon="3.33063">
        <ele>163.08</ele>
        <time>2016-10-10T09:04:55Z</time>
      </trkpt>
      <trkpt lat="48.01338" lon="3.3306">
        <ele>163.56</ele>
        <time>2016-10-10T09:04:58Z</time>
      </trkpt>
      <trkpt lat="48.01334" lon="3.33052">
        <ele>163.56</ele>
        <time>2016-10-10T09:05:04Z</time>
      </trkpt>
      <trkpt lat="48.0133" lon="3.33047">
        <ele>164.04</ele>
        <time>2016-10-10T09:05:10Z</time>
      </trkpt>
      <trkpt lat="48.01325" lon="3.33041">
        <ele>164.04</ele>
        <time>2016-10-10T09:05:16Z</time>
      </trkpt>
      <trkpt lat="48.0132" lon="3.33034">
        <ele>163.56</ele>
        <time>2016-10-10T09:05:22Z</time>
      </trkpt>
      <trkpt lat="48.01318" lon="3.3303">
        <ele>163.56</ele>
        <time>2016-10-10T09:05:25Z</time>
      </trkpt>
      <trkpt lat="48.01311" lon="3.3302">
        <ele>162.6</ele>
        <time>2016-10-10T09:05:33Z</time>
      </trkpt>
      <trkpt lat="48.01309" lon="3.33017">
        <ele>162.6</ele>
        <time>2016-10-10T09:05:35Z</time>
      </trkpt>
      <trkpt lat="48.01301" lon="3.33009">
        <ele>162.6</ele>
        <time>2016-10-10T09:05:43Z</time>
      </trkpt>
      <trkpt lat="48.01295" lon="3.33001">
        <ele>162.12</ele>
        <time>2016-10-10T09:05:50Z</time>
      </trkpt>
      <trkpt lat="48.0129" lon="3.32996">
        <ele>160.68</ele>
        <time>2016-10-10T09:05:55Z</time>
      </trkpt>
      <trkpt lat="48.01286" lon="3.32992">
        <ele>159.72</ele>
        <time>2016-10-10T09:05:59Z</time>
      </trkpt>
      <trkpt lat="48.0128" lon="3.32984">
        <ele>158.75</ele>
        <time>2016-10-10T09:06:06Z</time>
      </trkpt>
      <trkpt lat="48.01276" lon="3.32983">
        <ele>158.27</ele>
        <time>2016-10-10T09:06:09Z</time>
      </trkpt>
      <trkpt lat="48.01269" lon="3.32978">
        <ele>156.83</ele>
        <time>2016-10-10T09:06:15Z</time>
      </trkpt>
      <trkpt lat="48.01265" lon="3.32973">
        <ele>153.95</ele>
        <time>2016-10-10T09:06:21Z</time>
      </trkpt>
      <trkpt lat="48.01259" lon="3.32972">
        <ele>151.54</ele>
        <time>2016-10-10T09:06:26Z</time>
      </trkpt>
      <trkpt lat="48.0125" lon="3.32963">
        <ele>149.14</ele>
        <time>2016-10-10T09:06:34Z</time>
      </trkpt>
      <trkpt lat="48.01244" lon="3.32954">
        <ele>144.82</ele>
        <time>2016-10-10T09:06:42Z</time>
      </trkpt>
      <trkpt lat="48.01235" lon="3.32947">
        <ele>145.3</ele>
        <time>2016-10-10T09:06:50Z</time>
      </trkpt>
      <trkpt lat="48.01229" lon="3.32942">
        <ele>143.85</ele>
        <time>2016-10-10T09:06:57Z</time>
      </trkpt>
      <trkpt lat="48.01223" lon="3.32939">
        <ele>144.82</ele>
        <time>2016-10-10T09:07:02Z</time>
      </trkpt>
      <trkpt lat="48.01217" lon="3.32937">
        <ele>147.22</ele>
        <time>2016-10-10T09:07:08Z</time>
      </trkpt>
      <trkpt lat="48.0121" lon="3.32929">
        <ele>148.66</ele>
        <time>2016-10-10T09:07:15Z</time>
      </trkpt>
      <trkpt lat="48.01201" lon="3.32922">
        <ele>149.14</ele>
        <time>2016-10-10T09:07:23Z</time>
      </trkpt>
      <trkpt lat="48.0119" lon="3.32914">
        <ele>147.22</ele>
        <time>2016-10-10T09:07:32Z</time>
      </trkpt>
      <trkpt lat="48.0119" lon="3.32913">
        <ele>146.74</ele>
        <time>2016-10-10T09:07:33Z</time>
      </trkpt>
      <trkpt lat="48.01183" lon="3.32907">
        <ele>143.37</ele>
        <time>2016-10-10T09:07:41Z</time>
      </trkpt>
      <trkpt lat="48.01181" lon="3.32908">
        <ele>142.89</ele>
        <time>2016-10-10T09:07:43Z</time>
      </trkpt>
      <trkpt lat="48.01173" lon="3.32905">
        <ele>140.97</ele>
        <time>2016-10-10T09:07:52Z</time>
      </trkpt>
      <trkpt lat="48.01167" lon="3.32902">
        <ele>140.97</ele>
        <time>2016-10-10T09:07:59Z</time>
      </trkpt>
      <trkpt lat="48.01161" lon="3.329">
        <ele>140.49</ele>
        <time>2016-10-10T09:08:06Z</time>
      </trkpt>
      <trkpt lat="48.01154" lon="3.32899">
        <ele>138.09</ele>
        <time>2016-10-10T09:08:13Z</time>
      </trkpt>
      <trkpt lat="48.01152" lon="3.32898">
        <ele>136.64</ele>
        <time>2016-10-10T09:08:16Z</time>
      </trkpt>
      <trkpt lat="48.01145" lon="3.32895">
        <ele>133.28</ele>
        <time>2016-10-10T09:08:23Z</time>
      </trkpt>
      <trkpt lat="48.01138" lon="3.32893">
        <ele>132.32</ele>
        <time>2016-10-10T09:08:30Z</time>
      </trkpt>
      <trkpt lat="48.01133" lon="3.3289">
        <ele>130.4</ele>
        <time>2016-10-10T09:08:37Z</time>
      </trkpt>
      <trkpt lat="48.01128" lon="3.32889">
        <ele>129.43</ele>
        <time>2016-10-10T09:08:43Z</time>
      </trkpt>
      <trkpt lat="48.01121" lon="3.32888">
        <ele>128.95</ele>
        <time>2016-10-10T09:08:49Z</time>
      </trkpt>
      <trkpt lat="48.01117" lon="3.32889">
        <ele>128.95</ele>
        <time>2016-10-10T09:08:53Z</time>
      </trkpt>
      <trkpt lat="48.01115" lon="3.3289">
        <ele>128.95</ele>
        <time>2016-10-10T09:08:55Z</time>
      </trkpt>
      <trkpt lat="48.01111" lon="3.32888">
        <ele>128.47</ele>
        <time>2016-10-10T09:09:00Z</time>
      </trkpt>
      <trkpt lat="48.01105" lon="3.32885">
        <ele>127.99</ele>
        <time>2016-10-10T09:09:05Z</time>
      </trkpt>
      <trkpt lat="48.01101" lon="3.32879">
        <ele>127.99</ele>
        <time>2016-10-10T09:09:12Z</time>
      </trkpt>
      <trkpt lat="48.01095" lon="3.32867">
        <ele>127.99</ele>
        <time>2016-10-10T09:09:21Z</time>
      </trkpt>
      <trkpt lat="48.01092" lon="3.32864">
        <ele>127.99</ele>
        <time>2016-10-10T09:09:24Z</time>
      </trkpt>
      <trkpt lat="48.01086" lon="3.32853">
        <ele>128.95</ele>
        <time>2016-10-10T09:09:32Z</time>
      </trkpt>
      <trkpt lat="48.01082" lon="3.32847">
        <ele>129.43</ele>
        <time>2016-10-10T09:09:36Z</time>
      </trkpt>
      <trkpt lat="48.01076" lon="3.32837">
        <ele>128.95</ele>
        <time>2016-10-10T09:09:44Z</time>
      </trkpt>
      <trkpt lat="48.01068" lon="3.32825">
        <ele>127.99</ele>
        <time>2016-10-10T09:09:52Z</time>
      </trkpt>
      <trkpt lat="48.01062" lon="3.32815">
        <ele>126.55</ele>
        <time>2016-10-10T09:10:00Z</time>
      </trkpt>
      <trkpt lat="48.01057" lon="3.32807">
        <ele>125.59</ele>
        <time>2016-10-10T09:10:07Z</time>
      </trkpt>
      <trkpt lat="48.01056" lon="3.32806">
        <ele>125.59</ele>
        <time>2016-10-10T09:10:08Z</time>
      </trkpt>
      <trkpt lat="48.0105" lon="3.328">
        <ele>125.59</ele>
        <time>2016-10-10T09:10:15Z</time>
      </trkpt>
      <trkpt lat="48.01044" lon="3.32791">
        <ele>125.59</ele>
        <time>2016-10-10T09:10:22Z</time>
      </trkpt>
      <trkpt lat="48.01037" lon="3.32781">
        <ele>126.55</ele>
        <time>2016-10-10T09:10:29Z</time>
      </trkpt>
      <trkpt lat="48.01032" lon="3.32773">
        <ele>127.03</ele>
        <time>2016-10-10T09:10:36Z</time>
      </trkpt>
      <trkpt lat="48.01025" lon="3.32764">
        <ele>127.03</ele>
        <time>2016-10-10T09:10:44Z</time>
      </trkpt>
      <trkpt lat="48.01019" lon="3.32753">
        <ele>127.03</ele>
        <time>2016-10-10T09:10:52Z</time>
      </trkpt>
      <trkpt lat="48.01013" lon="3.32745">
        <ele>127.51</ele>
        <time>2016-10-10T09:10:58Z</time>
      </trkpt>
      <trkpt lat="48.01006" lon="3.32734">
        <ele>127.51</ele>
        <time>2016-10-10T09:11:06Z</time>
      </trkpt>
      <trkpt lat="48.01001" lon="3.32725">
        <ele>127.51</ele>
        <time>2016-10-10T09:11:13Z</time>
      </trkpt>
      <trkpt lat="48.00995" lon="3.32715">
        <ele>127.03</ele>
        <time>2016-10-10T09:11:21Z</time>
      </trkpt>
      <trkpt lat="48.00989" lon="3.3271">
        <ele>126.55</ele>
        <time>2016-10-10T09:11:28Z</time>
      </trkpt>
      <trkpt lat="48.00982" lon="3.32706">
        <ele>125.59</ele>
        <time>2016-10-10T09:11:36Z</time>
      </trkpt>
      <trkpt lat="48.00977" lon="3.32702">
        <ele>124.15</ele>
        <time>2016-10-10T09:11:43Z</time>
      </trkpt>
      <trkpt lat="48.0097" lon="3.32696">
        <ele>123.67</ele>
        <time>2016-10-10T09:11:50Z</time>
      </trkpt>
      <trkpt lat="48.0096" lon="3.3269">
        <ele>124.15</ele>
        <time>2016-10-10T09:11:58Z</time>
      </trkpt>
      <trkpt lat="48.00953" lon="3.32684">
        <ele>123.67</ele>
        <time>2016-10-10T09:12:05Z</time>
      </trkpt>
      <trkpt lat="48.00947" lon="3.32677">
        <ele>123.19</ele>
        <time>2016-10-10T09:12:13Z</time>
      </trkpt>
      <trkpt lat="48.00939" lon="3.32673">
        <ele>122.71</ele>
        <time>2016-10-10T09:12:22Z</time>
      </trkpt>
      <trkpt lat="48.00929" lon="3.32667">
        <ele>122.71</ele>
        <time>2016-10-10T09:12:31Z</time>
      </trkpt>
      <trkpt lat="48.00929" lon="3.32666">
        <ele>122.71</ele>
        <time>2016-10-10T09:12:32Z</time>
      </trkpt>
      <trkpt lat="48.00921" lon="3.3266">
        <ele>122.22</ele>
        <time>2016-10-10T09:12:40Z</time>
      </trkpt>
      <trkpt lat="48.00913" lon="3.32655">
        <ele>122.22</ele>
        <time>2016-10-10T09:12:48Z</time>
      </trkpt>
      <trkpt lat="48.00905" lon="3.3265">
        <ele>121.74</ele>
        <time>2016-10-10T09:12:56Z</time>
      </trkpt>
      <trkpt lat="48.00901" lon="3.32648">
        <ele>121.74</ele>
        <time>2016-10-10T09:13:00Z</time>
      </trkpt>
      <trkpt lat="48.00896" lon="3.32646">
        <ele>121.26</ele>
        <time>2016-10-10T09:13:05Z</time>
      </trkpt>
      <trkpt lat="48.00891" lon="3.32642">
        <ele>120.78</ele>
        <time>2016-10-10T09:13:12Z</time>
      </trkpt>
      <trkpt lat="48.00885" lon="3.3264">
        <ele>120.3</ele>
        <time>2016-10-10T09:13:20Z</time>
      </trkpt>
      <trkpt lat="48.00885" lon="3.32638">
        <ele>119.82</ele>
        <time>2016-10-10T09:13:32Z</time>
      </trkpt>
      <trkpt lat="48.00884" lon="3.32635">
        <ele>120.78</ele>
        <time>2016-10-10T09:13:45Z</time>
      </trkpt>
      <trkpt lat="48.00882" lon="3.32635">
        <ele>121.26</ele>
        <time>2016-10-10T09:14:01Z</time>
      </trkpt>
      <trkpt lat="48.00881" lon="3.32636">
        <ele>121.74</ele>
        <time>2016-10-10T09:14:04Z</time>
      </trkpt>
      <trkpt lat="48.00882" lon="3.32636">
        <ele>123.67</ele>
        <time>2016-10-10T09:14:08Z</time>
      </trkpt>
      <trkpt lat="48.00883" lon="3.32636">
        <ele>124.15</ele>
        <time>2016-10-10T09:14:26Z</time>
      </trkpt>
      <trkpt lat="48.00883" lon="3.32634">
        <ele>124.15</ele>
        <time>2016-10-10T09:14:36Z</time>
      </trkpt>
      <trkpt lat="48.00883" lon="3.32635">
        <ele>122.71</ele>
        <time>2016-10-10T09:14:46Z</time>
      </trkpt>
      <trkpt lat="48.00883" lon="3.32636">
        <ele>120.78</ele>
        <time>2016-10-10T09:15:00Z</time>
      </trkpt>
      <trkpt lat="48.00884" lon="3.32634">
        <ele>121.26</ele>
        <time>2016-10-10T09:15:14Z</time>
      </trkpt>
      <trkpt lat="48.00883" lon="3.32633">
        <ele>121.26</ele>
        <time>2016-10-10T09:15:28Z</time>
      </trkpt>
      <trkpt lat="48.00883" lon="3.32631">
        <ele>121.26</ele>
        <time>2016-10-10T09:15:40Z</time>
      </trkpt>
      <trkpt lat="48.00886" lon="3.32624">
        <ele>121.26</ele>
        <time>2016-10-10T09:15:49Z</time>
      </trkpt>
      <trkpt lat="48.0089" lon="3.32616">
        <ele>122.22</ele>
        <time>2016-10-10T09:16:00Z</time>
      </trkpt>
      <trkpt lat="48.00893" lon="3.32608">
        <ele>122.71</ele>
        <time>2016-10-10T09:16:08Z</time>
      </trkpt>
      <trkpt lat="48.00894" lon="3.32602">
        <ele>123.19</ele>
        <time>2016-10-10T09:16:15Z</time>
      </trkpt>
      <trkpt lat="48.00897" lon="3.32594">
        <ele>123.19</ele>
        <time>2016-10-10T09:16:24Z</time>
      </trkpt>
      <trkpt lat="48.00901" lon="3.32585">
        <ele>123.19</ele>
        <time>2016-10-10T09:16:33Z</time>
      </trkpt>
      <trkpt lat="48.00904" lon="3.32575">
        <ele>122.71</ele>
        <time>2016-10-10T09:16:42Z</time>
      </trkpt>
      <trkpt lat="48.00902" lon="3.32568">
        <ele>122.22</ele>
        <time>2016-10-10T09:16:51Z</time>
      </trkpt>
      <trkpt lat="48.00901" lon="3.32567">
        <ele>121.74</ele>
        <time>2016-10-10T09:16:54Z</time>
      </trkpt>
      <trkpt lat="48.00896" lon="3.32565">
        <ele>122.22</ele>
        <time>2016-10-10T09:17:03Z</time>
      </trkpt>
      <trkpt lat="48.0089" lon="3.32558">
        <ele>122.71</ele>
        <time>2016-10-10T09:17:12Z</time>
      </trkpt>
      <trkpt lat="48.00892" lon="3.32549">
        <ele>122.22</ele>
        <time>2016-10-10T09:17:19Z</time>
      </trkpt>
      <trkpt lat="48.00896" lon="3.32541">
        <ele>120.78</ele>
        <time>2016-10-10T09:17:28Z</time>
      </trkpt>
      <trkpt lat="48.009" lon="3.32535">
        <ele>120.3</ele>
        <time>2016-10-10T09:17:34Z</time>
      </trkpt>
      <trkpt lat="48.00903" lon="3.3253">
        <ele>119.82</ele>
        <time>2016-10-10T09:17:39Z</time>
      </trkpt>
      <trkpt lat="48.00909" lon="3.3252">
        <ele>119.82</ele>
        <time>2016-10-10T09:17:47Z</time>
      </trkpt>
      <trkpt lat="48.00914" lon="3.32512">
        <ele>119.82</ele>
        <time>2016-10-10T09:17:55Z</time>
      </trkpt>
      <trkpt lat="48.0092" lon="3.32501">
        <ele>120.3</ele>
        <time>2016-10-10T09:18:04Z</time>
      </trkpt>
      <trkpt lat="48.00925" lon="3.32492">
        <ele>119.82</ele>
        <time>2016-10-10T09:18:12Z</time>
      </trkpt>
      <trkpt lat="48.00928" lon="3.32483">
        <ele>120.3</ele>
        <time>2016-10-10T09:18:19Z</time>
      </trkpt>
      <trkpt lat="48.00932" lon="3.32472">
        <ele>120.78</ele>
        <time>2016-10-10T09:18:27Z</time>
      </trkpt>
      <trkpt lat="48.00936" lon="3.32461">
        <ele>120.78</ele>
        <time>2016-10-10T09:18:35Z</time>
      </trkpt>
      <trkpt lat="48.00937" lon="3.32453">
        <ele>120.3</ele>
        <time>2016-10-10T09:18:40Z</time>
      </trkpt>
      <trkpt lat="48.00941" lon="3.32438">
        <ele>119.82</ele>
        <time>2016-10-10T09:18:50Z</time>
      </trkpt>
      <trkpt lat="48.00943" lon="3.32427">
        <ele>120.3</ele>
        <time>2016-10-10T09:18:58Z</time>
      </trkpt>
      <trkpt lat="48.00946" lon="3.32416">
        <ele>120.78</ele>
        <time>2016-10-10T09:19:06Z</time>
      </trkpt>
      <trkpt lat="48.00949" lon="3.32404">
        <ele>120.78</ele>
        <time>2016-10-10T09:19:15Z</time>
      </trkpt>
      <trkpt lat="48.0095" lon="3.32392">
        <ele>120.78</ele>
        <time>2016-10-10T09:19:22Z</time>
      </trkpt>
      <trkpt lat="48.00953" lon="3.32383">
        <ele>121.26</ele>
        <time>2016-10-10T09:19:29Z</time>
      </trkpt>
      <trkpt lat="48.00955" lon="3.32372">
        <ele>121.74</ele>
        <time>2016-10-10T09:19:37Z</time>
      </trkpt>
      <trkpt lat="48.00958" lon="3.32362">
        <ele>121.26</ele>
        <time>2016-10-10T09:19:44Z</time>
      </trkpt>
      <trkpt lat="48.0096" lon="3.32351">
        <ele>122.22</ele>
        <time>2016-10-10T09:19:51Z</time>
      </trkpt>
      <trkpt lat="48.00962" lon="3.3234">
        <ele>122.71</ele>
        <time>2016-10-10T09:19:59Z</time>
      </trkpt>
      <trkpt lat="48.00963" lon="3.32337">
        <ele>123.67</ele>
        <time>2016-10-10T09:20:07Z</time>
      </trkpt>
      <trkpt lat="48.00966" lon="3.32326">
        <ele>123.67</ele>
        <time>2016-10-10T09:20:15Z</time>
      </trkpt>
      <trkpt lat="48.0097" lon="3.32314">
        <ele>124.15</ele>
        <time>2016-10-10T09:20:23Z</time>
      </trkpt>
      <trkpt lat="48.00974" lon="3.32305">
        <ele>124.63</ele>
        <time>2016-10-10T09:20:31Z</time>
      </trkpt>
      <trkpt lat="48.00979" lon="3.32296">
        <ele>124.63</ele>
        <time>2016-10-10T09:20:39Z</time>
      </trkpt>
      <trkpt lat="48.00983" lon="3.32285">
        <ele>123.67</ele>
        <time>2016-10-10T09:20:47Z</time>
      </trkpt>
      <trkpt lat="48.00986" lon="3.32274">
        <ele>122.71</ele>
        <time>2016-10-10T09:20:55Z</time>
      </trkpt>
      <trkpt lat="48.00992" lon="3.32261">
        <ele>121.74</ele>
        <time>2016-10-10T09:21:04Z</time>
      </trkpt>
      <trkpt lat="48.00996" lon="3.32251">
        <ele>119.82</ele>
        <time>2016-10-10T09:21:12Z</time>
      </trkpt>
      <trkpt lat="48.01" lon="3.3224">
        <ele>119.82</ele>
        <time>2016-10-10T09:21:20Z</time>
      </trkpt>
      <trkpt lat="48.01004" lon="3.32227">
        <ele>120.3</ele>
        <time>2016-10-10T09:21:28Z</time>
      </trkpt>
      <trkpt lat="48.01008" lon="3.32216">
        <ele>119.82</ele>
        <time>2016-10-10T09:21:36Z</time>
      </trkpt>
      <trkpt lat="48.01012" lon="3.32205">
        <ele>118.86</ele>
        <time>2016-10-10T09:21:44Z</time>
      </trkpt>
      <trkpt lat="48.01013" lon="3.32193">
        <ele>118.38</ele>
        <time>2016-10-10T09:21:51Z</time>
      </trkpt>
      <trkpt lat="48.01017" lon="3.32179">
        <ele>116.94</ele>
        <time>2016-10-10T09:22:01Z</time>
      </trkpt>
      <trkpt lat="48.0102" lon="3.32166">
        <ele>116.94</ele>
        <time>2016-10-10T09:22:09Z</time>
      </trkpt>
      <trkpt lat="48.01022" lon="3.32153">
        <ele>117.9</ele>
        <time>2016-10-10T09:22:18Z</time>
      </trkpt>
      <trkpt lat="48.01024" lon="3.32142">
        <ele>118.38</ele>
        <time>2016-10-10T09:22:25Z</time>
      </trkpt>
      <trkpt lat="48.01027" lon="3.32129">
        <ele>117.9</ele>
        <time>2016-10-10T09:22:34Z</time>
      </trkpt>
      <trkpt lat="48.0103" lon="3.3212">
        <ele>117.42</ele>
        <time>2016-10-10T09:22:40Z</time>
      </trkpt>
      <trkpt lat="48.01032" lon="3.32107">
        <ele>116.46</ele>
        <time>2016-10-10T09:22:48Z</time>
      </trkpt>
      <trkpt lat="48.01034" lon="3.32095">
        <ele>115.98</ele>
        <time>2016-10-10T09:22:56Z</time>
      </trkpt>
      <trkpt lat="48.01037" lon="3.32082">
        <ele>115.98</ele>
        <time>2016-10-10T09:23:05Z</time>
      </trkpt>
      <trkpt lat="48.01038" lon="3.32069">
        <ele>116.46</ele>
        <time>2016-10-10T09:23:13Z</time>
      </trkpt>
      <trkpt lat="48.0104" lon="3.32053">
        <ele>115.98</ele>
        <time>2016-10-10T09:23:23Z</time>
      </trkpt>
      <trkpt lat="48.0104" lon="3.32038">
        <ele>115.01</ele>
        <time>2016-10-10T09:23:32Z</time>
      </trkpt>
      <trkpt lat="48.01042" lon="3.32025">
        <ele>116.46</ele>
        <time>2016-10-10T09:23:40Z</time>
      </trkpt>
      <trkpt lat="48.01044" lon="3.32013">
        <ele>116.94</ele>
        <time>2016-10-10T09:23:48Z</time>
      </trkpt>
      <trkpt lat="48.01047" lon="3.32">
        <ele>117.42</ele>
        <time>2016-10-10T09:23:57Z</time>
      </trkpt>
      <trkpt lat="48.01052" lon="3.31988">
        <ele>116.94</ele>
        <time>2016-10-10T09:24:06Z</time>
      </trkpt>
      <trkpt lat="48.01055" lon="3.31978">
        <ele>115.98</ele>
        <time>2016-10-10T09:24:14Z</time>
      </trkpt>
      <trkpt lat="48.01061" lon="3.31966">
        <ele>114.05</ele>
        <time>2016-10-10T09:24:23Z</time>
      </trkpt>
      <trkpt lat="48.01064" lon="3.31953">
        <ele>112.61</ele>
        <time>2016-10-10T09:24:32Z</time>
      </trkpt>
      <trkpt lat="48.01068" lon="3.3194">
        <ele>112.61</ele>
        <time>2016-10-10T09:24:40Z</time>
      </trkpt>
      <trkpt lat="48.0107" lon="3.3193">
        <ele>114.05</ele>
        <time>2016-10-10T09:24:47Z</time>
      </trkpt>
      <trkpt lat="48.01071" lon="3.31919">
        <ele>115.01</ele>
        <time>2016-10-10T09:24:54Z</time>
      </trkpt>
      <trkpt lat="48.01074" lon="3.31907">
        <ele>116.46</ele>
        <time>2016-10-10T09:25:03Z</time>
      </trkpt>
      <trkpt lat="48.01077" lon="3.31894">
        <ele>118.86</ele>
        <time>2016-10-10T09:25:12Z</time>
      </trkpt>
      <trkpt lat="48.01081" lon="3.31882">
        <ele>119.82</ele>
        <time>2016-10-10T09:25:21Z</time>
      </trkpt>
      <trkpt lat="48.01086" lon="3.31871">
        <ele>120.3</ele>
        <time>2016-10-10T09:25:30Z</time>
      </trkpt>
      <trkpt lat="48.01093" lon="3.31861">
        <ele>120.3</ele>
        <time>2016-10-10T09:25:40Z</time>
      </trkpt>
      <trkpt lat="48.01097" lon="3.31849">
        <ele>120.78</ele>
        <time>2016-10-10T09:25:48Z</time>
      </trkpt>
      <trkpt lat="48.01103" lon="3.31837">
        <ele>121.26</ele>
        <time>2016-10-10T09:25:57Z</time>
      </trkpt>
      <trkpt lat="48.01107" lon="3.31823">
        <ele>121.74</ele>
        <time>2016-10-10T09:26:06Z</time>
      </trkpt>
      <trkpt lat="48.01112" lon="3.3181">
        <ele>122.22</ele>
        <time>2016-10-10T09:26:15Z</time>
      </trkpt>
      <trkpt lat="48.01116" lon="3.31795">
        <ele>120.78</ele>
        <time>2016-10-10T09:26:26Z</time>
      </trkpt>
      <trkpt lat="48.01121" lon="3.31784">
        <ele>120.3</ele>
        <time>2016-10-10T09:26:34Z</time>
      </trkpt>
      <trkpt lat="48.01125" lon="3.3177">
        <ele>120.3</ele>
        <time>2016-10-10T09:26:43Z</time>
      </trkpt>
      <trkpt lat="48.01128" lon="3.3176">
        <ele>120.78</ele>
        <time>2016-10-10T09:26:50Z</time>
      </trkpt>
      <trkpt lat="48.0113" lon="3.3175">
        <ele>121.74</ele>
        <time>2016-10-10T09:26:56Z</time>
      </trkpt>
      <trkpt lat="48.01132" lon="3.3174">
        <ele>122.22</ele>
        <time>2016-10-10T09:27:03Z</time>
      </trkpt>
      <trkpt lat="48.01136" lon="3.3173">
        <ele>119.82</ele>
        <time>2016-10-10T09:27:11Z</time>
      </trkpt>
      <trkpt lat="48.0114" lon="3.31716">
        <ele>117.9</ele>
        <time>2016-10-10T09:27:21Z</time>
      </trkpt>
      <trkpt lat="48.01142" lon="3.317">
        <ele>116.94</ele>
        <time>2016-10-10T09:27:30Z</time>
      </trkpt>
      <trkpt lat="48.01147" lon="3.31685">
        <ele>117.42</ele>
        <time>2016-10-10T09:27:39Z</time>
      </trkpt>
      <trkpt lat="48.01151" lon="3.31673">
        <ele>117.42</ele>
        <time>2016-10-10T09:27:47Z</time>
      </trkpt>
      <trkpt lat="48.01156" lon="3.31658">
        <ele>117.42</ele>
        <time>2016-10-10T09:27:57Z</time>
      </trkpt>
      <trkpt lat="48.0116" lon="3.31644">
        <ele>117.42</ele>
        <time>2016-10-10T09:28:07Z</time>
      </trkpt>
      <trkpt lat="48.01168" lon="3.31633">
        <ele>116.94</ele>
        <time>2016-10-10T09:28:17Z</time>
      </trkpt>
      <trkpt lat="48.01176" lon="3.31618">
        <ele>117.42</ele>
        <time>2016-10-10T09:28:29Z</time>
      </trkpt>
      <trkpt lat="48.01181" lon="3.31609">
        <ele>118.86</ele>
        <time>2016-10-10T09:28:37Z</time>
      </trkpt>
      <trkpt lat="48.01184" lon="3.316">
        <ele>120.3</ele>
        <time>2016-10-10T09:28:47Z</time>
      </trkpt>
      <trkpt lat="48.01186" lon="3.31603">
        <ele>123.67</ele>
        <time>2016-10-10T09:28:59Z</time>
      </trkpt>
      <trkpt lat="48.01188" lon="3.31604">
        <ele>127.51</ele>
        <time>2016-10-10T09:29:17Z</time>
      </trkpt>
      <trkpt lat="48.01188" lon="3.31602">
        <ele>127.99</ele>
        <time>2016-10-10T09:29:26Z</time>
      </trkpt>
      <trkpt lat="48.01187" lon="3.31598">
        <ele>128.47</ele>
        <time>2016-10-10T09:29:33Z</time>
      </trkpt>
      <trkpt lat="48.01186" lon="3.31594">
        <ele>127.99</ele>
        <time>2016-10-10T09:29:40Z</time>
      </trkpt>
      <trkpt lat="48.01184" lon="3.3159">
        <ele>127.03</ele>
        <time>2016-10-10T09:29:47Z</time>
      </trkpt>
      <trkpt lat="48.01182" lon="3.31585">
        <ele>126.07</ele>
        <time>2016-10-10T09:29:56Z</time>
      </trkpt>
      <trkpt lat="48.01182" lon="3.31576">
        <ele>124.15</ele>
        <time>2016-10-10T09:30:05Z</time>
      </trkpt>
      <trkpt lat="48.01182" lon="3.31567">
        <ele>124.15</ele>
        <time>2016-10-10T09:30:12Z</time>
      </trkpt>
      <trkpt lat="48.01186" lon="3.31558">
        <ele>123.19</ele>
        <time>2016-10-10T09:30:19Z</time>
      </trkpt>
      <trkpt lat="48.01192" lon="3.3155">
        <ele>122.71</ele>
        <time>2016-10-10T09:30:26Z</time>
      </trkpt>
      <trkpt lat="48.01193" lon="3.31548">
        <ele>122.22</ele>
        <time>2016-10-10T09:30:27Z</time>
      </trkpt>
      <trkpt lat="48.012" lon="3.3154">
        <ele>122.71</ele>
        <time>2016-10-10T09:30:35Z</time>
      </trkpt>
      <trkpt lat="48.01207" lon="3.31531">
        <ele>122.22</ele>
        <time>2016-10-10T09:30:43Z</time>
      </trkpt>
      <trkpt lat="48.01213" lon="3.31524">
        <ele>122.71</ele>
        <time>2016-10-10T09:30:50Z</time>
      </trkpt>
      <trkpt lat="48.01221" lon="3.31513">
        <ele>122.71</ele>
        <time>2016-10-10T09:30:59Z</time>
      </trkpt>
      <trkpt lat="48.01228" lon="3.31505">
        <ele>124.15</ele>
        <time>2016-10-10T09:31:07Z</time>
      </trkpt>
      <trkpt lat="48.01233" lon="3.31498">
        <ele>124.63</ele>
        <time>2016-10-10T09:31:13Z</time>
      </trkpt>
      <trkpt lat="48.01236" lon="3.31496">
        <ele>124.15</ele>
        <time>2016-10-10T09:31:15Z</time>
      </trkpt>
      <trkpt lat="48.01243" lon="3.31492">
        <ele>122.71</ele>
        <time>2016-10-10T09:31:22Z</time>
      </trkpt>
      <trkpt lat="48.01245" lon="3.31492">
        <ele>122.22</ele>
        <time>2016-10-10T09:31:24Z</time>
      </trkpt>
      <trkpt lat="48.01254" lon="3.31484">
        <ele>120.78</ele>
        <time>2016-10-10T09:31:33Z</time>
      </trkpt>
      <trkpt lat="48.01261" lon="3.31479">
        <ele>120.78</ele>
        <time>2016-10-10T09:31:40Z</time>
      </trkpt>
      <trkpt lat="48.01267" lon="3.31472">
        <ele>121.26</ele>
        <time>2016-10-10T09:31:47Z</time>
      </trkpt>
      <trkpt lat="48.01274" lon="3.31466">
        <ele>121.26</ele>
        <time>2016-10-10T09:31:54Z</time>
      </trkpt>
      <trkpt lat="48.01281" lon="3.31462">
        <ele>120.78</ele>
        <time>2016-10-10T09:32:01Z</time>
      </trkpt>
      <trkpt lat="48.01288" lon="3.31458">
        <ele>121.26</ele>
        <time>2016-10-10T09:32:08Z</time>
      </trkpt>
      <trkpt lat="48.01295" lon="3.31449">
        <ele>122.71</ele>
        <time>2016-10-10T09:32:16Z</time>
      </trkpt>
      <trkpt lat="48.01303" lon="3.31441">
        <ele>123.67</ele>
        <time>2016-10-10T09:32:23Z</time>
      </trkpt>
      <trkpt lat="48.01309" lon="3.31438">
        <ele>123.19</ele>
        <time>2016-10-10T09:32:30Z</time>
      </trkpt>
      <trkpt lat="48.01316" lon="3.31433">
        <ele>123.19</ele>
        <time>2016-10-10T09:32:36Z</time>
      </trkpt>
      <trkpt lat="48.01324" lon="3.31428">
        <ele>122.71</ele>
        <time>2016-10-10T09:32:44Z</time>
      </trkpt>
      <trkpt lat="48.01332" lon="3.31423">
        <ele>124.63</ele>
        <time>2016-10-10T09:32:52Z</time>
      </trkpt>
      <trkpt lat="48.01339" lon="3.31419">
        <ele>125.59</ele>
        <time>2016-10-10T09:33:00Z</time>
      </trkpt>
      <trkpt lat="48.01349" lon="3.31422">
        <ele>125.59</ele>
        <time>2016-10-10T09:33:07Z</time>
      </trkpt>
      <trkpt lat="48.01358" lon="3.3142">
        <ele>126.07</ele>
        <time>2016-10-10T09:33:14Z</time>
      </trkpt>
      <trkpt lat="48.01366" lon="3.31418">
        <ele>128.47</ele>
        <time>2016-10-10T09:33:21Z</time>
      </trkpt>
      <trkpt lat="48.01376" lon="3.31414">
        <ele>130.88</ele>
        <time>2016-10-10T09:33:31Z</time>
      </trkpt>
      <trkpt lat="48.01383" lon="3.31413">
        <ele>131.84</ele>
        <time>2016-10-10T09:33:38Z</time>
      </trkpt>
      <trkpt lat="48.01391" lon="3.3141">
        <ele>133.76</ele>
        <time>2016-10-10T09:33:47Z</time>
      </trkpt>
      <trkpt lat="48.01397" lon="3.31408">
        <ele>134.72</ele>
        <time>2016-10-10T09:33:54Z</time>
      </trkpt>
      <trkpt lat="48.01405" lon="3.3141">
        <ele>135.2</ele>
        <time>2016-10-10T09:34:01Z</time>
      </trkpt>
      <trkpt lat="48.01413" lon="3.31408">
        <ele>135.2</ele>
        <time>2016-10-10T09:34:09Z</time>
      </trkpt>
      <trkpt lat="48.01423" lon="3.31399">
        <ele>136.16</ele>
        <time>2016-10-10T09:34:19Z</time>
      </trkpt>
      <trkpt lat="48.01432" lon="3.31396">
        <ele>135.2</ele>
        <time>2016-10-10T09:34:27Z</time>
      </trkpt>
      <trkpt lat="48.01438" lon="3.31394">
        <ele>134.24</ele>
        <time>2016-10-10T09:34:33Z</time>
      </trkpt>
      <trkpt lat="48.01446" lon="3.31389">
        <ele>134.24</ele>
        <time>2016-10-10T09:34:41Z</time>
      </trkpt>
      <trkpt lat="48.01452" lon="3.31384">
        <ele>134.72</ele>
        <time>2016-10-10T09:34:48Z</time>
      </trkpt>
      <trkpt lat="48.01455" lon="3.31382">
        <ele>134.72</ele>
        <time>2016-10-10T09:34:52Z</time>
      </trkpt>
      <trkpt lat="48.01459" lon="3.31378">
        <ele>133.76</ele>
        <time>2016-10-10T09:34:59Z</time>
      </trkpt>
      <trkpt lat="48.01465" lon="3.31371">
        <ele>132.8</ele>
        <time>2016-10-10T09:35:07Z</time>
      </trkpt>
      <trkpt lat="48.0147" lon="3.31365">
        <ele>132.32</ele>
        <time>2016-10-10T09:35:15Z</time>
      </trkpt>
      <trkpt lat="48.01477" lon="3.31362">
        <ele>131.36</ele>
        <time>2016-10-10T09:35:24Z</time>
      </trkpt>
      <trkpt lat="48.01479" lon="3.31361">
        <ele>130.88</ele>
        <time>2016-10-10T09:35:27Z</time>
      </trkpt>
      <trkpt lat="48.01485" lon="3.31361">
        <ele>129.92</ele>
        <time>2016-10-10T09:35:33Z</time>
      </trkpt>
      <trkpt lat="48.0149" lon="3.31371">
        <ele>126.55</ele>
        <time>2016-10-10T09:35:41Z</time>
      </trkpt>
      <trkpt lat="48.01494" lon="3.31379">
        <ele>123.19</ele>
        <time>2016-10-10T09:35:48Z</time>
      </trkpt>
      <trkpt lat="48.01496" lon="3.31388">
        <ele>119.82</ele>
        <time>2016-10-10T09:35:55Z</time>
      </trkpt>
      <trkpt lat="48.015" lon="3.31396">
        <ele>117.42</ele>
        <time>2016-10-10T09:36:02Z</time>
      </trkpt>
      <trkpt lat="48.01503" lon="3.31407">
        <ele>115.01</ele>
        <time>2016-10-10T09:36:09Z</time>
      </trkpt>
      <trkpt lat="48.01505" lon="3.31416">
        <ele>115.5</ele>
        <time>2016-10-10T09:36:16Z</time>
      </trkpt>
      <trkpt lat="48.01507" lon="3.31419">
        <ele>115.98</ele>
        <time>2016-10-10T09:36:28Z</time>
      </trkpt>
      <trkpt lat="48.0151" lon="3.31428">
        <ele>117.9</ele>
        <time>2016-10-10T09:36:44Z</time>
      </trkpt>
      <trkpt lat="48.0151" lon="3.31432">
        <ele>116.46</ele>
        <time>2016-10-10T09:37:03Z</time>
      </trkpt>
      <trkpt lat="48.01509" lon="3.31429">
        <ele>116.46</ele>
        <time>2016-10-10T09:37:17Z</time>
      </trkpt>
      <trkpt lat="48.01512" lon="3.31424">
        <ele>118.38</ele>
        <time>2016-10-10T09:37:27Z</time>
      </trkpt>
      <trkpt lat="48.01511" lon="3.31424">
        <ele>119.82</ele>
        <time>2016-10-10T09:37:41Z</time>
      </trkpt>
      <trkpt lat="48.01512" lon="3.31421">
        <ele>121.74</ele>
        <time>2016-10-10T09:37:54Z</time>
      </trkpt>
      <trkpt lat="48.01515" lon="3.31419">
        <ele>124.15</ele>
        <time>2016-10-10T09:38:03Z</time>
      </trkpt>
      <trkpt lat="48.01516" lon="3.31419">
        <ele>127.51</ele>
        <time>2016-10-10T09:38:17Z</time>
      </trkpt>
      <trkpt lat="48.01523" lon="3.31425">
        <ele>128.95</ele>
        <time>2016-10-10T09:38:25Z</time>
      </trkpt>
      <trkpt lat="48.01525" lon="3.31425">
        <ele>128.95</ele>
        <time>2016-10-10T09:38:32Z</time>
      </trkpt>
      <trkpt lat="48.01523" lon="3.31426">
        <ele>127.99</ele>
        <time>2016-10-10T09:38:43Z</time>
      </trkpt>
      <trkpt lat="48.01524" lon="3.31426">
        <ele>128.47</ele>
        <time>2016-10-10T09:38:46Z</time>
      </trkpt>
      <trkpt lat="48.01529" lon="3.31425">
        <ele>128.47</ele>
        <time>2016-10-10T09:38:52Z</time>
      </trkpt>
      <trkpt lat="48.01533" lon="3.31425">
        <ele>127.51</ele>
        <time>2016-10-10T09:38:56Z</time>
      </trkpt>
      <trkpt lat="48.01542" lon="3.31424">
        <ele>128.47</ele>
        <time>2016-10-10T09:39:05Z</time>
      </trkpt>
      <trkpt lat="48.01549" lon="3.31423">
        <ele>127.03</ele>
        <time>2016-10-10T09:39:12Z</time>
      </trkpt>
      <trkpt lat="48.01556" lon="3.31419">
        <ele>127.03</ele>
        <time>2016-10-10T09:39:20Z</time>
      </trkpt>
      <trkpt lat="48.01563" lon="3.31418">
        <ele>126.07</ele>
        <time>2016-10-10T09:39:27Z</time>
      </trkpt>
      <trkpt lat="48.01572" lon="3.31417">
        <ele>127.03</ele>
        <time>2016-10-10T09:39:35Z</time>
      </trkpt>
      <trkpt lat="48.01582" lon="3.31411">
        <ele>127.51</ele>
        <time>2016-10-10T09:39:45Z</time>
      </trkpt>
      <trkpt lat="48.0159" lon="3.31406">
        <ele>128.47</ele>
        <time>2016-10-10T09:39:53Z</time>
      </trkpt>
      <trkpt lat="48.01598" lon="3.314">
        <ele>128.95</ele>
        <time>2016-10-10T09:40:02Z</time>
      </trkpt>
      <trkpt lat="48.01602" lon="3.31399">
        <ele>129.43</ele>
        <time>2016-10-10T09:40:05Z</time>
      </trkpt>
      <trkpt lat="48.0161" lon="3.31394">
        <ele>129.43</ele>
        <time>2016-10-10T09:40:13Z</time>
      </trkpt>
      <trkpt lat="48.0162" lon="3.3139">
        <ele>129.92</ele>
        <time>2016-10-10T09:40:22Z</time>
      </trkpt>
      <trkpt lat="48.01627" lon="3.31386">
        <ele>129.43</ele>
        <time>2016-10-10T09:40:29Z</time>
      </trkpt>
      <trkpt lat="48.01635" lon="3.31382">
        <ele>129.43</ele>
        <time>2016-10-10T09:40:37Z</time>
      </trkpt>
      <trkpt lat="48.01639" lon="3.3138">
        <ele>128.47</ele>
        <time>2016-10-10T09:40:41Z</time>
      </trkpt>
      <trkpt lat="48.01648" lon="3.31375">
        <ele>129.92</ele>
        <time>2016-10-10T09:40:49Z</time>
      </trkpt>
      <trkpt lat="48.01655" lon="3.31371">
        <ele>130.4</ele>
        <time>2016-10-10T09:40:57Z</time>
      </trkpt>
      <trkpt lat="48.01663" lon="3.31367">
        <ele>130.88</ele>
        <time>2016-10-10T09:41:05Z</time>
      </trkpt>
      <trkpt lat="48.01664" lon="3.31367">
        <ele>130.88</ele>
        <time>2016-10-10T09:41:06Z</time>
      </trkpt>
      <trkpt lat="48.01674" lon="3.31361">
        <ele>132.8</ele>
        <time>2016-10-10T09:41:16Z</time>
      </trkpt>
      <trkpt lat="48.01682" lon="3.31358">
        <ele>132.32</ele>
        <time>2016-10-10T09:41:24Z</time>
      </trkpt>
      <trkpt lat="48.01691" lon="3.31356">
        <ele>133.28</ele>
        <time>2016-10-10T09:41:31Z</time>
      </trkpt>
      <trkpt lat="48.017" lon="3.31358">
        <ele>132.32</ele>
        <time>2016-10-10T09:41:39Z</time>
      </trkpt>
      <trkpt lat="48.01709" lon="3.31358">
        <ele>132.8</ele>
        <time>2016-10-10T09:41:48Z</time>
      </trkpt>
      <trkpt lat="48.01716" lon="3.31361">
        <ele>133.28</ele>
        <time>2016-10-10T09:41:55Z</time>
      </trkpt>
      <trkpt lat="48.01724" lon="3.31364">
        <ele>133.76</ele>
        <time>2016-10-10T09:42:03Z</time>
      </trkpt>
      <trkpt lat="48.01733" lon="3.31369">
        <ele>133.76</ele>
        <time>2016-10-10T09:42:12Z</time>
      </trkpt>
      <trkpt lat="48.01739" lon="3.31373">
        <ele>133.76</ele>
        <time>2016-10-10T09:42:19Z</time>
      </trkpt>
      <trkpt lat="48.01746" lon="3.31378">
        <ele>133.76</ele>
        <time>2016-10-10T09:42:25Z</time>
      </trkpt>
      <trkpt lat="48.01752" lon="3.31383">
        <ele>134.24</ele>
        <time>2016-10-10T09:42:32Z</time>
      </trkpt>
      <trkpt lat="48.01758" lon="3.31388">
        <ele>134.24</ele>
        <time>2016-10-10T09:42:39Z</time>
      </trkpt>
      <trkpt lat="48.01767" lon="3.31395">
        <ele>135.2</ele>
        <time>2016-10-10T09:42:48Z</time>
      </trkpt>
      <trkpt lat="48.01773" lon="3.314">
        <ele>135.68</ele>
        <time>2016-10-10T09:42:55Z</time>
      </trkpt>
      <trkpt lat="48.0178" lon="3.31404">
        <ele>135.2</ele>
        <time>2016-10-10T09:43:02Z</time>
      </trkpt>
      <trkpt lat="48.01788" lon="3.3141">
        <ele>134.72</ele>
        <time>2016-10-10T09:43:10Z</time>
      </trkpt>
      <trkpt lat="48.01797" lon="3.31416">
        <ele>134.72</ele>
        <time>2016-10-10T09:43:19Z</time>
      </trkpt>
      <trkpt lat="48.01804" lon="3.31423">
        <ele>134.72</ele>
        <time>2016-10-10T09:43:26Z</time>
      </trkpt>
      <trkpt lat="48.0181" lon="3.31429">
        <ele>134.24</ele>
        <time>2016-10-10T09:43:33Z</time>
      </trkpt>
      <trkpt lat="48.01818" lon="3.31437">
        <ele>134.72</ele>
        <time>2016-10-10T09:43:41Z</time>
      </trkpt>
      <trkpt lat="48.01825" lon="3.31445">
        <ele>135.68</ele>
        <time>2016-10-10T09:43:49Z</time>
      </trkpt>
      <trkpt lat="48.01831" lon="3.31451">
        <ele>135.2</ele>
        <time>2016-10-10T09:43:57Z</time>
      </trkpt>
      <trkpt lat="48.0184" lon="3.3146">
        <ele>133.76</ele>
        <time>2016-10-10T09:44:07Z</time>
      </trkpt>
      <trkpt lat="48.01845" lon="3.31467">
        <ele>133.28</ele>
        <time>2016-10-10T09:44:15Z</time>
      </trkpt>
      <trkpt lat="48.01853" lon="3.31475">
        <ele>130.88</ele>
        <time>2016-10-10T09:44:25Z</time>
      </trkpt>
      <trkpt lat="48.01861" lon="3.31483">
        <ele>130.4</ele>
        <time>2016-10-10T09:44:34Z</time>
      </trkpt>
      <trkpt lat="48.01871" lon="3.31492">
        <ele>129.92</ele>
        <time>2016-10-10T09:44:44Z</time>
      </trkpt>
      <trkpt lat="48.01881" lon="3.31501">
        <ele>130.88</ele>
        <time>2016-10-10T09:44:52Z</time>
      </trkpt>
      <trkpt lat="48.01888" lon="3.31508">
        <ele>131.84</ele>
        <time>2016-10-10T09:44:59Z</time>
      </trkpt>
      <trkpt lat="48.01896" lon="3.31514">
        <ele>131.84</ele>
        <time>2016-10-10T09:45:06Z</time>
      </trkpt>
      <trkpt lat="48.01899" lon="3.31518">
        <ele>132.8</ele>
        <time>2016-10-10T09:45:09Z</time>
      </trkpt>
      <trkpt lat="48.01909" lon="3.31527">
        <ele>132.8</ele>
        <time>2016-10-10T09:45:19Z</time>
      </trkpt>
      <trkpt lat="48.01915" lon="3.31536">
        <ele>132.32</ele>
        <time>2016-10-10T09:45:27Z</time>
      </trkpt>
      <trkpt lat="48.0192" lon="3.31545">
        <ele>130.88</ele>
        <time>2016-10-10T09:45:35Z</time>
      </trkpt>
      <trkpt lat="48.01926" lon="3.31557">
        <ele>129.43</ele>
        <time>2016-10-10T09:45:45Z</time>
      </trkpt>
      <trkpt lat="48.01933" lon="3.3157">
        <ele>128.47</ele>
        <time>2016-10-10T09:45:54Z</time>
      </trkpt>
      <trkpt lat="48.01938" lon="3.31581">
        <ele>128.95</ele>
        <time>2016-10-10T09:46:02Z</time>
      </trkpt>
      <trkpt lat="48.01946" lon="3.31597">
        <ele>128.47</ele>
        <time>2016-10-10T09:46:13Z</time>
      </trkpt>
      <trkpt lat="48.01949" lon="3.31606">
        <ele>128.47</ele>
        <time>2016-10-10T09:46:19Z</time>
      </trkpt>
      <trkpt lat="48.01953" lon="3.31617">
        <ele>127.51</ele>
        <time>2016-10-10T09:46:27Z</time>
      </trkpt>
      <trkpt lat="48.01957" lon="3.31626">
        <ele>127.03</ele>
        <time>2016-10-10T09:46:34Z</time>
      </trkpt>
      <trkpt lat="48.01963" lon="3.31633">
        <ele>127.51</ele>
        <time>2016-10-10T09:46:42Z</time>
      </trkpt>
      <trkpt lat="48.0197" lon="3.31637">
        <ele>127.51</ele>
        <time>2016-10-10T09:46:48Z</time>
      </trkpt>
      <trkpt lat="48.01977" lon="3.31636">
        <ele>127.51</ele>
        <time>2016-10-10T09:46:56Z</time>
      </trkpt>
      <trkpt lat="48.01985" lon="3.31634">
        <ele>127.03</ele>
        <time>2016-10-10T09:47:04Z</time>
      </trkpt>
      <trkpt lat="48.01992" lon="3.31631">
        <ele>126.07</ele>
        <time>2016-10-10T09:47:12Z</time>
      </trkpt>
      <trkpt lat="48.01999" lon="3.31628">
        <ele>125.11</ele>
        <time>2016-10-10T09:47:19Z</time>
      </trkpt>
      <trkpt lat="48.02006" lon="3.31625">
        <ele>123.19</ele>
        <time>2016-10-10T09:47:27Z</time>
      </trkpt>
      <trkpt lat="48.02015" lon="3.31621">
        <ele>121.74</ele>
        <time>2016-10-10T09:47:35Z</time>
      </trkpt>
      <trkpt lat="48.02026" lon="3.31616">
        <ele>119.82</ele>
        <time>2016-10-10T09:47:45Z</time>
      </trkpt>
      <trkpt lat="48.02034" lon="3.31612">
        <ele>118.86</ele>
        <time>2016-10-10T09:47:53Z</time>
      </trkpt>
      <trkpt lat="48.02044" lon="3.31606">
        <ele>117.42</ele>
        <time>2016-10-10T09:48:02Z</time>
      </trkpt>
      <trkpt lat="48.02053" lon="3.316">
        <ele>116.46</ele>
        <time>2016-10-10T09:48:11Z</time>
      </trkpt>
      <trkpt lat="48.0206" lon="3.31595">
        <ele>115.5</ele>
        <time>2016-10-10T09:48:19Z</time>
      </trkpt>
      <trkpt lat="48.02069" lon="3.31588">
        <ele>113.09</ele>
        <time>2016-10-10T09:48:28Z</time>
      </trkpt>
      <trkpt lat="48.02079" lon="3.31581">
        <ele>112.13</ele>
        <time>2016-10-10T09:48:37Z</time>
      </trkpt>
      <trkpt lat="48.02089" lon="3.31576">
        <ele>110.69</ele>
        <time>2016-10-10T09:48:46Z</time>
      </trkpt>
      <trkpt lat="48.02094" lon="3.31573">
        <ele>109.25</ele>
        <time>2016-10-10T09:48:52Z</time>
      </trkpt>
      <trkpt lat="48.02105" lon="3.31567">
        <ele>108.77</ele>
        <time>2016-10-10T09:49:02Z</time>
      </trkpt>
      <trkpt lat="48.02114" lon="3.31561">
        <ele>108.29</ele>
        <time>2016-10-10T09:49:11Z</time>
      </trkpt>
      <trkpt lat="48.02123" lon="3.31555">
        <ele>106.84</ele>
        <time>2016-10-10T09:49:19Z</time>
      </trkpt>
      <trkpt lat="48.02128" lon="3.3155">
        <ele>105.88</ele>
        <time>2016-10-10T09:49:26Z</time>
      </trkpt>
      <trkpt lat="48.02136" lon="3.31545">
        <ele>104.44</ele>
        <time>2016-10-10T09:49:34Z</time>
      </trkpt>
      <trkpt lat="48.02139" lon="3.31542">
        <ele>103.96</ele>
        <time>2016-10-10T09:49:37Z</time>
      </trkpt>
      <trkpt lat="48.02148" lon="3.31534">
        <ele>103</ele>
        <time>2016-10-10T09:49:46Z</time>
      </trkpt>
      <trkpt lat="48.02155" lon="3.3153">
        <ele>101.56</ele>
        <time>2016-10-10T09:49:53Z</time>
      </trkpt>
      <trkpt lat="48.02165" lon="3.31524">
        <ele>101.56</ele>
        <time>2016-10-10T09:50:01Z</time>
      </trkpt>
      <trkpt lat="48.02172" lon="3.31518">
        <ele>101.08</ele>
        <time>2016-10-10T09:50:09Z</time>
      </trkpt>
      <trkpt lat="48.0218" lon="3.31511">
        <ele>101.08</ele>
        <time>2016-10-10T09:50:17Z</time>
      </trkpt>
      <trkpt lat="48.02184" lon="3.31506">
        <ele>100.6</ele>
        <time>2016-10-10T09:50:22Z</time>
      </trkpt>
      <trkpt lat="48.02193" lon="3.31498">
        <ele>99.63</ele>
        <time>2016-10-10T09:50:31Z</time>
      </trkpt>
      <trkpt lat="48.02202" lon="3.31488">
        <ele>99.63</ele>
        <time>2016-10-10T09:50:41Z</time>
      </trkpt>
      <trkpt lat="48.02204" lon="3.31486">
        <ele>99.63</ele>
        <time>2016-10-10T09:50:43Z</time>
      </trkpt>
      <trkpt lat="48.02212" lon="3.31475">
        <ele>100.11</ele>
        <time>2016-10-10T09:50:52Z</time>
      </trkpt>
      <trkpt lat="48.02219" lon="3.31465">
        <ele>99.63</ele>
        <time>2016-10-10T09:51:02Z</time>
      </trkpt>
      <trkpt lat="48.02226" lon="3.31455">
        <ele>99.15</ele>
        <time>2016-10-10T09:51:10Z</time>
      </trkpt>
      <trkpt lat="48.02233" lon="3.31443">
        <ele>99.15</ele>
        <time>2016-10-10T09:51:19Z</time>
      </trkpt>
      <trkpt lat="48.02238" lon="3.31435">
        <ele>97.71</ele>
        <time>2016-10-10T09:51:27Z</time>
      </trkpt>
      <trkpt lat="48.02243" lon="3.31426">
        <ele>97.71</ele>
        <time>2016-10-10T09:51:34Z</time>
      </trkpt>
      <trkpt lat="48.02245" lon="3.31424">
        <ele>97.23</ele>
        <time>2016-10-10T09:51:36Z</time>
      </trkpt>
      <trkpt lat="48.0225" lon="3.31423">
        <ele>97.23</ele>
        <time>2016-10-10T09:51:39Z</time>
      </trkpt>
      <trkpt lat="48.0226" lon="3.31429">
        <ele>97.23</ele>
        <time>2016-10-10T09:51:47Z</time>
      </trkpt>
      <trkpt lat="48.02269" lon="3.31438">
        <ele>96.75</ele>
        <time>2016-10-10T09:51:56Z</time>
      </trkpt>
      <trkpt lat="48.02278" lon="3.31448">
        <ele>97.23</ele>
        <time>2016-10-10T09:52:05Z</time>
      </trkpt>
      <trkpt lat="48.02285" lon="3.31456">
        <ele>96.75</ele>
        <time>2016-10-10T09:52:13Z</time>
      </trkpt>
      <trkpt lat="48.02292" lon="3.31464">
        <ele>96.75</ele>
        <time>2016-10-10T09:52:20Z</time>
      </trkpt>
      <trkpt lat="48.02299" lon="3.31472">
        <ele>96.75</ele>
        <time>2016-10-10T09:52:28Z</time>
      </trkpt>
      <trkpt lat="48.02309" lon="3.31482">
        <ele>96.27</ele>
        <time>2016-10-10T09:52:37Z</time>
      </trkpt>
      <trkpt lat="48.02315" lon="3.31488">
        <ele>95.31</ele>
        <time>2016-10-10T09:52:44Z</time>
      </trkpt>
      <trkpt lat="48.0232" lon="3.31494">
        <ele>95.31</ele>
        <time>2016-10-10T09:52:51Z</time>
      </trkpt>
      <trkpt lat="48.02327" lon="3.31501">
        <ele>95.31</ele>
        <time>2016-10-10T09:52:59Z</time>
      </trkpt>
      <trkpt lat="48.02335" lon="3.31506">
        <ele>94.83</ele>
        <time>2016-10-10T09:53:07Z</time>
      </trkpt>
      <trkpt lat="48.02335" lon="3.31507">
        <ele>94.35</ele>
        <time>2016-10-10T09:53:14Z</time>
      </trkpt>
      <trkpt lat="48.02339" lon="3.31507">
        <ele>94.35</ele>
        <time>2016-10-10T09:53:20Z</time>
      </trkpt>
      <trkpt lat="48.02342" lon="3.31508">
        <ele>94.83</ele>
        <time>2016-10-10T09:53:27Z</time>
      </trkpt>
      <trkpt lat="48.02341" lon="3.31508">
        <ele>94.35</ele>
        <time>2016-10-10T09:53:37Z</time>
      </trkpt>
      <trkpt lat="48.02342" lon="3.31505">
        <ele>93.39</ele>
        <time>2016-10-10T09:53:45Z</time>
      </trkpt>
      <trkpt lat="48.02342" lon="3.31504">
        <ele>92.9</ele>
        <time>2016-10-10T09:53:50Z</time>
      </trkpt>
      <trkpt lat="48.0235" lon="3.31498">
        <ele>91.94</ele>
        <time>2016-10-10T09:53:59Z</time>
      </trkpt>
      <trkpt lat="48.02355" lon="3.31495">
        <ele>91.94</ele>
        <time>2016-10-10T09:54:08Z</time>
      </trkpt>
      <trkpt lat="48.02356" lon="3.31489">
        <ele>92.42</ele>
        <time>2016-10-10T09:54:15Z</time>
      </trkpt>
      <trkpt lat="48.02357" lon="3.31479">
        <ele>91.46</ele>
        <time>2016-10-10T09:54:24Z</time>
      </trkpt>
      <trkpt lat="48.02357" lon="3.31469">
        <ele>90.5</ele>
        <time>2016-10-10T09:54:32Z</time>
      </trkpt>
      <trkpt lat="48.02357" lon="3.31457">
        <ele>89.54</ele>
        <time>2016-10-10T09:54:41Z</time>
      </trkpt>
      <trkpt lat="48.0236" lon="3.31448">
        <ele>89.06</ele>
        <time>2016-10-10T09:54:48Z</time>
      </trkpt>
      <trkpt lat="48.02365" lon="3.31438">
        <ele>89.54</ele>
        <time>2016-10-10T09:54:55Z</time>
      </trkpt>
      <trkpt lat="48.02372" lon="3.31426">
        <ele>89.54</ele>
        <time>2016-10-10T09:55:05Z</time>
      </trkpt>
      <trkpt lat="48.02373" lon="3.31422">
        <ele>89.06</ele>
        <time>2016-10-10T09:55:08Z</time>
      </trkpt>
      <trkpt lat="48.02376" lon="3.31416">
        <ele>88.58</ele>
        <time>2016-10-10T09:55:13Z</time>
      </trkpt>
      <trkpt lat="48.02373" lon="3.3141">
        <ele>90.02</ele>
        <time>2016-10-10T09:55:19Z</time>
      </trkpt>
      <trkpt lat="48.02367" lon="3.31404">
        <ele>89.06</ele>
        <time>2016-10-10T09:55:26Z</time>
      </trkpt>
      <trkpt lat="48.02363" lon="3.31403">
        <ele>88.58</ele>
        <time>2016-10-10T09:55:31Z</time>
      </trkpt>
      <trkpt lat="48.02364" lon="3.31396">
        <ele>90.5</ele>
        <time>2016-10-10T09:55:37Z</time>
      </trkpt>
      <trkpt lat="48.02372" lon="3.31382">
        <ele>92.9</ele>
        <time>2016-10-10T09:55:46Z</time>
      </trkpt>
      <trkpt lat="48.02376" lon="3.31373">
        <ele>92.9</ele>
        <time>2016-10-10T09:55:53Z</time>
      </trkpt>
      <trkpt lat="48.0238" lon="3.31367">
        <ele>93.39</ele>
        <time>2016-10-10T09:56:00Z</time>
      </trkpt>
      <trkpt lat="48.02383" lon="3.31362">
        <ele>92.9</ele>
        <time>2016-10-10T09:56:04Z</time>
      </trkpt>
      <trkpt lat="48.02386" lon="3.31355">
        <ele>91.94</ele>
        <time>2016-10-10T09:56:11Z</time>
      </trkpt>
      <trkpt lat="48.02388" lon="3.31347">
        <ele>90.5</ele>
        <time>2016-10-10T09:56:18Z</time>
      </trkpt>
      <trkpt lat="48.02393" lon="3.31337">
        <ele>88.58</ele>
        <time>2016-10-10T09:56:26Z</time>
      </trkpt>
      <trkpt lat="48.02398" lon="3.31332">
        <ele>87.14</ele>
        <time>2016-10-10T09:56:31Z</time>
      </trkpt>
      <trkpt lat="48.02401" lon="3.31324">
        <ele>86.18</ele>
        <time>2016-10-10T09:56:37Z</time>
      </trkpt>
      <trkpt lat="48.02403" lon="3.31313">
        <ele>83.77</ele>
        <time>2016-10-10T09:56:45Z</time>
      </trkpt>
      <trkpt lat="48.02407" lon="3.31303">
        <ele>82.81</ele>
        <time>2016-10-10T09:56:52Z</time>
      </trkpt>
      <trkpt lat="48.02412" lon="3.31291">
        <ele>81.85</ele>
        <time>2016-10-10T09:57:00Z</time>
      </trkpt>
      <trkpt lat="48.02416" lon="3.31281">
        <ele>78.48</ele>
        <time>2016-10-10T09:57:09Z</time>
      </trkpt>
      <trkpt lat="48.02419" lon="3.31271">
        <ele>77.04</ele>
        <time>2016-10-10T09:57:16Z</time>
      </trkpt>
      <trkpt lat="48.0242" lon="3.31268">
        <ele>76.56</ele>
        <time>2016-10-10T09:57:18Z</time>
      </trkpt>
      <trkpt lat="48.02422" lon="3.31264">
        <ele>74.64</ele>
        <time>2016-10-10T09:57:22Z</time>
      </trkpt>
      <trkpt lat="48.02426" lon="3.31257">
        <ele>73.68</ele>
        <time>2016-10-10T09:57:28Z</time>
      </trkpt>
      <trkpt lat="48.02428" lon="3.31249">
        <ele>73.2</ele>
        <time>2016-10-10T09:57:34Z</time>
      </trkpt>
      <trkpt lat="48.02431" lon="3.31237">
        <ele>72.72</ele>
        <time>2016-10-10T09:57:42Z</time>
      </trkpt>
      <trkpt lat="48.02434" lon="3.31225">
        <ele>72.24</ele>
        <time>2016-10-10T09:57:50Z</time>
      </trkpt>
      <trkpt lat="48.02437" lon="3.31212">
        <ele>72.24</ele>
        <time>2016-10-10T09:57:58Z</time>
      </trkpt>
      <trkpt lat="48.02441" lon="3.312">
        <ele>71.76</ele>
        <time>2016-10-10T09:58:05Z</time>
      </trkpt>
      <trkpt lat="48.02448" lon="3.31195">
        <ele>71.76</ele>
        <time>2016-10-10T09:58:13Z</time>
      </trkpt>
      <trkpt lat="48.02449" lon="3.31194">
        <ele>71.76</ele>
        <time>2016-10-10T09:58:14Z</time>
      </trkpt>
      <trkpt lat="48.02452" lon="3.3119">
        <ele>70.79</ele>
        <time>2016-10-10T09:58:20Z</time>
      </trkpt>
      <trkpt lat="48.02456" lon="3.3118">
        <ele>68.39</ele>
        <time>2016-10-10T09:58:29Z</time>
      </trkpt>
      <trkpt lat="48.0246" lon="3.31173">
        <ele>67.91</ele>
        <time>2016-10-10T09:58:36Z</time>
      </trkpt>
      <trkpt lat="48.02465" lon="3.31163">
        <ele>68.39</ele>
        <time>2016-10-10T09:58:44Z</time>
      </trkpt>
      <trkpt lat="48.02469" lon="3.31155">
        <ele>68.87</ele>
        <time>2016-10-10T09:58:51Z</time>
      </trkpt>
      <trkpt lat="48.02472" lon="3.31144">
        <ele>69.83</ele>
        <time>2016-10-10T09:58:58Z</time>
      </trkpt>
      <trkpt lat="48.02477" lon="3.31136">
        <ele>69.83</ele>
        <time>2016-10-10T09:59:05Z</time>
      </trkpt>
      <trkpt lat="48.0248" lon="3.31132">
        <ele>69.83</ele>
        <time>2016-10-10T09:59:09Z</time>
      </trkpt>
      <trkpt lat="48.02483" lon="3.31128">
        <ele>69.35</ele>
        <time>2016-10-10T09:59:13Z</time>
      </trkpt>
      <trkpt lat="48.02494" lon="3.31126">
        <ele>69.35</ele>
        <time>2016-10-10T09:59:22Z</time>
      </trkpt>
      <trkpt lat="48.02502" lon="3.31126">
        <ele>71.27</ele>
        <time>2016-10-10T09:59:30Z</time>
      </trkpt>
      <trkpt lat="48.0251" lon="3.31125">
        <ele>72.72</ele>
        <time>2016-10-10T09:59:37Z</time>
      </trkpt>
      <trkpt lat="48.02519" lon="3.31128">
        <ele>71.76</ele>
        <time>2016-10-10T09:59:44Z</time>
      </trkpt>
      <trkpt lat="48.02529" lon="3.31131">
        <ele>73.2</ele>
        <time>2016-10-10T09:59:52Z</time>
      </trkpt>
      <trkpt lat="48.02539" lon="3.31134">
        <ele>74.64</ele>
        <time>2016-10-10T10:00:01Z</time>
      </trkpt>
      <trkpt lat="48.0254" lon="3.31135">
        <ele>75.12</ele>
        <time>2016-10-10T10:00:02Z</time>
      </trkpt>
      <trkpt lat="48.02544" lon="3.31141">
        <ele>75.12</ele>
        <time>2016-10-10T10:00:07Z</time>
      </trkpt>
      <trkpt lat="48.02547" lon="3.31146">
        <ele>74.64</ele>
        <time>2016-10-10T10:00:11Z</time>
      </trkpt>
      <trkpt lat="48.02555" lon="3.31152">
        <ele>75.12</ele>
        <time>2016-10-10T10:00:19Z</time>
      </trkpt>
      <trkpt lat="48.02562" lon="3.31159">
        <ele>73.68</ele>
        <time>2016-10-10T10:00:26Z</time>
      </trkpt>
      <trkpt lat="48.02569" lon="3.31166">
        <ele>73.68</ele>
        <time>2016-10-10T10:00:34Z</time>
      </trkpt>
      <trkpt lat="48.02578" lon="3.31173">
        <ele>73.2</ele>
        <time>2016-10-10T10:00:42Z</time>
      </trkpt>
      <trkpt lat="48.02584" lon="3.3118">
        <ele>73.2</ele>
        <time>2016-10-10T10:00:49Z</time>
      </trkpt>
      <trkpt lat="48.0259" lon="3.31189">
        <ele>71.27</ele>
        <time>2016-10-10T10:00:56Z</time>
      </trkpt>
      <trkpt lat="48.02595" lon="3.31197">
        <ele>72.24</ele>
        <time>2016-10-10T10:01:03Z</time>
      </trkpt>
      <trkpt lat="48.026" lon="3.31205">
        <ele>72.24</ele>
        <time>2016-10-10T10:01:10Z</time>
      </trkpt>
      <trkpt lat="48.02606" lon="3.31215">
        <ele>71.76</ele>
        <time>2016-10-10T10:01:18Z</time>
      </trkpt>
      <trkpt lat="48.02612" lon="3.31225">
        <ele>72.72</ele>
        <time>2016-10-10T10:01:25Z</time>
      </trkpt>
      <trkpt lat="48.02619" lon="3.31236">
        <ele>72.72</ele>
        <time>2016-10-10T10:01:33Z</time>
      </trkpt>
      <trkpt lat="48.02626" lon="3.31247">
        <ele>73.2</ele>
        <time>2016-10-10T10:01:42Z</time>
      </trkpt>
      <trkpt lat="48.02632" lon="3.31256">
        <ele>72.72</ele>
        <time>2016-10-10T10:01:49Z</time>
      </trkpt>
      <trkpt lat="48.02638" lon="3.31265">
        <ele>72.24</ele>
        <time>2016-10-10T10:01:57Z</time>
      </trkpt>
      <trkpt lat="48.02644" lon="3.31274">
        <ele>72.24</ele>
        <time>2016-10-10T10:02:04Z</time>
      </trkpt>
      <trkpt lat="48.02652" lon="3.31285">
        <ele>72.24</ele>
        <time>2016-10-10T10:02:13Z</time>
      </trkpt>
      <trkpt lat="48.0266" lon="3.31295">
        <ele>73.2</ele>
        <time>2016-10-10T10:02:21Z</time>
      </trkpt>
      <trkpt lat="48.02667" lon="3.31306">
        <ele>72.72</ele>
        <time>2016-10-10T10:02:29Z</time>
      </trkpt>
      <trkpt lat="48.02672" lon="3.31317">
        <ele>73.2</ele>
        <time>2016-10-10T10:02:37Z</time>
      </trkpt>
      <trkpt lat="48.02675" lon="3.31321">
        <ele>73.2</ele>
        <time>2016-10-10T10:02:42Z</time>
      </trkpt>
      <trkpt lat="48.0268" lon="3.3133">
        <ele>73.2</ele>
        <time>2016-10-10T10:02:49Z</time>
      </trkpt>
      <trkpt lat="48.02685" lon="3.31339">
        <ele>73.2</ele>
        <time>2016-10-10T10:02:55Z</time>
      </trkpt>
      <trkpt lat="48.02688" lon="3.31343">
        <ele>72.24</ele>
        <time>2016-10-10T10:03:00Z</time>
      </trkpt>
      <trkpt lat="48.02691" lon="3.31346">
        <ele>72.24</ele>
        <time>2016-10-10T10:03:03Z</time>
      </trkpt>
      <trkpt lat="48.02697" lon="3.31355">
        <ele>72.24</ele>
        <time>2016-10-10T10:03:10Z</time>
      </trkpt>
      <trkpt lat="48.02705" lon="3.31365">
        <ele>73.2</ele>
        <time>2016-10-10T10:03:18Z</time>
      </trkpt>
      <trkpt lat="48.02711" lon="3.31377">
        <ele>72.72</ele>
        <time>2016-10-10T10:03:26Z</time>
      </trkpt>
      <trkpt lat="48.02719" lon="3.31388">
        <ele>71.76</ele>
        <time>2016-10-10T10:03:35Z</time>
      </trkpt>
      <trkpt lat="48.02723" lon="3.31395">
        <ele>71.76</ele>
        <time>2016-10-10T10:03:41Z</time>
      </trkpt>
      <trkpt lat="48.0273" lon="3.31405">
        <ele>71.76</ele>
        <time>2016-10-10T10:03:49Z</time>
      </trkpt>
      <trkpt lat="48.02734" lon="3.31409">
        <ele>71.27</ele>
        <time>2016-10-10T10:03:54Z</time>
      </trkpt>
      <trkpt lat="48.0274" lon="3.3142">
        <ele>71.27</ele>
        <time>2016-10-10T10:04:02Z</time>
      </trkpt>
      <trkpt lat="48.02747" lon="3.31431">
        <ele>72.72</ele>
        <time>2016-10-10T10:04:11Z</time>
      </trkpt>
      <trkpt lat="48.02753" lon="3.31442">
        <ele>73.2</ele>
        <time>2016-10-10T10:04:19Z</time>
      </trkpt>
      <trkpt lat="48.02755" lon="3.31444">
        <ele>73.68</ele>
        <time>2016-10-10T10:04:21Z</time>
      </trkpt>
      <trkpt lat="48.02762" lon="3.31456">
        <ele>74.64</ele>
        <time>2016-10-10T10:04:30Z</time>
      </trkpt>
      <trkpt lat="48.02768" lon="3.31467">
        <ele>73.68</ele>
        <time>2016-10-10T10:04:38Z</time>
      </trkpt>
      <trkpt lat="48.02772" lon="3.31474">
        <ele>74.16</ele>
        <time>2016-10-10T10:04:43Z</time>
      </trkpt>
      <trkpt lat="48.02777" lon="3.31483">
        <ele>73.2</ele>
        <time>2016-10-10T10:04:51Z</time>
      </trkpt>
      <trkpt lat="48.02782" lon="3.31493">
        <ele>72.72</ele>
        <time>2016-10-10T10:05:00Z</time>
      </trkpt>
      <trkpt lat="48.02788" lon="3.31499">
        <ele>73.68</ele>
        <time>2016-10-10T10:05:07Z</time>
      </trkpt>
      <trkpt lat="48.02796" lon="3.31509">
        <ele>74.64</ele>
        <time>2016-10-10T10:05:15Z</time>
      </trkpt>
      <trkpt lat="48.028" lon="3.31515">
        <ele>75.6</ele>
        <time>2016-10-10T10:05:20Z</time>
      </trkpt>
      <trkpt lat="48.02806" lon="3.31525">
        <ele>74.64</ele>
        <time>2016-10-10T10:05:27Z</time>
      </trkpt>
      <trkpt lat="48.02808" lon="3.31531">
        <ele>74.64</ele>
        <time>2016-10-10T10:05:31Z</time>
      </trkpt>
      <trkpt lat="48.02812" lon="3.31535">
        <ele>75.6</ele>
        <time>2016-10-10T10:05:35Z</time>
      </trkpt>
      <trkpt lat="48.02818" lon="3.31547">
        <ele>76.56</ele>
        <time>2016-10-10T10:05:43Z</time>
      </trkpt>
      <trkpt lat="48.02824" lon="3.31556">
        <ele>76.56</ele>
        <time>2016-10-10T10:05:50Z</time>
      </trkpt>
      <trkpt lat="48.0283" lon="3.31565">
        <ele>75.12</ele>
        <time>2016-10-10T10:05:57Z</time>
      </trkpt>
      <trkpt lat="48.02836" lon="3.31575">
        <ele>74.16</ele>
        <time>2016-10-10T10:06:05Z</time>
      </trkpt>
      <trkpt lat="48.02841" lon="3.31583">
        <ele>74.64</ele>
        <time>2016-10-10T10:06:11Z</time>
      </trkpt>
      <trkpt lat="48.02847" lon="3.31595">
        <ele>73.68</ele>
        <time>2016-10-10T10:06:19Z</time>
      </trkpt>
      <trkpt lat="48.02853" lon="3.31604">
        <ele>73.68</ele>
        <time>2016-10-10T10:06:26Z</time>
      </trkpt>
      <trkpt lat="48.02858" lon="3.31612">
        <ele>72.72</ele>
        <time>2016-10-10T10:06:34Z</time>
      </trkpt>
      <trkpt lat="48.02864" lon="3.31622">
        <ele>73.68</ele>
        <time>2016-10-10T10:06:43Z</time>
      </trkpt>
      <trkpt lat="48.02869" lon="3.3163">
        <ele>74.16</ele>
        <time>2016-10-10T10:06:50Z</time>
      </trkpt>
      <trkpt lat="48.02875" lon="3.31639">
        <ele>75.12</ele>
        <time>2016-10-10T10:06:58Z</time>
      </trkpt>
      <trkpt lat="48.02879" lon="3.31644">
        <ele>74.64</ele>
        <time>2016-10-10T10:07:03Z</time>
      </trkpt>
      <trkpt lat="48.02881" lon="3.31647">
        <ele>74.16</ele>
        <time>2016-10-10T10:07:05Z</time>
      </trkpt>
      <trkpt lat="48.02887" lon="3.31656">
        <ele>73.2</ele>
        <time>2016-10-10T10:07:13Z</time>
      </trkpt>
      <trkpt lat="48.02891" lon="3.31666">
        <ele>73.2</ele>
        <time>2016-10-10T10:07:20Z</time>
      </trkpt>
      <trkpt lat="48.02897" lon="3.31676">
        <ele>73.68</ele>
        <time>2016-10-10T10:07:28Z</time>
      </trkpt>
      <trkpt lat="48.02901" lon="3.31682">
        <ele>74.16</ele>
        <time>2016-10-10T10:07:34Z</time>
      </trkpt>
      <trkpt lat="48.02909" lon="3.31693">
        <ele>71.76</ele>
        <time>2016-10-10T10:07:43Z</time>
      </trkpt>
      <trkpt lat="48.02915" lon="3.31701">
        <ele>72.24</ele>
        <time>2016-10-10T10:07:50Z</time>
      </trkpt>
      <trkpt lat="48.02922" lon="3.31713">
        <ele>71.27</ele>
        <time>2016-10-10T10:07:59Z</time>
      </trkpt>
      <trkpt lat="48.02928" lon="3.31724">
        <ele>69.83</ele>
        <time>2016-10-10T10:08:08Z</time>
      </trkpt>
      <trkpt lat="48.02936" lon="3.31732">
        <ele>69.35</ele>
        <time>2016-10-10T10:08:17Z</time>
      </trkpt>
      <trkpt lat="48.02946" lon="3.31741">
        <ele>70.31</ele>
        <time>2016-10-10T10:08:27Z</time>
      </trkpt>
      <trkpt lat="48.02951" lon="3.31749">
        <ele>68.39</ele>
        <time>2016-10-10T10:08:35Z</time>
      </trkpt>
      <trkpt lat="48.02958" lon="3.31756">
        <ele>69.35</ele>
        <time>2016-10-10T10:08:43Z</time>
      </trkpt>
      <trkpt lat="48.02965" lon="3.31763">
        <ele>70.79</ele>
        <time>2016-10-10T10:08:50Z</time>
      </trkpt>
      <trkpt lat="48.02973" lon="3.31771">
        <ele>70.79</ele>
        <time>2016-10-10T10:08:58Z</time>
      </trkpt>
      <trkpt lat="48.02979" lon="3.31777">
        <ele>70.79</ele>
        <time>2016-10-10T10:09:05Z</time>
      </trkpt>
      <trkpt lat="48.02987" lon="3.31785">
        <ele>71.76</ele>
        <time>2016-10-10T10:09:12Z</time>
      </trkpt>
      <trkpt lat="48.02994" lon="3.31791">
        <ele>72.24</ele>
        <time>2016-10-10T10:09:19Z</time>
      </trkpt>
      <trkpt lat="48.03002" lon="3.31796">
        <ele>72.72</ele>
        <time>2016-10-10T10:09:27Z</time>
      </trkpt>
      <trkpt lat="48.0301" lon="3.31801">
        <ele>72.72</ele>
        <time>2016-10-10T10:09:35Z</time>
      </trkpt>
      <trkpt lat="48.03016" lon="3.31804">
        <ele>72.72</ele>
        <time>2016-10-10T10:09:42Z</time>
      </trkpt>
      <trkpt lat="48.03024" lon="3.31809">
        <ele>72.24</ele>
        <time>2016-10-10T10:09:50Z</time>
      </trkpt>
      <trkpt lat="48.03033" lon="3.31811">
        <ele>71.76</ele>
        <time>2016-10-10T10:09:59Z</time>
      </trkpt>
      <trkpt lat="48.03041" lon="3.31813">
        <ele>72.24</ele>
        <time>2016-10-10T10:10:06Z</time>
      </trkpt>
      <trkpt lat="48.03044" lon="3.31813">
        <ele>72.72</ele>
        <time>2016-10-10T10:10:09Z</time>
      </trkpt>
      <trkpt lat="48.03053" lon="3.31815">
        <ele>73.68</ele>
        <time>2016-10-10T10:10:16Z</time>
      </trkpt>
      <trkpt lat="48.0306" lon="3.31817">
        <ele>73.68</ele>
        <time>2016-10-10T10:10:23Z</time>
      </trkpt>
      <trkpt lat="48.03069" lon="3.3182">
        <ele>74.16</ele>
        <time>2016-10-10T10:10:32Z</time>
      </trkpt>
      <trkpt lat="48.03077" lon="3.31823">
        <ele>74.16</ele>
        <time>2016-10-10T10:10:40Z</time>
      </trkpt>
      <trkpt lat="48.03084" lon="3.31825">
        <ele>72.72</ele>
        <time>2016-10-10T10:10:46Z</time>
      </trkpt>
      <trkpt lat="48.03092" lon="3.31831">
        <ele>71.76</ele>
        <time>2016-10-10T10:10:55Z</time>
      </trkpt>
      <trkpt lat="48.031" lon="3.31836">
        <ele>71.27</ele>
        <time>2016-10-10T10:11:02Z</time>
      </trkpt>
      <trkpt lat="48.03107" lon="3.31839">
        <ele>70.79</ele>
        <time>2016-10-10T10:11:10Z</time>
      </trkpt>
      <trkpt lat="48.03116" lon="3.31844">
        <ele>70.31</ele>
        <time>2016-10-10T10:11:18Z</time>
      </trkpt>
      <trkpt lat="48.03126" lon="3.3185">
        <ele>70.79</ele>
        <time>2016-10-10T10:11:28Z</time>
      </trkpt>
      <trkpt lat="48.03137" lon="3.31856">
        <ele>71.27</ele>
        <time>2016-10-10T10:11:37Z</time>
      </trkpt>
      <trkpt lat="48.03144" lon="3.31861">
        <ele>70.79</ele>
        <time>2016-10-10T10:11:45Z</time>
      </trkpt>
      <trkpt lat="48.03153" lon="3.31865">
        <ele>71.27</ele>
        <time>2016-10-10T10:11:53Z</time>
      </trkpt>
      <trkpt lat="48.03162" lon="3.3187">
        <ele>72.72</ele>
        <time>2016-10-10T10:12:01Z</time>
      </trkpt>
      <trkpt lat="48.0317" lon="3.31873">
        <ele>71.76</ele>
        <time>2016-10-10T10:12:09Z</time>
      </trkpt>
      <trkpt lat="48.03179" lon="3.31878">
        <ele>71.27</ele>
        <time>2016-10-10T10:12:18Z</time>
      </trkpt>
      <trkpt lat="48.0319" lon="3.31884">
        <ele>72.24</ele>
        <time>2016-10-10T10:12:28Z</time>
      </trkpt>
      <trkpt lat="48.03202" lon="3.3189">
        <ele>73.2</ele>
        <time>2016-10-10T10:12:37Z</time>
      </trkpt>
      <trkpt lat="48.03208" lon="3.31893">
        <ele>72.72</ele>
        <time>2016-10-10T10:12:43Z</time>
      </trkpt>
      <trkpt lat="48.03217" lon="3.31897">
        <ele>73.68</ele>
        <time>2016-10-10T10:12:51Z</time>
      </trkpt>
      <trkpt lat="48.03225" lon="3.31901">
        <ele>74.64</ele>
        <time>2016-10-10T10:12:59Z</time>
      </trkpt>
      <trkpt lat="48.03233" lon="3.31904">
        <ele>74.64</ele>
        <time>2016-10-10T10:13:07Z</time>
      </trkpt>
      <trkpt lat="48.03242" lon="3.31907">
        <ele>73.68</ele>
        <time>2016-10-10T10:13:16Z</time>
      </trkpt>
      <trkpt lat="48.03254" lon="3.31911">
        <ele>74.64</ele>
        <time>2016-10-10T10:13:26Z</time>
      </trkpt>
      <trkpt lat="48.03265" lon="3.31915">
        <ele>74.16</ele>
        <time>2016-10-10T10:13:36Z</time>
      </trkpt>
      <trkpt lat="48.03272" lon="3.31918">
        <ele>74.16</ele>
        <time>2016-10-10T10:13:44Z</time>
      </trkpt>
      <trkpt lat="48.03277" lon="3.3192">
        <ele>74.16</ele>
        <time>2016-10-10T10:13:49Z</time>
      </trkpt>
      <trkpt lat="48.03287" lon="3.31923">
        <ele>73.68</ele>
        <time>2016-10-10T10:13:58Z</time>
      </trkpt>
      <trkpt lat="48.03296" lon="3.31926">
        <ele>73.2</ele>
        <time>2016-10-10T10:14:06Z</time>
      </trkpt>
      <trkpt lat="48.03305" lon="3.3193">
        <ele>72.72</ele>
        <time>2016-10-10T10:14:14Z</time>
      </trkpt>
      <trkpt lat="48.03315" lon="3.31933">
        <ele>71.76</ele>
        <time>2016-10-10T10:14:23Z</time>
      </trkpt>
      <trkpt lat="48.03326" lon="3.31935">
        <ele>73.2</ele>
        <time>2016-10-10T10:14:33Z</time>
      </trkpt>
      <trkpt lat="48.03334" lon="3.31938">
        <ele>72.24</ele>
        <time>2016-10-10T10:14:41Z</time>
      </trkpt>
      <trkpt lat="48.03343" lon="3.31941">
        <ele>71.76</ele>
        <time>2016-10-10T10:14:50Z</time>
      </trkpt>
      <trkpt lat="48.03353" lon="3.31942">
        <ele>71.27</ele>
        <time>2016-10-10T10:14:58Z</time>
      </trkpt>
      <trkpt lat="48.03366" lon="3.31944">
        <ele>73.2</ele>
        <time>2016-10-10T10:15:09Z</time>
      </trkpt>
      <trkpt lat="48.03377" lon="3.31946">
        <ele>73.68</ele>
        <time>2016-10-10T10:15:19Z</time>
      </trkpt>
      <trkpt lat="48.03386" lon="3.31946">
        <ele>76.08</ele>
        <time>2016-10-10T10:15:27Z</time>
      </trkpt>
      <trkpt lat="48.03394" lon="3.31947">
        <ele>77.52</ele>
        <time>2016-10-10T10:15:35Z</time>
      </trkpt>
      <trkpt lat="48.03402" lon="3.31948">
        <ele>76.56</ele>
        <time>2016-10-10T10:15:44Z</time>
      </trkpt>
      <trkpt lat="48.0341" lon="3.3195">
        <ele>76.56</ele>
        <time>2016-10-10T10:15:52Z</time>
      </trkpt>
      <trkpt lat="48.03419" lon="3.3195">
        <ele>77.52</ele>
        <time>2016-10-10T10:16:00Z</time>
      </trkpt>
      <trkpt lat="48.03425" lon="3.31949">
        <ele>78.97</ele>
        <time>2016-10-10T10:16:07Z</time>
      </trkpt>
      <trkpt lat="48.03433" lon="3.3195">
        <ele>78.48</ele>
        <time>2016-10-10T10:16:15Z</time>
      </trkpt>
      <trkpt lat="48.03435" lon="3.3195">
        <ele>78.48</ele>
        <time>2016-10-10T10:16:21Z</time>
      </trkpt>
      <trkpt lat="48.03443" lon="3.31952">
        <ele>78.48</ele>
        <time>2016-10-10T10:16:29Z</time>
      </trkpt>
      <trkpt lat="48.03455" lon="3.31952">
        <ele>78.97</ele>
        <time>2016-10-10T10:16:40Z</time>
      </trkpt>
      <trkpt lat="48.03466" lon="3.31953">
        <ele>77.04</ele>
        <time>2016-10-10T10:16:49Z</time>
      </trkpt>
      <trkpt lat="48.03475" lon="3.31953">
        <ele>75.6</ele>
        <time>2016-10-10T10:16:57Z</time>
      </trkpt>
      <trkpt lat="48.03484" lon="3.31952">
        <ele>75.12</ele>
        <time>2016-10-10T10:17:05Z</time>
      </trkpt>
      <trkpt lat="48.03493" lon="3.31951">
        <ele>74.64</ele>
        <time>2016-10-10T10:17:15Z</time>
      </trkpt>
      <trkpt lat="48.035" lon="3.31949">
        <ele>74.64</ele>
        <time>2016-10-10T10:17:22Z</time>
      </trkpt>
      <trkpt lat="48.03504" lon="3.31949">
        <ele>74.64</ele>
        <time>2016-10-10T10:17:26Z</time>
      </trkpt>
      <trkpt lat="48.03515" lon="3.31947">
        <ele>75.6</ele>
        <time>2016-10-10T10:17:34Z</time>
      </trkpt>
      <trkpt lat="48.03524" lon="3.31946">
        <ele>76.08</ele>
        <time>2016-10-10T10:17:42Z</time>
      </trkpt>
      <trkpt lat="48.03531" lon="3.31945">
        <ele>75.6</ele>
        <time>2016-10-10T10:17:49Z</time>
      </trkpt>
      <trkpt lat="48.03542" lon="3.31944">
        <ele>75.12</ele>
        <time>2016-10-10T10:17:57Z</time>
      </trkpt>
      <trkpt lat="48.03551" lon="3.31944">
        <ele>74.64</ele>
        <time>2016-10-10T10:18:05Z</time>
      </trkpt>
      <trkpt lat="48.0356" lon="3.31944">
        <ele>75.12</ele>
        <time>2016-10-10T10:18:13Z</time>
      </trkpt>
      <trkpt lat="48.03572" lon="3.31942">
        <ele>75.6</ele>
        <time>2016-10-10T10:18:23Z</time>
      </trkpt>
      <trkpt lat="48.03581" lon="3.31942">
        <ele>75.12</ele>
        <time>2016-10-10T10:18:30Z</time>
      </trkpt>
      <trkpt lat="48.03589" lon="3.31942">
        <ele>75.12</ele>
        <time>2016-10-10T10:18:38Z</time>
      </trkpt>
      <trkpt lat="48.036" lon="3.3194">
        <ele>76.08</ele>
        <time>2016-10-10T10:18:48Z</time>
      </trkpt>
      <trkpt lat="48.03614" lon="3.31939">
        <ele>72.72</ele>
        <time>2016-10-10T10:19:00Z</time>
      </trkpt>
      <trkpt lat="48.03626" lon="3.31938">
        <ele>72.24</ele>
        <time>2016-10-10T10:19:09Z</time>
      </trkpt>
      <trkpt lat="48.03636" lon="3.31938">
        <ele>72.24</ele>
        <time>2016-10-10T10:19:18Z</time>
      </trkpt>
      <trkpt lat="48.03645" lon="3.31937">
        <ele>72.72</ele>
        <time>2016-10-10T10:19:26Z</time>
      </trkpt>
      <trkpt lat="48.03651" lon="3.31936">
        <ele>72.72</ele>
        <time>2016-10-10T10:19:32Z</time>
      </trkpt>
      <trkpt lat="48.03659" lon="3.31936">
        <ele>71.27</ele>
        <time>2016-10-10T10:19:39Z</time>
      </trkpt>
      <trkpt lat="48.03668" lon="3.31935">
        <ele>70.79</ele>
        <time>2016-10-10T10:19:48Z</time>
      </trkpt>
      <trkpt lat="48.03676" lon="3.31933">
        <ele>70.31</ele>
        <time>2016-10-10T10:19:55Z</time>
      </trkpt>
      <trkpt lat="48.03685" lon="3.31932">
        <ele>71.27</ele>
        <time>2016-10-10T10:20:04Z</time>
      </trkpt>
      <trkpt lat="48.03692" lon="3.31932">
        <ele>69.83</ele>
        <time>2016-10-10T10:20:12Z</time>
      </trkpt>
      <trkpt lat="48.03698" lon="3.31935">
        <ele>68.39</ele>
        <time>2016-10-10T10:20:18Z</time>
      </trkpt>
      <trkpt lat="48.03707" lon="3.31933">
        <ele>68.39</ele>
        <time>2016-10-10T10:20:28Z</time>
      </trkpt>
      <trkpt lat="48.03714" lon="3.31932">
        <ele>68.87</ele>
        <time>2016-10-10T10:20:35Z</time>
      </trkpt>
      <trkpt lat="48.03721" lon="3.3193">
        <ele>70.31</ele>
        <time>2016-10-10T10:20:43Z</time>
      </trkpt>
      <trkpt lat="48.03725" lon="3.3193">
        <ele>70.79</ele>
        <time>2016-10-10T10:20:50Z</time>
      </trkpt>
      <trkpt lat="48.03726" lon="3.3193">
        <ele>72.24</ele>
        <time>2016-10-10T10:21:01Z</time>
      </trkpt>
      <trkpt lat="48.0373" lon="3.31931">
        <ele>75.12</ele>
        <time>2016-10-10T10:21:21Z</time>
      </trkpt>
      <trkpt lat="48.03731" lon="3.31933">
        <ele>74.64</ele>
        <time>2016-10-10T10:21:31Z</time>
      </trkpt>
      <trkpt lat="48.03731" lon="3.31933">
        <ele>76.08</ele>
        <time>2016-10-10T10:21:41Z</time>
      </trkpt>
      <trkpt lat="48.03731" lon="3.31934">
        <ele>76.08</ele>
        <time>2016-10-10T10:21:53Z</time>
      </trkpt>
      <trkpt lat="48.03731" lon="3.31932">
        <ele>76.08</ele>
        <time>2016-10-10T10:22:01Z</time>
      </trkpt>
      <trkpt lat="48.03733" lon="3.31932">
        <ele>76.08</ele>
        <time>2016-10-10T10:22:11Z</time>
      </trkpt>
      <trkpt lat="48.03738" lon="3.31928">
        <ele>76.08</ele>
        <time>2016-10-10T10:22:19Z</time>
      </trkpt>
      <trkpt lat="48.03744" lon="3.31928">
        <ele>76.56</ele>
        <time>2016-10-10T10:22:27Z</time>
      </trkpt>
      <trkpt lat="48.03751" lon="3.31929">
        <ele>76.08</ele>
        <time>2016-10-10T10:22:35Z</time>
      </trkpt>
      <trkpt lat="48.0376" lon="3.31929">
        <ele>74.64</ele>
        <time>2016-10-10T10:22:45Z</time>
      </trkpt>
      <trkpt lat="48.03768" lon="3.31929">
        <ele>75.12</ele>
        <time>2016-10-10T10:22:53Z</time>
      </trkpt>
      <trkpt lat="48.03776" lon="3.31927">
        <ele>75.12</ele>
        <time>2016-10-10T10:23:00Z</time>
      </trkpt>
      <trkpt lat="48.03784" lon="3.31928">
        <ele>74.16</ele>
        <time>2016-10-10T10:23:07Z</time>
      </trkpt>
      <trkpt lat="48.03791" lon="3.31928">
        <ele>74.64</ele>
        <time>2016-10-10T10:23:14Z</time>
      </trkpt>
      <trkpt lat="48.03801" lon="3.31928">
        <ele>73.2</ele>
        <time>2016-10-10T10:23:24Z</time>
      </trkpt>
      <trkpt lat="48.03809" lon="3.31926">
        <ele>73.2</ele>
        <time>2016-10-10T10:23:32Z</time>
      </trkpt>
      <trkpt lat="48.03818" lon="3.31926">
        <ele>74.64</ele>
        <time>2016-10-10T10:23:41Z</time>
      </trkpt>
      <trkpt lat="48.03827" lon="3.31925">
        <ele>74.16</ele>
        <time>2016-10-10T10:23:50Z</time>
      </trkpt>
      <trkpt lat="48.03833" lon="3.31924">
        <ele>73.68</ele>
        <time>2016-10-10T10:23:56Z</time>
      </trkpt>
      <trkpt lat="48.03841" lon="3.31924">
        <ele>73.68</ele>
        <time>2016-10-10T10:24:03Z</time>
      </trkpt>
      <trkpt lat="48.03849" lon="3.31924">
        <ele>74.64</ele>
        <time>2016-10-10T10:24:11Z</time>
      </trkpt>
      <trkpt lat="48.03857" lon="3.31924">
        <ele>74.64</ele>
        <time>2016-10-10T10:24:19Z</time>
      </trkpt>
      <trkpt lat="48.03866" lon="3.31924">
        <ele>74.64</ele>
        <time>2016-10-10T10:24:27Z</time>
      </trkpt>
      <trkpt lat="48.03872" lon="3.31925">
        <ele>75.12</ele>
        <time>2016-10-10T10:24:32Z</time>
      </trkpt>
      <trkpt lat="48.03879" lon="3.31925">
        <ele>74.64</ele>
        <time>2016-10-10T10:24:40Z</time>
      </trkpt>
      <trkpt lat="48.03885" lon="3.31925">
        <ele>75.12</ele>
        <time>2016-10-10T10:24:47Z</time>
      </trkpt>
      <trkpt lat="48.03893" lon="3.31925">
        <ele>73.2</ele>
        <time>2016-10-10T10:24:55Z</time>
      </trkpt>
      <trkpt lat="48.039" lon="3.31924">
        <ele>73.2</ele>
        <time>2016-10-10T10:25:02Z</time>
      </trkpt>
      <trkpt lat="48.03906" lon="3.31924">
        <ele>72.72</ele>
        <time>2016-10-10T10:25:08Z</time>
      </trkpt>
      <trkpt lat="48.03912" lon="3.31926">
        <ele>72.72</ele>
        <time>2016-10-10T10:25:14Z</time>
      </trkpt>
      <trkpt lat="48.03919" lon="3.31927">
        <ele>73.2</ele>
        <time>2016-10-10T10:25:20Z</time>
      </trkpt>
      <trkpt lat="48.03928" lon="3.31927">
        <ele>73.2</ele>
        <time>2016-10-10T10:25:28Z</time>
      </trkpt>
      <trkpt lat="48.03932" lon="3.31928">
        <ele>73.68</ele>
        <time>2016-10-10T10:25:33Z</time>
      </trkpt>
      <trkpt lat="48.0394" lon="3.3193">
        <ele>73.68</ele>
        <time>2016-10-10T10:25:40Z</time>
      </trkpt>
      <trkpt lat="48.03946" lon="3.31931">
        <ele>73.2</ele>
        <time>2016-10-10T10:25:47Z</time>
      </trkpt>
      <trkpt lat="48.03955" lon="3.31933">
        <ele>72.72</ele>
        <time>2016-10-10T10:25:55Z</time>
      </trkpt>
      <trkpt lat="48.03956" lon="3.31933">
        <ele>72.72</ele>
        <time>2016-10-10T10:25:56Z</time>
      </trkpt>
      <trkpt lat="48.03965" lon="3.31935">
        <ele>71.27</ele>
        <time>2016-10-10T10:26:05Z</time>
      </trkpt>
      <trkpt lat="48.03974" lon="3.31935">
        <ele>71.76</ele>
        <time>2016-10-10T10:26:13Z</time>
      </trkpt>
      <trkpt lat="48.03982" lon="3.31936">
        <ele>71.76</ele>
        <time>2016-10-10T10:26:20Z</time>
      </trkpt>
      <trkpt lat="48.0399" lon="3.31936">
        <ele>72.24</ele>
        <time>2016-10-10T10:26:28Z</time>
      </trkpt>
      <trkpt lat="48.03998" lon="3.31937">
        <ele>72.24</ele>
        <time>2016-10-10T10:26:35Z</time>
      </trkpt>
      <trkpt lat="48.04006" lon="3.31938">
        <ele>72.24</ele>
        <time>2016-10-10T10:26:43Z</time>
      </trkpt>
      <trkpt lat="48.04013" lon="3.31939">
        <ele>71.76</ele>
        <time>2016-10-10T10:26:50Z</time>
      </trkpt>
      <trkpt lat="48.04021" lon="3.31941">
        <ele>71.76</ele>
        <time>2016-10-10T10:26:57Z</time>
      </trkpt>
      <trkpt lat="48.04028" lon="3.31942">
        <ele>71.76</ele>
        <time>2016-10-10T10:27:05Z</time>
      </trkpt>
      <trkpt lat="48.04036" lon="3.31943">
        <ele>71.27</ele>
        <time>2016-10-10T10:27:13Z</time>
      </trkpt>
      <trkpt lat="48.04044" lon="3.31945">
        <ele>72.24</ele>
        <time>2016-10-10T10:27:19Z</time>
      </trkpt>
      <trkpt lat="48.04048" lon="3.31946">
        <ele>72.72</ele>
        <time>2016-10-10T10:27:26Z</time>
      </trkpt>
      <trkpt lat="48.04056" lon="3.31948">
        <ele>73.2</ele>
        <time>2016-10-10T10:27:34Z</time>
      </trkpt>
      <trkpt lat="48.04066" lon="3.3195">
        <ele>73.68</ele>
        <time>2016-10-10T10:27:43Z</time>
      </trkpt>
      <trkpt lat="48.04072" lon="3.31951">
        <ele>73.2</ele>
        <time>2016-10-10T10:27:49Z</time>
      </trkpt>
      <trkpt lat="48.0408" lon="3.31952">
        <ele>72.72</ele>
        <time>2016-10-10T10:27:57Z</time>
      </trkpt>
      <trkpt lat="48.0409" lon="3.31956">
        <ele>71.76</ele>
        <time>2016-10-10T10:28:06Z</time>
      </trkpt>
      <trkpt lat="48.04095" lon="3.31958">
        <ele>71.76</ele>
        <time>2016-10-10T10:28:11Z</time>
      </trkpt>
      <trkpt lat="48.04106" lon="3.31961">
        <ele>70.31</ele>
        <time>2016-10-10T10:28:20Z</time>
      </trkpt>
      <trkpt lat="48.04113" lon="3.31963">
        <ele>71.27</ele>
        <time>2016-10-10T10:28:28Z</time>
      </trkpt>
      <trkpt lat="48.04121" lon="3.31967">
        <ele>69.35</ele>
        <time>2016-10-10T10:28:36Z</time>
      </trkpt>
      <trkpt lat="48.04129" lon="3.3197">
        <ele>70.31</ele>
        <time>2016-10-10T10:28:43Z</time>
      </trkpt>
      <trkpt lat="48.04136" lon="3.31975">
        <ele>70.31</ele>
        <time>2016-10-10T10:28:50Z</time>
      </trkpt>
      <trkpt lat="48.04143" lon="3.31977">
        <ele>70.31</ele>
        <time>2016-10-10T10:28:56Z</time>
      </trkpt>
      <trkpt lat="48.04151" lon="3.3198">
        <ele>69.83</ele>
        <time>2016-10-10T10:29:04Z</time>
      </trkpt>
      <trkpt lat="48.0416" lon="3.31983">
        <ele>71.27</ele>
        <time>2016-10-10T10:29:12Z</time>
      </trkpt>
      <trkpt lat="48.04168" lon="3.31988">
        <ele>71.76</ele>
        <time>2016-10-10T10:29:20Z</time>
      </trkpt>
      <trkpt lat="48.04173" lon="3.31989">
        <ele>71.76</ele>
        <time>2016-10-10T10:29:27Z</time>
      </trkpt>
      <trkpt lat="48.0418" lon="3.31993">
        <ele>71.27</ele>
        <time>2016-10-10T10:29:35Z</time>
      </trkpt>
      <trkpt lat="48.04186" lon="3.31998">
        <ele>71.27</ele>
        <time>2016-10-10T10:29:42Z</time>
      </trkpt>
      <trkpt lat="48.04193" lon="3.32002">
        <ele>71.27</ele>
        <time>2016-10-10T10:29:49Z</time>
      </trkpt>
      <trkpt lat="48.04202" lon="3.32008">
        <ele>72.24</ele>
        <time>2016-10-10T10:29:56Z</time>
      </trkpt>
      <trkpt lat="48.04209" lon="3.32013">
        <ele>72.72</ele>
        <time>2016-10-10T10:30:03Z</time>
      </trkpt>
      <trkpt lat="48.04215" lon="3.3202">
        <ele>72.72</ele>
        <time>2016-10-10T10:30:11Z</time>
      </trkpt>
      <trkpt lat="48.04222" lon="3.32026">
        <ele>70.79</ele>
        <time>2016-10-10T10:30:18Z</time>
      </trkpt>
      <trkpt lat="48.04233" lon="3.32028">
        <ele>72.24</ele>
        <time>2016-10-10T10:30:27Z</time>
      </trkpt>
      <trkpt lat="48.0424" lon="3.3203">
        <ele>72.72</ele>
        <time>2016-10-10T10:30:33Z</time>
      </trkpt>
      <trkpt lat="48.04247" lon="3.32034">
        <ele>71.76</ele>
        <time>2016-10-10T10:30:40Z</time>
      </trkpt>
      <trkpt lat="48.04253" lon="3.3204">
        <ele>69.35</ele>
        <time>2016-10-10T10:30:47Z</time>
      </trkpt>
      <trkpt lat="48.04262" lon="3.32045">
        <ele>69.35</ele>
        <time>2016-10-10T10:30:55Z</time>
      </trkpt>
      <trkpt lat="48.04269" lon="3.3205">
        <ele>69.83</ele>
        <time>2016-10-10T10:31:03Z</time>
      </trkpt>
      <trkpt lat="48.04271" lon="3.32053">
        <ele>70.31</ele>
        <time>2016-10-10T10:31:05Z</time>
      </trkpt>
      <trkpt lat="48.04281" lon="3.32058">
        <ele>71.76</ele>
        <time>2016-10-10T10:31:14Z</time>
      </trkpt>
      <trkpt lat="48.04283" lon="3.32058">
        <ele>71.76</ele>
        <time>2016-10-10T10:31:15Z</time>
      </trkpt>
      <trkpt lat="48.04291" lon="3.32063">
        <ele>72.72</ele>
        <time>2016-10-10T10:31:22Z</time>
      </trkpt>
      <trkpt lat="48.043" lon="3.3207">
        <ele>72.72</ele>
        <time>2016-10-10T10:31:30Z</time>
      </trkpt>
      <trkpt lat="48.04308" lon="3.32076">
        <ele>72.24</ele>
        <time>2016-10-10T10:31:38Z</time>
      </trkpt>
      <trkpt lat="48.04315" lon="3.32081">
        <ele>72.72</ele>
        <time>2016-10-10T10:31:45Z</time>
      </trkpt>
      <trkpt lat="48.04323" lon="3.32086">
        <ele>72.72</ele>
        <time>2016-10-10T10:31:53Z</time>
      </trkpt>
      <trkpt lat="48.04329" lon="3.32091">
        <ele>71.27</ele>
        <time>2016-10-10T10:32:00Z</time>
      </trkpt>
      <trkpt lat="48.04335" lon="3.32095">
        <ele>69.83</ele>
        <time>2016-10-10T10:32:07Z</time>
      </trkpt>
      <trkpt lat="48.04344" lon="3.321">
        <ele>70.31</ele>
        <time>2016-10-10T10:32:15Z</time>
      </trkpt>
      <trkpt lat="48.04351" lon="3.32102">
        <ele>70.79</ele>
        <time>2016-10-10T10:32:21Z</time>
      </trkpt>
      <trkpt lat="48.04359" lon="3.32105">
        <ele>71.76</ele>
        <time>2016-10-10T10:32:29Z</time>
      </trkpt>
      <trkpt lat="48.04367" lon="3.32106">
        <ele>71.27</ele>
        <time>2016-10-10T10:32:36Z</time>
      </trkpt>
      <trkpt lat="48.04378" lon="3.32106">
        <ele>72.24</ele>
        <time>2016-10-10T10:32:46Z</time>
      </trkpt>
      <trkpt lat="48.04387" lon="3.32106">
        <ele>72.24</ele>
        <time>2016-10-10T10:32:54Z</time>
      </trkpt>
      <trkpt lat="48.04393" lon="3.32104">
        <ele>72.72</ele>
        <time>2016-10-10T10:33:00Z</time>
      </trkpt>
      <trkpt lat="48.04403" lon="3.32102">
        <ele>73.2</ele>
        <time>2016-10-10T10:33:09Z</time>
      </trkpt>
      <trkpt lat="48.04412" lon="3.321">
        <ele>72.72</ele>
        <time>2016-10-10T10:33:17Z</time>
      </trkpt>
      <trkpt lat="48.0442" lon="3.32095">
        <ele>72.72</ele>
        <time>2016-10-10T10:33:25Z</time>
      </trkpt>
      <trkpt lat="48.04427" lon="3.32088">
        <ele>72.24</ele>
        <time>2016-10-10T10:33:33Z</time>
      </trkpt>
      <trkpt lat="48.04434" lon="3.32078">
        <ele>72.72</ele>
        <time>2016-10-10T10:33:41Z</time>
      </trkpt>
      <trkpt lat="48.04439" lon="3.32073">
        <ele>73.2</ele>
        <time>2016-10-10T10:33:49Z</time>
      </trkpt>
      <trkpt lat="48.04443" lon="3.32065">
        <ele>74.16</ele>
        <time>2016-10-10T10:33:56Z</time>
      </trkpt>
      <trkpt lat="48.0445" lon="3.32057">
        <ele>74.16</ele>
        <time>2016-10-10T10:34:04Z</time>
      </trkpt>
      <trkpt lat="48.04458" lon="3.32048">
        <ele>74.16</ele>
        <time>2016-10-10T10:34:13Z</time>
      </trkpt>
      <trkpt lat="48.04464" lon="3.32042">
        <ele>74.16</ele>
        <time>2016-10-10T10:34:19Z</time>
      </trkpt>
      <trkpt lat="48.0447" lon="3.32036">
        <ele>73.2</ele>
        <time>2016-10-10T10:34:26Z</time>
      </trkpt>
      <trkpt lat="48.0447" lon="3.32034">
        <ele>73.2</ele>
        <time>2016-10-10T10:34:27Z</time>
      </trkpt>
      <trkpt lat="48.04476" lon="3.32025">
        <ele>73.68</ele>
        <time>2016-10-10T10:34:35Z</time>
      </trkpt>
      <trkpt lat="48.04477" lon="3.32023">
        <ele>73.68</ele>
        <time>2016-10-10T10:34:36Z</time>
      </trkpt>
      <trkpt lat="48.04485" lon="3.32013">
        <ele>74.16</ele>
        <time>2016-10-10T10:34:45Z</time>
      </trkpt>
      <trkpt lat="48.04488" lon="3.32007">
        <ele>74.16</ele>
        <time>2016-10-10T10:34:53Z</time>
      </trkpt>
      <trkpt lat="48.0449" lon="3.32005">
        <ele>75.12</ele>
        <time>2016-10-10T10:35:02Z</time>
      </trkpt>
      <trkpt lat="48.04492" lon="3.32005">
        <ele>75.12</ele>
        <time>2016-10-10T10:35:03Z</time>
      </trkpt>
      <trkpt lat="48.04498" lon="3.32009">
        <ele>74.16</ele>
        <time>2016-10-10T10:35:11Z</time>
      </trkpt>
      <trkpt lat="48.045" lon="3.32009">
        <ele>73.68</ele>
        <time>2016-10-10T10:35:25Z</time>
      </trkpt>
      <trkpt lat="48.04503" lon="3.32014">
        <ele>72.72</ele>
        <time>2016-10-10T10:35:29Z</time>
      </trkpt>
      <trkpt lat="48.04506" lon="3.32023">
        <ele>70.79</ele>
        <time>2016-10-10T10:35:36Z</time>
      </trkpt>
      <trkpt lat="48.04509" lon="3.32031">
        <ele>66.95</ele>
        <time>2016-10-10T10:35:44Z</time>
      </trkpt>
      <trkpt lat="48.04512" lon="3.32033">
        <ele>65.99</ele>
        <time>2016-10-10T10:35:48Z</time>
      </trkpt>
      <trkpt lat="48.0452" lon="3.3203">
        <ele>65.51</ele>
        <time>2016-10-10T10:35:54Z</time>
      </trkpt>
      <trkpt lat="48.04525" lon="3.32025">
        <ele>65.99</ele>
        <time>2016-10-10T10:35:58Z</time>
      </trkpt>
      <trkpt lat="48.04529" lon="3.32023">
        <ele>65.51</ele>
        <time>2016-10-10T10:36:02Z</time>
      </trkpt>
      <trkpt lat="48.04535" lon="3.32017">
        <ele>67.91</ele>
        <time>2016-10-10T10:36:09Z</time>
      </trkpt>
      <trkpt lat="48.0454" lon="3.32008">
        <ele>70.79</ele>
        <time>2016-10-10T10:36:16Z</time>
      </trkpt>
      <trkpt lat="48.04547" lon="3.31998">
        <ele>73.68</ele>
        <time>2016-10-10T10:36:24Z</time>
      </trkpt>
      <trkpt lat="48.04552" lon="3.31993">
        <ele>73.2</ele>
        <time>2016-10-10T10:36:31Z</time>
      </trkpt>
      <trkpt lat="48.04555" lon="3.3199">
        <ele>73.2</ele>
        <time>2016-10-10T10:36:36Z</time>
      </trkpt>
      <trkpt lat="48.04562" lon="3.31983">
        <ele>74.64</ele>
        <time>2016-10-10T10:36:44Z</time>
      </trkpt>
      <trkpt lat="48.04568" lon="3.31978">
        <ele>75.6</ele>
        <time>2016-10-10T10:36:51Z</time>
      </trkpt>
      <trkpt lat="48.04573" lon="3.31978">
        <ele>76.08</ele>
        <time>2016-10-10T10:36:59Z</time>
      </trkpt>
      <trkpt lat="48.04575" lon="3.31978">
        <ele>76.08</ele>
        <time>2016-10-10T10:37:07Z</time>
      </trkpt>
      <trkpt lat="48.04576" lon="3.31978">
        <ele>76.08</ele>
        <time>2016-10-10T10:37:16Z</time>
      </trkpt>
      <trkpt lat="48.04577" lon="3.31979">
        <ele>76.08</ele>
        <time>2016-10-10T10:37:20Z</time>
      </trkpt>
      <trkpt lat="48.04576" lon="3.31978">
        <ele>74.16</ele>
        <time>2016-10-10T10:37:30Z</time>
      </trkpt>
      <trkpt lat="48.04578" lon="3.31977">
        <ele>73.68</ele>
        <time>2016-10-10T10:37:44Z</time>
      </trkpt>
      <trkpt lat="48.04579" lon="3.31979">
        <ele>74.16</ele>
        <time>2016-10-10T10:37:59Z</time>
      </trkpt>
      <trkpt lat="48.04579" lon="3.31979">
        <ele>75.12</ele>
        <time>2016-10-10T10:38:15Z</time>
      </trkpt>
      <trkpt lat="48.0458" lon="3.31976">
        <ele>75.6</ele>
        <time>2016-10-10T10:38:31Z</time>
      </trkpt>
      <trkpt lat="48.04581" lon="3.31973">
        <ele>76.08</ele>
        <time>2016-10-10T10:38:46Z</time>
      </trkpt>
      <trkpt lat="48.04578" lon="3.31974">
        <ele>78</ele>
        <time>2016-10-10T10:39:00Z</time>
      </trkpt>
    </trkseg>
  </trk>
</gpx>